<?xml version="1.0" encoding="UTF-8" standalone="no" ?>
<gpx xmlns="http://www.topografix.com/GPX/1/1" xmlns:xsi="http://www.w3.org/2001/XMLSchema-instance" xsi:schemaLocation="http://www.topografix.com/GPX/1/1 http://www.topografix.com/GPX/1/1/gpx.xsd" version="1.1" creator="VisuGPX - https://www.visugpx.com">
  <metadata>
    <name>VTT - Autour du lac de Remoray</name>
    <desc><![CDATA[Circuit VTT en partie à l\'ombre avec toujours ces singles en terre bien sympathique ;) Passage en forêt très chouette ;)]]></desc>
  </metadata>
  <trk>
    <name><![CDATA[02-AOU-13 13:56:51]]></name>
    <trkseg>
      <trkpt lat="46.77207" lon="6.24231">
        <ele>883.11</ele>
        <time>2013-08-02T07:59:54Z</time>
      </trkpt>
      <trkpt lat="46.77207" lon="6.24229">
        <ele>883.11</ele>
        <time>2013-08-02T08:00:03Z</time>
      </trkpt>
      <trkpt lat="46.77208" lon="6.24229">
        <ele>883.11</ele>
        <time>2013-08-02T08:00:11Z</time>
      </trkpt>
      <trkpt lat="46.77214" lon="6.24237">
        <ele>886.95</ele>
        <time>2013-08-02T08:00:16Z</time>
      </trkpt>
      <trkpt lat="46.77224" lon="6.2425">
        <ele>890.8</ele>
        <time>2013-08-02T08:00:21Z</time>
      </trkpt>
      <trkpt lat="46.77238" lon="6.24266">
        <ele>894.16</ele>
        <time>2013-08-02T08:00:26Z</time>
      </trkpt>
      <trkpt lat="46.77251" lon="6.24282">
        <ele>897.53</ele>
        <time>2013-08-02T08:00:31Z</time>
      </trkpt>
      <trkpt lat="46.77268" lon="6.24303">
        <ele>900.89</ele>
        <time>2013-08-02T08:00:37Z</time>
      </trkpt>
      <trkpt lat="46.77282" lon="6.24328">
        <ele>903.78</ele>
        <time>2013-08-02T08:00:43Z</time>
      </trkpt>
      <trkpt lat="46.77284" lon="6.24333">
        <ele>904.26</ele>
        <time>2013-08-02T08:00:44Z</time>
      </trkpt>
      <trkpt lat="46.77303" lon="6.24374">
        <ele>907.14</ele>
        <time>2013-08-02T08:00:53Z</time>
      </trkpt>
      <trkpt lat="46.77323" lon="6.24413">
        <ele>910.03</ele>
        <time>2013-08-02T08:01:02Z</time>
      </trkpt>
      <trkpt lat="46.77353" lon="6.24475">
        <ele>913.39</ele>
        <time>2013-08-02T08:01:15Z</time>
      </trkpt>
      <trkpt lat="46.7738" lon="6.2453">
        <ele>915.79</ele>
        <time>2013-08-02T08:01:27Z</time>
      </trkpt>
      <trkpt lat="46.77387" lon="6.24545">
        <ele>915.79</ele>
        <time>2013-08-02T08:01:30Z</time>
      </trkpt>
      <trkpt lat="46.7743" lon="6.24625">
        <ele>919.16</ele>
        <time>2013-08-02T08:01:48Z</time>
      </trkpt>
      <trkpt lat="46.77453" lon="6.24673">
        <ele>921.08</ele>
        <time>2013-08-02T08:02:01Z</time>
      </trkpt>
      <trkpt lat="46.77479" lon="6.24727">
        <ele>923.96</ele>
        <time>2013-08-02T08:02:15Z</time>
      </trkpt>
      <trkpt lat="46.77508" lon="6.24796">
        <ele>925.89</ele>
        <time>2013-08-02T08:02:30Z</time>
      </trkpt>
      <trkpt lat="46.77522" lon="6.24844">
        <ele>928.77</ele>
        <time>2013-08-02T08:02:42Z</time>
      </trkpt>
      <trkpt lat="46.77534" lon="6.24879">
        <ele>931.17</ele>
        <time>2013-08-02T08:02:53Z</time>
      </trkpt>
      <trkpt lat="46.77544" lon="6.24906">
        <ele>933.1</ele>
        <time>2013-08-02T08:03:01Z</time>
      </trkpt>
      <trkpt lat="46.77551" lon="6.24953">
        <ele>935.98</ele>
        <time>2013-08-02T08:03:12Z</time>
      </trkpt>
      <trkpt lat="46.77559" lon="6.25">
        <ele>938.38</ele>
        <time>2013-08-02T08:03:23Z</time>
      </trkpt>
      <trkpt lat="46.77585" lon="6.25047">
        <ele>940.31</ele>
        <time>2013-08-02T08:03:36Z</time>
      </trkpt>
      <trkpt lat="46.77621" lon="6.25092">
        <ele>941.75</ele>
        <time>2013-08-02T08:03:52Z</time>
      </trkpt>
      <trkpt lat="46.77652" lon="6.25127">
        <ele>942.71</ele>
        <time>2013-08-02T08:04:06Z</time>
      </trkpt>
      <trkpt lat="46.77687" lon="6.25163">
        <ele>945.11</ele>
        <time>2013-08-02T08:04:23Z</time>
      </trkpt>
      <trkpt lat="46.77719" lon="6.25197">
        <ele>947.52</ele>
        <time>2013-08-02T08:04:39Z</time>
      </trkpt>
      <trkpt lat="46.77743" lon="6.25236">
        <ele>949.92</ele>
        <time>2013-08-02T08:04:54Z</time>
      </trkpt>
      <trkpt lat="46.77761" lon="6.2528">
        <ele>952.32</ele>
        <time>2013-08-02T08:05:08Z</time>
      </trkpt>
      <trkpt lat="46.77791" lon="6.25313">
        <ele>951.84</ele>
        <time>2013-08-02T08:05:20Z</time>
      </trkpt>
      <trkpt lat="46.77827" lon="6.25323">
        <ele>951.84</ele>
        <time>2013-08-02T08:05:31Z</time>
      </trkpt>
      <trkpt lat="46.77839" lon="6.25324">
        <ele>952.32</ele>
        <time>2013-08-02T08:05:37Z</time>
      </trkpt>
      <trkpt lat="46.77857" lon="6.25321">
        <ele>953.77</ele>
        <time>2013-08-02T08:05:47Z</time>
      </trkpt>
      <trkpt lat="46.77866" lon="6.25323">
        <ele>954.25</ele>
        <time>2013-08-02T08:05:51Z</time>
      </trkpt>
      <trkpt lat="46.77871" lon="6.25323">
        <ele>954.25</ele>
        <time>2013-08-02T08:05:53Z</time>
      </trkpt>
      <trkpt lat="46.77898" lon="6.25318">
        <ele>955.69</ele>
        <time>2013-08-02T08:06:08Z</time>
      </trkpt>
      <trkpt lat="46.77902" lon="6.25318">
        <ele>955.69</ele>
        <time>2013-08-02T08:06:10Z</time>
      </trkpt>
      <trkpt lat="46.77913" lon="6.25322">
        <ele>954.73</ele>
        <time>2013-08-02T08:06:17Z</time>
      </trkpt>
      <trkpt lat="46.77918" lon="6.25319">
        <ele>954.25</ele>
        <time>2013-08-02T08:06:21Z</time>
      </trkpt>
      <trkpt lat="46.77923" lon="6.25314">
        <ele>954.25</ele>
        <time>2013-08-02T08:06:37Z</time>
      </trkpt>
      <trkpt lat="46.77926" lon="6.25313">
        <ele>953.77</ele>
        <time>2013-08-02T08:06:41Z</time>
      </trkpt>
      <trkpt lat="46.77942" lon="6.2528">
        <ele>951.84</ele>
        <time>2013-08-02T08:06:50Z</time>
      </trkpt>
      <trkpt lat="46.77942" lon="6.25277">
        <ele>951.84</ele>
        <time>2013-08-02T08:06:51Z</time>
      </trkpt>
      <trkpt lat="46.77941" lon="6.25271">
        <ele>952.32</ele>
        <time>2013-08-02T08:06:53Z</time>
      </trkpt>
      <trkpt lat="46.77951" lon="6.25244">
        <ele>955.21</ele>
        <time>2013-08-02T08:07:04Z</time>
      </trkpt>
      <trkpt lat="46.77954" lon="6.25239">
        <ele>956.17</ele>
        <time>2013-08-02T08:07:15Z</time>
      </trkpt>
      <trkpt lat="46.77962" lon="6.25214">
        <ele>957.61</ele>
        <time>2013-08-02T08:07:27Z</time>
      </trkpt>
      <trkpt lat="46.77969" lon="6.25196">
        <ele>958.09</ele>
        <time>2013-08-02T08:07:36Z</time>
      </trkpt>
      <trkpt lat="46.77982" lon="6.25176">
        <ele>957.13</ele>
        <time>2013-08-02T08:07:47Z</time>
      </trkpt>
      <trkpt lat="46.78001" lon="6.25165">
        <ele>954.25</ele>
        <time>2013-08-02T08:07:55Z</time>
      </trkpt>
      <trkpt lat="46.78004" lon="6.25163">
        <ele>953.77</ele>
        <time>2013-08-02T08:07:56Z</time>
      </trkpt>
      <trkpt lat="46.78034" lon="6.25149">
        <ele>952.32</ele>
        <time>2013-08-02T08:08:05Z</time>
      </trkpt>
      <trkpt lat="46.78061" lon="6.2513">
        <ele>951.36</ele>
        <time>2013-08-02T08:08:14Z</time>
      </trkpt>
      <trkpt lat="46.78076" lon="6.25112">
        <ele>950.4</ele>
        <time>2013-08-02T08:08:21Z</time>
      </trkpt>
      <trkpt lat="46.78081" lon="6.25098">
        <ele>949.44</ele>
        <time>2013-08-02T08:08:24Z</time>
      </trkpt>
      <trkpt lat="46.78097" lon="6.25075">
        <ele>948</ele>
        <time>2013-08-02T08:08:30Z</time>
      </trkpt>
      <trkpt lat="46.78102" lon="6.25065">
        <ele>947.52</ele>
        <time>2013-08-02T08:08:33Z</time>
      </trkpt>
      <trkpt lat="46.78124" lon="6.2504">
        <ele>948</ele>
        <time>2013-08-02T08:08:42Z</time>
      </trkpt>
      <trkpt lat="46.78147" lon="6.25037">
        <ele>944.63</ele>
        <time>2013-08-02T08:08:50Z</time>
      </trkpt>
      <trkpt lat="46.78159" lon="6.25013">
        <ele>944.63</ele>
        <time>2013-08-02T08:08:54Z</time>
      </trkpt>
      <trkpt lat="46.78157" lon="6.24957">
        <ele>946.56</ele>
        <time>2013-08-02T08:09:06Z</time>
      </trkpt>
      <trkpt lat="46.78148" lon="6.24918">
        <ele>946.56</ele>
        <time>2013-08-02T08:09:17Z</time>
      </trkpt>
      <trkpt lat="46.78138" lon="6.24884">
        <ele>947.04</ele>
        <time>2013-08-02T08:09:27Z</time>
      </trkpt>
      <trkpt lat="46.78123" lon="6.24851">
        <ele>948.96</ele>
        <time>2013-08-02T08:09:38Z</time>
      </trkpt>
      <trkpt lat="46.7811" lon="6.24827">
        <ele>950.4</ele>
        <time>2013-08-02T08:09:48Z</time>
      </trkpt>
      <trkpt lat="46.78096" lon="6.24802">
        <ele>952.32</ele>
        <time>2013-08-02T08:10:00Z</time>
      </trkpt>
      <trkpt lat="46.78095" lon="6.24802">
        <ele>952.32</ele>
        <time>2013-08-02T08:10:17Z</time>
      </trkpt>
      <trkpt lat="46.78095" lon="6.24802">
        <ele>951.84</ele>
        <time>2013-08-02T08:10:31Z</time>
      </trkpt>
      <trkpt lat="46.78094" lon="6.24799">
        <ele>952.8</ele>
        <time>2013-08-02T08:10:48Z</time>
      </trkpt>
      <trkpt lat="46.78085" lon="6.24785">
        <ele>953.77</ele>
        <time>2013-08-02T08:10:54Z</time>
      </trkpt>
      <trkpt lat="46.78081" lon="6.24777">
        <ele>954.73</ele>
        <time>2013-08-02T08:10:57Z</time>
      </trkpt>
      <trkpt lat="46.78076" lon="6.2477">
        <ele>955.21</ele>
        <time>2013-08-02T08:11:01Z</time>
      </trkpt>
      <trkpt lat="46.7806" lon="6.24743">
        <ele>958.57</ele>
        <time>2013-08-02T08:11:14Z</time>
      </trkpt>
      <trkpt lat="46.78053" lon="6.24732">
        <ele>960.01</ele>
        <time>2013-08-02T08:11:19Z</time>
      </trkpt>
      <trkpt lat="46.78037" lon="6.24705">
        <ele>962.42</ele>
        <time>2013-08-02T08:11:31Z</time>
      </trkpt>
      <trkpt lat="46.78034" lon="6.24699">
        <ele>962.9</ele>
        <time>2013-08-02T08:11:33Z</time>
      </trkpt>
      <trkpt lat="46.78025" lon="6.24683">
        <ele>964.34</ele>
        <time>2013-08-02T08:11:39Z</time>
      </trkpt>
      <trkpt lat="46.78014" lon="6.24653">
        <ele>965.78</ele>
        <time>2013-08-02T08:11:51Z</time>
      </trkpt>
      <trkpt lat="46.78004" lon="6.24605">
        <ele>968.67</ele>
        <time>2013-08-02T08:12:05Z</time>
      </trkpt>
      <trkpt lat="46.78" lon="6.24564">
        <ele>969.63</ele>
        <time>2013-08-02T08:12:16Z</time>
      </trkpt>
      <trkpt lat="46.77993" lon="6.2452">
        <ele>970.59</ele>
        <time>2013-08-02T08:12:29Z</time>
      </trkpt>
      <trkpt lat="46.77991" lon="6.24506">
        <ele>971.07</ele>
        <time>2013-08-02T08:12:33Z</time>
      </trkpt>
      <trkpt lat="46.77985" lon="6.24464">
        <ele>972.03</ele>
        <time>2013-08-02T08:12:45Z</time>
      </trkpt>
      <trkpt lat="46.77984" lon="6.24451">
        <ele>972.51</ele>
        <time>2013-08-02T08:12:49Z</time>
      </trkpt>
      <trkpt lat="46.7798" lon="6.24429">
        <ele>972.51</ele>
        <time>2013-08-02T08:12:56Z</time>
      </trkpt>
      <trkpt lat="46.77981" lon="6.24396">
        <ele>974.43</ele>
        <time>2013-08-02T08:13:06Z</time>
      </trkpt>
      <trkpt lat="46.77976" lon="6.24355">
        <ele>975.39</ele>
        <time>2013-08-02T08:13:16Z</time>
      </trkpt>
      <trkpt lat="46.77971" lon="6.24336">
        <ele>975.88</ele>
        <time>2013-08-02T08:13:21Z</time>
      </trkpt>
      <trkpt lat="46.77965" lon="6.2432">
        <ele>975.88</ele>
        <time>2013-08-02T08:13:25Z</time>
      </trkpt>
      <trkpt lat="46.77956" lon="6.24297">
        <ele>975.88</ele>
        <time>2013-08-02T08:13:31Z</time>
      </trkpt>
      <trkpt lat="46.77927" lon="6.24267">
        <ele>977.32</ele>
        <time>2013-08-02T08:13:45Z</time>
      </trkpt>
      <trkpt lat="46.779" lon="6.24238">
        <ele>976.84</ele>
        <time>2013-08-02T08:13:56Z</time>
      </trkpt>
      <trkpt lat="46.77881" lon="6.24198">
        <ele>976.36</ele>
        <time>2013-08-02T08:14:06Z</time>
      </trkpt>
      <trkpt lat="46.77878" lon="6.24186">
        <ele>976.36</ele>
        <time>2013-08-02T08:14:10Z</time>
      </trkpt>
      <trkpt lat="46.77876" lon="6.24182">
        <ele>976.36</ele>
        <time>2013-08-02T08:14:23Z</time>
      </trkpt>
      <trkpt lat="46.77873" lon="6.24171">
        <ele>975.88</ele>
        <time>2013-08-02T08:14:27Z</time>
      </trkpt>
      <trkpt lat="46.77862" lon="6.24143">
        <ele>973.47</ele>
        <time>2013-08-02T08:14:36Z</time>
      </trkpt>
      <trkpt lat="46.77862" lon="6.24135">
        <ele>973.47</ele>
        <time>2013-08-02T08:14:37Z</time>
      </trkpt>
      <trkpt lat="46.77876" lon="6.24072">
        <ele>973.95</ele>
        <time>2013-08-02T08:14:47Z</time>
      </trkpt>
      <trkpt lat="46.77897" lon="6.24029">
        <ele>974.91</ele>
        <time>2013-08-02T08:14:58Z</time>
      </trkpt>
      <trkpt lat="46.779" lon="6.24014">
        <ele>975.88</ele>
        <time>2013-08-02T08:15:03Z</time>
      </trkpt>
      <trkpt lat="46.77893" lon="6.23976">
        <ele>976.36</ele>
        <time>2013-08-02T08:15:12Z</time>
      </trkpt>
      <trkpt lat="46.77876" lon="6.23961">
        <ele>977.8</ele>
        <time>2013-08-02T08:15:23Z</time>
      </trkpt>
      <trkpt lat="46.77856" lon="6.23967">
        <ele>979.24</ele>
        <time>2013-08-02T08:15:33Z</time>
      </trkpt>
      <trkpt lat="46.77835" lon="6.23975">
        <ele>980.68</ele>
        <time>2013-08-02T08:15:43Z</time>
      </trkpt>
      <trkpt lat="46.77805" lon="6.23989">
        <ele>979.24</ele>
        <time>2013-08-02T08:15:55Z</time>
      </trkpt>
      <trkpt lat="46.77772" lon="6.24016">
        <ele>977.32</ele>
        <time>2013-08-02T08:16:03Z</time>
      </trkpt>
      <trkpt lat="46.77729" lon="6.24032">
        <ele>976.36</ele>
        <time>2013-08-02T08:16:12Z</time>
      </trkpt>
      <trkpt lat="46.77706" lon="6.24036">
        <ele>975.39</ele>
        <time>2013-08-02T08:16:17Z</time>
      </trkpt>
      <trkpt lat="46.77658" lon="6.24043">
        <ele>975.39</ele>
        <time>2013-08-02T08:16:27Z</time>
      </trkpt>
      <trkpt lat="46.77627" lon="6.24066">
        <ele>975.39</ele>
        <time>2013-08-02T08:16:36Z</time>
      </trkpt>
      <trkpt lat="46.77591" lon="6.24096">
        <ele>975.39</ele>
        <time>2013-08-02T08:16:48Z</time>
      </trkpt>
      <trkpt lat="46.77584" lon="6.24099">
        <ele>975.88</ele>
        <time>2013-08-02T08:16:50Z</time>
      </trkpt>
      <trkpt lat="46.77542" lon="6.24083">
        <ele>976.84</ele>
        <time>2013-08-02T08:17:03Z</time>
      </trkpt>
      <trkpt lat="46.77498" lon="6.2406">
        <ele>976.84</ele>
        <time>2013-08-02T08:17:17Z</time>
      </trkpt>
      <trkpt lat="46.77444" lon="6.24031">
        <ele>976.84</ele>
        <time>2013-08-02T08:17:33Z</time>
      </trkpt>
      <trkpt lat="46.77404" lon="6.2399">
        <ele>975.39</ele>
        <time>2013-08-02T08:17:45Z</time>
      </trkpt>
      <trkpt lat="46.77397" lon="6.23981">
        <ele>975.39</ele>
        <time>2013-08-02T08:17:47Z</time>
      </trkpt>
      <trkpt lat="46.77347" lon="6.23914">
        <ele>972.51</ele>
        <time>2013-08-02T08:18:00Z</time>
      </trkpt>
      <trkpt lat="46.77285" lon="6.23829">
        <ele>969.15</ele>
        <time>2013-08-02T08:18:15Z</time>
      </trkpt>
      <trkpt lat="46.77266" lon="6.23807">
        <ele>967.22</ele>
        <time>2013-08-02T08:18:19Z</time>
      </trkpt>
      <trkpt lat="46.77235" lon="6.23783">
        <ele>966.26</ele>
        <time>2013-08-02T08:18:25Z</time>
      </trkpt>
      <trkpt lat="46.77226" lon="6.23773">
        <ele>965.3</ele>
        <time>2013-08-02T08:18:27Z</time>
      </trkpt>
      <trkpt lat="46.77194" lon="6.2372">
        <ele>962.9</ele>
        <time>2013-08-02T08:18:35Z</time>
      </trkpt>
      <trkpt lat="46.77166" lon="6.23667">
        <ele>960.49</ele>
        <time>2013-08-02T08:18:42Z</time>
      </trkpt>
      <trkpt lat="46.77162" lon="6.23641">
        <ele>960.49</ele>
        <time>2013-08-02T08:18:49Z</time>
      </trkpt>
      <trkpt lat="46.77164" lon="6.23644">
        <ele>960.49</ele>
        <time>2013-08-02T08:18:50Z</time>
      </trkpt>
      <trkpt lat="46.7717" lon="6.2365">
        <ele>961.46</ele>
        <time>2013-08-02T08:19:01Z</time>
      </trkpt>
      <trkpt lat="46.7717" lon="6.2365">
        <ele>961.94</ele>
        <time>2013-08-02T08:19:11Z</time>
      </trkpt>
      <trkpt lat="46.77175" lon="6.23654">
        <ele>961.94</ele>
        <time>2013-08-02T08:19:15Z</time>
      </trkpt>
      <trkpt lat="46.77203" lon="6.23686">
        <ele>965.78</ele>
        <time>2013-08-02T08:19:30Z</time>
      </trkpt>
      <trkpt lat="46.77227" lon="6.23709">
        <ele>969.15</ele>
        <time>2013-08-02T08:19:42Z</time>
      </trkpt>
      <trkpt lat="46.77246" lon="6.23729">
        <ele>972.51</ele>
        <time>2013-08-02T08:19:52Z</time>
      </trkpt>
      <trkpt lat="46.77272" lon="6.23739">
        <ele>974.43</ele>
        <time>2013-08-02T08:20:05Z</time>
      </trkpt>
      <trkpt lat="46.77302" lon="6.23737">
        <ele>976.84</ele>
        <time>2013-08-02T08:20:21Z</time>
      </trkpt>
      <trkpt lat="46.7733" lon="6.2371">
        <ele>978.76</ele>
        <time>2013-08-02T08:20:36Z</time>
      </trkpt>
      <trkpt lat="46.77361" lon="6.23663">
        <ele>981.64</ele>
        <time>2013-08-02T08:20:56Z</time>
      </trkpt>
      <trkpt lat="46.77384" lon="6.2362">
        <ele>983.57</ele>
        <time>2013-08-02T08:21:12Z</time>
      </trkpt>
      <trkpt lat="46.774" lon="6.23578">
        <ele>984.53</ele>
        <time>2013-08-02T08:21:26Z</time>
      </trkpt>
      <trkpt lat="46.77418" lon="6.2354">
        <ele>985.01</ele>
        <time>2013-08-02T08:21:39Z</time>
      </trkpt>
      <trkpt lat="46.7742" lon="6.23535">
        <ele>985.01</ele>
        <time>2013-08-02T08:21:41Z</time>
      </trkpt>
      <trkpt lat="46.77429" lon="6.23518">
        <ele>985.97</ele>
        <time>2013-08-02T08:21:48Z</time>
      </trkpt>
      <trkpt lat="46.77432" lon="6.23513">
        <ele>986.93</ele>
        <time>2013-08-02T08:21:50Z</time>
      </trkpt>
      <trkpt lat="46.77435" lon="6.2351">
        <ele>986.93</ele>
        <time>2013-08-02T08:21:52Z</time>
      </trkpt>
      <trkpt lat="46.77439" lon="6.23497">
        <ele>987.41</ele>
        <time>2013-08-02T08:21:56Z</time>
      </trkpt>
      <trkpt lat="46.77444" lon="6.23438">
        <ele>990.3</ele>
        <time>2013-08-02T08:22:11Z</time>
      </trkpt>
      <trkpt lat="46.77433" lon="6.23381">
        <ele>991.74</ele>
        <time>2013-08-02T08:22:27Z</time>
      </trkpt>
      <trkpt lat="46.77399" lon="6.23345">
        <ele>993.66</ele>
        <time>2013-08-02T08:22:44Z</time>
      </trkpt>
      <trkpt lat="46.77377" lon="6.23315">
        <ele>994.62</ele>
        <time>2013-08-02T08:22:55Z</time>
      </trkpt>
      <trkpt lat="46.77345" lon="6.23268">
        <ele>993.66</ele>
        <time>2013-08-02T08:23:08Z</time>
      </trkpt>
      <trkpt lat="46.77341" lon="6.2326">
        <ele>994.14</ele>
        <time>2013-08-02T08:23:10Z</time>
      </trkpt>
      <trkpt lat="46.77338" lon="6.23255">
        <ele>994.62</ele>
        <time>2013-08-02T08:23:16Z</time>
      </trkpt>
      <trkpt lat="46.77344" lon="6.23255">
        <ele>994.62</ele>
        <time>2013-08-02T08:23:27Z</time>
      </trkpt>
      <trkpt lat="46.77344" lon="6.23255">
        <ele>994.62</ele>
        <time>2013-08-02T08:23:41Z</time>
      </trkpt>
      <trkpt lat="46.77344" lon="6.23255">
        <ele>994.62</ele>
        <time>2013-08-02T08:23:42Z</time>
      </trkpt>
      <trkpt lat="46.7733" lon="6.23215">
        <ele>995.1</ele>
        <time>2013-08-02T08:23:56Z</time>
      </trkpt>
      <trkpt lat="46.77311" lon="6.23162">
        <ele>995.1</ele>
        <time>2013-08-02T08:24:09Z</time>
      </trkpt>
      <trkpt lat="46.7729" lon="6.23108">
        <ele>994.14</ele>
        <time>2013-08-02T08:24:21Z</time>
      </trkpt>
      <trkpt lat="46.77282" lon="6.23091">
        <ele>993.66</ele>
        <time>2013-08-02T08:24:24Z</time>
      </trkpt>
      <trkpt lat="46.77289" lon="6.23036">
        <ele>990.78</ele>
        <time>2013-08-02T08:24:32Z</time>
      </trkpt>
      <trkpt lat="46.77293" lon="6.23027">
        <ele>990.3</ele>
        <time>2013-08-02T08:24:34Z</time>
      </trkpt>
      <trkpt lat="46.77308" lon="6.22987">
        <ele>991.26</ele>
        <time>2013-08-02T08:24:45Z</time>
      </trkpt>
      <trkpt lat="46.77312" lon="6.22968">
        <ele>992.22</ele>
        <time>2013-08-02T08:24:51Z</time>
      </trkpt>
      <trkpt lat="46.77319" lon="6.22949">
        <ele>993.18</ele>
        <time>2013-08-02T08:24:57Z</time>
      </trkpt>
      <trkpt lat="46.77339" lon="6.22922">
        <ele>993.18</ele>
        <time>2013-08-02T08:25:07Z</time>
      </trkpt>
      <trkpt lat="46.77361" lon="6.2291">
        <ele>993.66</ele>
        <time>2013-08-02T08:25:16Z</time>
      </trkpt>
      <trkpt lat="46.77374" lon="6.22902">
        <ele>994.14</ele>
        <time>2013-08-02T08:25:21Z</time>
      </trkpt>
      <trkpt lat="46.77388" lon="6.22886">
        <ele>994.62</ele>
        <time>2013-08-02T08:25:27Z</time>
      </trkpt>
      <trkpt lat="46.7742" lon="6.22877">
        <ele>994.14</ele>
        <time>2013-08-02T08:25:37Z</time>
      </trkpt>
      <trkpt lat="46.77423" lon="6.22876">
        <ele>994.14</ele>
        <time>2013-08-02T08:25:38Z</time>
      </trkpt>
      <trkpt lat="46.77421" lon="6.22867">
        <ele>993.66</ele>
        <time>2013-08-02T08:25:47Z</time>
      </trkpt>
      <trkpt lat="46.7742" lon="6.22864">
        <ele>993.66</ele>
        <time>2013-08-02T08:26:04Z</time>
      </trkpt>
      <trkpt lat="46.77405" lon="6.22845">
        <ele>994.14</ele>
        <time>2013-08-02T08:26:13Z</time>
      </trkpt>
      <trkpt lat="46.77396" lon="6.22832">
        <ele>993.18</ele>
        <time>2013-08-02T08:26:19Z</time>
      </trkpt>
      <trkpt lat="46.77388" lon="6.22816">
        <ele>993.18</ele>
        <time>2013-08-02T08:26:23Z</time>
      </trkpt>
      <trkpt lat="46.7737" lon="6.22775">
        <ele>991.26</ele>
        <time>2013-08-02T08:26:33Z</time>
      </trkpt>
      <trkpt lat="46.77368" lon="6.22774">
        <ele>990.78</ele>
        <time>2013-08-02T08:26:34Z</time>
      </trkpt>
      <trkpt lat="46.77364" lon="6.22774">
        <ele>990.78</ele>
        <time>2013-08-02T08:26:45Z</time>
      </trkpt>
      <trkpt lat="46.77363" lon="6.22774">
        <ele>990.78</ele>
        <time>2013-08-02T08:26:53Z</time>
      </trkpt>
      <trkpt lat="46.77363" lon="6.22772">
        <ele>991.26</ele>
        <time>2013-08-02T08:26:55Z</time>
      </trkpt>
      <trkpt lat="46.77362" lon="6.22764">
        <ele>991.26</ele>
        <time>2013-08-02T08:27:07Z</time>
      </trkpt>
      <trkpt lat="46.77354" lon="6.22752">
        <ele>991.26</ele>
        <time>2013-08-02T08:27:17Z</time>
      </trkpt>
      <trkpt lat="46.77351" lon="6.22737">
        <ele>991.74</ele>
        <time>2013-08-02T08:27:30Z</time>
      </trkpt>
      <trkpt lat="46.77347" lon="6.22732">
        <ele>992.22</ele>
        <time>2013-08-02T08:27:42Z</time>
      </trkpt>
      <trkpt lat="46.77347" lon="6.22732">
        <ele>992.22</ele>
        <time>2013-08-02T08:27:45Z</time>
      </trkpt>
      <trkpt lat="46.77338" lon="6.2271">
        <ele>992.7</ele>
        <time>2013-08-02T08:27:54Z</time>
      </trkpt>
      <trkpt lat="46.77333" lon="6.22699">
        <ele>993.18</ele>
        <time>2013-08-02T08:27:58Z</time>
      </trkpt>
      <trkpt lat="46.77315" lon="6.22689">
        <ele>993.66</ele>
        <time>2013-08-02T08:28:05Z</time>
      </trkpt>
      <trkpt lat="46.77292" lon="6.22685">
        <ele>994.62</ele>
        <time>2013-08-02T08:28:13Z</time>
      </trkpt>
      <trkpt lat="46.77285" lon="6.22649">
        <ele>994.14</ele>
        <time>2013-08-02T08:28:19Z</time>
      </trkpt>
      <trkpt lat="46.77266" lon="6.22611">
        <ele>996.54</ele>
        <time>2013-08-02T08:28:30Z</time>
      </trkpt>
      <trkpt lat="46.77254" lon="6.22604">
        <ele>997.99</ele>
        <time>2013-08-02T08:28:37Z</time>
      </trkpt>
      <trkpt lat="46.77249" lon="6.22595">
        <ele>998.47</ele>
        <time>2013-08-02T08:28:41Z</time>
      </trkpt>
      <trkpt lat="46.77248" lon="6.22589">
        <ele>998.95</ele>
        <time>2013-08-02T08:28:43Z</time>
      </trkpt>
      <trkpt lat="46.77243" lon="6.2256">
        <ele>1000.39</ele>
        <time>2013-08-02T08:28:54Z</time>
      </trkpt>
      <trkpt lat="46.7723" lon="6.22542">
        <ele>1000.87</ele>
        <time>2013-08-02T08:29:03Z</time>
      </trkpt>
      <trkpt lat="46.77229" lon="6.22539">
        <ele>1000.87</ele>
        <time>2013-08-02T08:29:04Z</time>
      </trkpt>
      <trkpt lat="46.77204" lon="6.22522">
        <ele>1002.79</ele>
        <time>2013-08-02T08:29:17Z</time>
      </trkpt>
      <trkpt lat="46.77186" lon="6.22502">
        <ele>1003.75</ele>
        <time>2013-08-02T08:29:28Z</time>
      </trkpt>
      <trkpt lat="46.77174" lon="6.22491">
        <ele>1004.23</ele>
        <time>2013-08-02T08:29:35Z</time>
      </trkpt>
      <trkpt lat="46.77151" lon="6.22467">
        <ele>1005.2</ele>
        <time>2013-08-02T08:29:49Z</time>
      </trkpt>
      <trkpt lat="46.77142" lon="6.22451">
        <ele>1006.16</ele>
        <time>2013-08-02T08:29:56Z</time>
      </trkpt>
      <trkpt lat="46.77144" lon="6.22419">
        <ele>1006.64</ele>
        <time>2013-08-02T08:30:08Z</time>
      </trkpt>
      <trkpt lat="46.77147" lon="6.22405">
        <ele>1007.12</ele>
        <time>2013-08-02T08:30:15Z</time>
      </trkpt>
      <trkpt lat="46.77149" lon="6.22374">
        <ele>1008.08</ele>
        <time>2013-08-02T08:30:26Z</time>
      </trkpt>
      <trkpt lat="46.77148" lon="6.2237">
        <ele>1008.56</ele>
        <time>2013-08-02T08:30:28Z</time>
      </trkpt>
      <trkpt lat="46.77141" lon="6.22352">
        <ele>1010.48</ele>
        <time>2013-08-02T08:30:36Z</time>
      </trkpt>
      <trkpt lat="46.77136" lon="6.22326">
        <ele>1012.89</ele>
        <time>2013-08-02T08:30:47Z</time>
      </trkpt>
      <trkpt lat="46.77135" lon="6.22322">
        <ele>1012.89</ele>
        <time>2013-08-02T08:30:49Z</time>
      </trkpt>
      <trkpt lat="46.77134" lon="6.223">
        <ele>1015.29</ele>
        <time>2013-08-02T08:31:01Z</time>
      </trkpt>
      <trkpt lat="46.77134" lon="6.22297">
        <ele>1015.77</ele>
        <time>2013-08-02T08:31:04Z</time>
      </trkpt>
      <trkpt lat="46.77132" lon="6.22292">
        <ele>1016.73</ele>
        <time>2013-08-02T08:31:07Z</time>
      </trkpt>
      <trkpt lat="46.77136" lon="6.22288">
        <ele>1018.65</ele>
        <time>2013-08-02T08:31:17Z</time>
      </trkpt>
      <trkpt lat="46.77138" lon="6.22281">
        <ele>1021.06</ele>
        <time>2013-08-02T08:31:29Z</time>
      </trkpt>
      <trkpt lat="46.77141" lon="6.22278">
        <ele>1021.54</ele>
        <time>2013-08-02T08:31:41Z</time>
      </trkpt>
      <trkpt lat="46.77142" lon="6.22273">
        <ele>1021.54</ele>
        <time>2013-08-02T08:31:44Z</time>
      </trkpt>
      <trkpt lat="46.77145" lon="6.22256">
        <ele>1022.5</ele>
        <time>2013-08-02T08:31:51Z</time>
      </trkpt>
      <trkpt lat="46.77144" lon="6.22239">
        <ele>1021.06</ele>
        <time>2013-08-02T08:31:57Z</time>
      </trkpt>
      <trkpt lat="46.77141" lon="6.22217">
        <ele>1020.1</ele>
        <time>2013-08-02T08:32:00Z</time>
      </trkpt>
      <trkpt lat="46.77126" lon="6.22164">
        <ele>1021.54</ele>
        <time>2013-08-02T08:32:12Z</time>
      </trkpt>
      <trkpt lat="46.77112" lon="6.22118">
        <ele>1022.02</ele>
        <time>2013-08-02T08:32:25Z</time>
      </trkpt>
      <trkpt lat="46.77106" lon="6.22094">
        <ele>1022.02</ele>
        <time>2013-08-02T08:32:31Z</time>
      </trkpt>
      <trkpt lat="46.77103" lon="6.22042">
        <ele>1022.98</ele>
        <time>2013-08-02T08:32:43Z</time>
      </trkpt>
      <trkpt lat="46.77102" lon="6.22038">
        <ele>1022.98</ele>
        <time>2013-08-02T08:32:44Z</time>
      </trkpt>
      <trkpt lat="46.77098" lon="6.22005">
        <ele>1023.46</ele>
        <time>2013-08-02T08:32:53Z</time>
      </trkpt>
      <trkpt lat="46.77096" lon="6.21991">
        <ele>1024.9</ele>
        <time>2013-08-02T08:32:58Z</time>
      </trkpt>
      <trkpt lat="46.7708" lon="6.21953">
        <ele>1026.83</ele>
        <time>2013-08-02T08:33:11Z</time>
      </trkpt>
      <trkpt lat="46.77077" lon="6.21943">
        <ele>1027.31</ele>
        <time>2013-08-02T08:33:14Z</time>
      </trkpt>
      <trkpt lat="46.77057" lon="6.21909">
        <ele>1027.31</ele>
        <time>2013-08-02T08:33:25Z</time>
      </trkpt>
      <trkpt lat="46.77049" lon="6.21895">
        <ele>1026.34</ele>
        <time>2013-08-02T08:33:28Z</time>
      </trkpt>
      <trkpt lat="46.77034" lon="6.21863">
        <ele>1024.42</ele>
        <time>2013-08-02T08:33:33Z</time>
      </trkpt>
      <trkpt lat="46.77019" lon="6.21805">
        <ele>1025.38</ele>
        <time>2013-08-02T08:33:46Z</time>
      </trkpt>
      <trkpt lat="46.77014" lon="6.2174">
        <ele>1024.42</ele>
        <time>2013-08-02T08:33:59Z</time>
      </trkpt>
      <trkpt lat="46.77018" lon="6.21675">
        <ele>1024.9</ele>
        <time>2013-08-02T08:34:11Z</time>
      </trkpt>
      <trkpt lat="46.77014" lon="6.21621">
        <ele>1024.9</ele>
        <time>2013-08-02T08:34:22Z</time>
      </trkpt>
      <trkpt lat="46.77012" lon="6.21587">
        <ele>1023.46</ele>
        <time>2013-08-02T08:34:33Z</time>
      </trkpt>
      <trkpt lat="46.77014" lon="6.21557">
        <ele>1022.02</ele>
        <time>2013-08-02T08:34:41Z</time>
      </trkpt>
      <trkpt lat="46.77026" lon="6.21532">
        <ele>1021.54</ele>
        <time>2013-08-02T08:34:47Z</time>
      </trkpt>
      <trkpt lat="46.77015" lon="6.21513">
        <ele>1019.62</ele>
        <time>2013-08-02T08:34:56Z</time>
      </trkpt>
      <trkpt lat="46.77005" lon="6.21511">
        <ele>1016.73</ele>
        <time>2013-08-02T08:34:59Z</time>
      </trkpt>
      <trkpt lat="46.77001" lon="6.2151">
        <ele>1015.29</ele>
        <time>2013-08-02T08:35:00Z</time>
      </trkpt>
      <trkpt lat="46.76992" lon="6.21507">
        <ele>1012.89</ele>
        <time>2013-08-02T08:35:02Z</time>
      </trkpt>
      <trkpt lat="46.76973" lon="6.21501">
        <ele>1008.08</ele>
        <time>2013-08-02T08:35:06Z</time>
      </trkpt>
      <trkpt lat="46.76968" lon="6.215">
        <ele>1008.08</ele>
        <time>2013-08-02T08:35:07Z</time>
      </trkpt>
      <trkpt lat="46.76948" lon="6.21478">
        <ele>1004.72</ele>
        <time>2013-08-02T08:35:12Z</time>
      </trkpt>
      <trkpt lat="46.76945" lon="6.21472">
        <ele>1003.75</ele>
        <time>2013-08-02T08:35:13Z</time>
      </trkpt>
      <trkpt lat="46.76922" lon="6.21423">
        <ele>1002.79</ele>
        <time>2013-08-02T08:35:24Z</time>
      </trkpt>
      <trkpt lat="46.76908" lon="6.21396">
        <ele>1003.27</ele>
        <time>2013-08-02T08:35:33Z</time>
      </trkpt>
      <trkpt lat="46.76889" lon="6.2138">
        <ele>1002.79</ele>
        <time>2013-08-02T08:35:42Z</time>
      </trkpt>
      <trkpt lat="46.76887" lon="6.21381">
        <ele>1002.31</ele>
        <time>2013-08-02T08:35:50Z</time>
      </trkpt>
      <trkpt lat="46.7687" lon="6.21383">
        <ele>1000.87</ele>
        <time>2013-08-02T08:36:02Z</time>
      </trkpt>
      <trkpt lat="46.76834" lon="6.21389">
        <ele>998.47</ele>
        <time>2013-08-02T08:36:09Z</time>
      </trkpt>
      <trkpt lat="46.76821" lon="6.21382">
        <ele>998.47</ele>
        <time>2013-08-02T08:36:15Z</time>
      </trkpt>
      <trkpt lat="46.76821" lon="6.21343">
        <ele>999.43</ele>
        <time>2013-08-02T08:36:27Z</time>
      </trkpt>
      <trkpt lat="46.76813" lon="6.21329">
        <ele>999.43</ele>
        <time>2013-08-02T08:36:35Z</time>
      </trkpt>
      <trkpt lat="46.76804" lon="6.21313">
        <ele>999.91</ele>
        <time>2013-08-02T08:36:41Z</time>
      </trkpt>
      <trkpt lat="46.76802" lon="6.21312">
        <ele>999.91</ele>
        <time>2013-08-02T08:36:44Z</time>
      </trkpt>
      <trkpt lat="46.76798" lon="6.21305">
        <ele>999.91</ele>
        <time>2013-08-02T08:36:51Z</time>
      </trkpt>
      <trkpt lat="46.76798" lon="6.2129">
        <ele>999.91</ele>
        <time>2013-08-02T08:37:03Z</time>
      </trkpt>
      <trkpt lat="46.76799" lon="6.21287">
        <ele>999.91</ele>
        <time>2013-08-02T08:37:08Z</time>
      </trkpt>
      <trkpt lat="46.76798" lon="6.21279">
        <ele>999.91</ele>
        <time>2013-08-02T08:37:12Z</time>
      </trkpt>
      <trkpt lat="46.76788" lon="6.21263">
        <ele>1000.39</ele>
        <time>2013-08-02T08:37:22Z</time>
      </trkpt>
      <trkpt lat="46.76787" lon="6.21262">
        <ele>1000.39</ele>
        <time>2013-08-02T08:37:24Z</time>
      </trkpt>
      <trkpt lat="46.76783" lon="6.21253">
        <ele>1000.87</ele>
        <time>2013-08-02T08:37:35Z</time>
      </trkpt>
      <trkpt lat="46.76783" lon="6.2125">
        <ele>1000.87</ele>
        <time>2013-08-02T08:37:36Z</time>
      </trkpt>
      <trkpt lat="46.76762" lon="6.21221">
        <ele>1001.35</ele>
        <time>2013-08-02T08:37:48Z</time>
      </trkpt>
      <trkpt lat="46.7676" lon="6.21219">
        <ele>1001.83</ele>
        <time>2013-08-02T08:37:53Z</time>
      </trkpt>
      <trkpt lat="46.76757" lon="6.21211">
        <ele>1000.87</ele>
        <time>2013-08-02T08:38:02Z</time>
      </trkpt>
      <trkpt lat="46.76757" lon="6.21211">
        <ele>1001.35</ele>
        <time>2013-08-02T08:38:15Z</time>
      </trkpt>
      <trkpt lat="46.76757" lon="6.21209">
        <ele>1001.35</ele>
        <time>2013-08-02T08:38:28Z</time>
      </trkpt>
      <trkpt lat="46.76756" lon="6.21206">
        <ele>1001.35</ele>
        <time>2013-08-02T08:38:42Z</time>
      </trkpt>
      <trkpt lat="46.76755" lon="6.21204">
        <ele>1001.83</ele>
        <time>2013-08-02T08:38:55Z</time>
      </trkpt>
      <trkpt lat="46.76744" lon="6.21177">
        <ele>1002.79</ele>
        <time>2013-08-02T08:39:07Z</time>
      </trkpt>
      <trkpt lat="46.76743" lon="6.21177">
        <ele>1002.31</ele>
        <time>2013-08-02T08:39:12Z</time>
      </trkpt>
      <trkpt lat="46.76732" lon="6.21171">
        <ele>1002.31</ele>
        <time>2013-08-02T08:39:25Z</time>
      </trkpt>
      <trkpt lat="46.7673" lon="6.21166">
        <ele>1002.79</ele>
        <time>2013-08-02T08:39:37Z</time>
      </trkpt>
      <trkpt lat="46.76729" lon="6.21165">
        <ele>1002.31</ele>
        <time>2013-08-02T08:39:39Z</time>
      </trkpt>
      <trkpt lat="46.76731" lon="6.21151">
        <ele>1002.79</ele>
        <time>2013-08-02T08:39:48Z</time>
      </trkpt>
      <trkpt lat="46.76733" lon="6.21147">
        <ele>1002.79</ele>
        <time>2013-08-02T08:39:50Z</time>
      </trkpt>
      <trkpt lat="46.76738" lon="6.21138">
        <ele>1002.79</ele>
        <time>2013-08-02T08:40:02Z</time>
      </trkpt>
      <trkpt lat="46.7674" lon="6.2113">
        <ele>1002.79</ele>
        <time>2013-08-02T08:40:12Z</time>
      </trkpt>
      <trkpt lat="46.76737" lon="6.2112">
        <ele>1003.75</ele>
        <time>2013-08-02T08:40:19Z</time>
      </trkpt>
      <trkpt lat="46.76736" lon="6.21114">
        <ele>1004.23</ele>
        <time>2013-08-02T08:40:22Z</time>
      </trkpt>
      <trkpt lat="46.76735" lon="6.21111">
        <ele>1004.72</ele>
        <time>2013-08-02T08:40:24Z</time>
      </trkpt>
      <trkpt lat="46.76735" lon="6.21104">
        <ele>1004.72</ele>
        <time>2013-08-02T08:40:28Z</time>
      </trkpt>
      <trkpt lat="46.76734" lon="6.21096">
        <ele>1005.2</ele>
        <time>2013-08-02T08:40:41Z</time>
      </trkpt>
      <trkpt lat="46.76733" lon="6.21093">
        <ele>1005.2</ele>
        <time>2013-08-02T08:40:43Z</time>
      </trkpt>
      <trkpt lat="46.76728" lon="6.21069">
        <ele>1006.64</ele>
        <time>2013-08-02T08:40:52Z</time>
      </trkpt>
      <trkpt lat="46.76723" lon="6.21062">
        <ele>1007.12</ele>
        <time>2013-08-02T08:40:55Z</time>
      </trkpt>
      <trkpt lat="46.76713" lon="6.21046">
        <ele>1007.6</ele>
        <time>2013-08-02T08:41:01Z</time>
      </trkpt>
      <trkpt lat="46.76708" lon="6.21037">
        <ele>1009.04</ele>
        <time>2013-08-02T08:41:10Z</time>
      </trkpt>
      <trkpt lat="46.76707" lon="6.21032">
        <ele>1008.56</ele>
        <time>2013-08-02T08:41:12Z</time>
      </trkpt>
      <trkpt lat="46.76703" lon="6.21019">
        <ele>1010</ele>
        <time>2013-08-02T08:41:20Z</time>
      </trkpt>
      <trkpt lat="46.76703" lon="6.21019">
        <ele>1010</ele>
        <time>2013-08-02T08:41:45Z</time>
      </trkpt>
      <trkpt lat="46.76702" lon="6.21017">
        <ele>1010</ele>
        <time>2013-08-02T08:42:09Z</time>
      </trkpt>
      <trkpt lat="46.76702" lon="6.21015">
        <ele>1010</ele>
        <time>2013-08-02T08:42:12Z</time>
      </trkpt>
      <trkpt lat="46.76697" lon="6.21009">
        <ele>1010.48</ele>
        <time>2013-08-02T08:42:17Z</time>
      </trkpt>
      <trkpt lat="46.7669" lon="6.20999">
        <ele>1011.44</ele>
        <time>2013-08-02T08:42:22Z</time>
      </trkpt>
      <trkpt lat="46.76687" lon="6.20985">
        <ele>1012.41</ele>
        <time>2013-08-02T08:42:28Z</time>
      </trkpt>
      <trkpt lat="46.76677" lon="6.20957">
        <ele>1014.81</ele>
        <time>2013-08-02T08:42:38Z</time>
      </trkpt>
      <trkpt lat="46.7667" lon="6.20936">
        <ele>1015.29</ele>
        <time>2013-08-02T08:42:44Z</time>
      </trkpt>
      <trkpt lat="46.76656" lon="6.20899">
        <ele>1017.69</ele>
        <time>2013-08-02T08:42:57Z</time>
      </trkpt>
      <trkpt lat="46.76651" lon="6.20886">
        <ele>1018.17</ele>
        <time>2013-08-02T08:43:02Z</time>
      </trkpt>
      <trkpt lat="46.76642" lon="6.20869">
        <ele>1019.62</ele>
        <time>2013-08-02T08:43:09Z</time>
      </trkpt>
      <trkpt lat="46.7664" lon="6.20866">
        <ele>1019.62</ele>
        <time>2013-08-02T08:43:10Z</time>
      </trkpt>
      <trkpt lat="46.76631" lon="6.20859">
        <ele>1020.58</ele>
        <time>2013-08-02T08:43:15Z</time>
      </trkpt>
      <trkpt lat="46.76629" lon="6.20854">
        <ele>1021.06</ele>
        <time>2013-08-02T08:43:23Z</time>
      </trkpt>
      <trkpt lat="46.76624" lon="6.20844">
        <ele>1021.06</ele>
        <time>2013-08-02T08:43:32Z</time>
      </trkpt>
      <trkpt lat="46.76623" lon="6.20841">
        <ele>1021.54</ele>
        <time>2013-08-02T08:43:34Z</time>
      </trkpt>
      <trkpt lat="46.76621" lon="6.20833">
        <ele>1021.54</ele>
        <time>2013-08-02T08:43:40Z</time>
      </trkpt>
      <trkpt lat="46.7662" lon="6.20828">
        <ele>1021.54</ele>
        <time>2013-08-02T08:43:43Z</time>
      </trkpt>
      <trkpt lat="46.76609" lon="6.20819">
        <ele>1022.5</ele>
        <time>2013-08-02T08:43:52Z</time>
      </trkpt>
      <trkpt lat="46.766" lon="6.20809">
        <ele>1022.98</ele>
        <time>2013-08-02T08:44:02Z</time>
      </trkpt>
      <trkpt lat="46.76599" lon="6.20807">
        <ele>1022.98</ele>
        <time>2013-08-02T08:44:04Z</time>
      </trkpt>
      <trkpt lat="46.76594" lon="6.20802">
        <ele>1023.94</ele>
        <time>2013-08-02T08:44:14Z</time>
      </trkpt>
      <trkpt lat="46.76588" lon="6.20793">
        <ele>1023.46</ele>
        <time>2013-08-02T08:44:19Z</time>
      </trkpt>
      <trkpt lat="46.76578" lon="6.20765">
        <ele>1025.38</ele>
        <time>2013-08-02T08:44:31Z</time>
      </trkpt>
      <trkpt lat="46.76576" lon="6.20759">
        <ele>1025.38</ele>
        <time>2013-08-02T08:44:33Z</time>
      </trkpt>
      <trkpt lat="46.76554" lon="6.20728">
        <ele>1026.83</ele>
        <time>2013-08-02T08:44:46Z</time>
      </trkpt>
      <trkpt lat="46.7655" lon="6.20721">
        <ele>1027.79</ele>
        <time>2013-08-02T08:44:49Z</time>
      </trkpt>
      <trkpt lat="46.76534" lon="6.20708">
        <ele>1029.23</ele>
        <time>2013-08-02T08:44:57Z</time>
      </trkpt>
      <trkpt lat="46.76529" lon="6.20697">
        <ele>1029.71</ele>
        <time>2013-08-02T08:45:02Z</time>
      </trkpt>
      <trkpt lat="46.7651" lon="6.20677">
        <ele>1030.67</ele>
        <time>2013-08-02T08:45:13Z</time>
      </trkpt>
      <trkpt lat="46.76492" lon="6.20639">
        <ele>1034.04</ele>
        <time>2013-08-02T08:45:29Z</time>
      </trkpt>
      <trkpt lat="46.76484" lon="6.20622">
        <ele>1035.48</ele>
        <time>2013-08-02T08:45:37Z</time>
      </trkpt>
      <trkpt lat="46.76472" lon="6.20592">
        <ele>1037.88</ele>
        <time>2013-08-02T08:45:50Z</time>
      </trkpt>
      <trkpt lat="46.76462" lon="6.20561">
        <ele>1040.28</ele>
        <time>2013-08-02T08:46:04Z</time>
      </trkpt>
      <trkpt lat="46.7646" lon="6.2055">
        <ele>1041.25</ele>
        <time>2013-08-02T08:46:10Z</time>
      </trkpt>
      <trkpt lat="46.76453" lon="6.20524">
        <ele>1042.21</ele>
        <time>2013-08-02T08:46:19Z</time>
      </trkpt>
      <trkpt lat="46.76433" lon="6.20493">
        <ele>1043.17</ele>
        <time>2013-08-02T08:46:32Z</time>
      </trkpt>
      <trkpt lat="46.76416" lon="6.20465">
        <ele>1044.61</ele>
        <time>2013-08-02T08:46:45Z</time>
      </trkpt>
      <trkpt lat="46.76408" lon="6.20452">
        <ele>1045.09</ele>
        <time>2013-08-02T08:46:51Z</time>
      </trkpt>
      <trkpt lat="46.764" lon="6.2044">
        <ele>1045.57</ele>
        <time>2013-08-02T08:46:57Z</time>
      </trkpt>
      <trkpt lat="46.76385" lon="6.20416">
        <ele>1046.05</ele>
        <time>2013-08-02T08:47:07Z</time>
      </trkpt>
      <trkpt lat="46.76373" lon="6.20392">
        <ele>1046.53</ele>
        <time>2013-08-02T08:47:17Z</time>
      </trkpt>
      <trkpt lat="46.76369" lon="6.20378">
        <ele>1047.49</ele>
        <time>2013-08-02T08:47:22Z</time>
      </trkpt>
      <trkpt lat="46.76355" lon="6.20382">
        <ele>1047.49</ele>
        <time>2013-08-02T08:47:32Z</time>
      </trkpt>
      <trkpt lat="46.76353" lon="6.20383">
        <ele>1047.49</ele>
        <time>2013-08-02T08:47:46Z</time>
      </trkpt>
      <trkpt lat="46.76353" lon="6.20383">
        <ele>1047.49</ele>
        <time>2013-08-02T08:47:50Z</time>
      </trkpt>
      <trkpt lat="46.76351" lon="6.20386">
        <ele>1047.01</ele>
        <time>2013-08-02T08:48:04Z</time>
      </trkpt>
      <trkpt lat="46.76347" lon="6.20389">
        <ele>1047.01</ele>
        <time>2013-08-02T08:48:27Z</time>
      </trkpt>
      <trkpt lat="46.76344" lon="6.2039">
        <ele>1047.01</ele>
        <time>2013-08-02T08:48:39Z</time>
      </trkpt>
      <trkpt lat="46.76344" lon="6.20388">
        <ele>1047.01</ele>
        <time>2013-08-02T08:48:50Z</time>
      </trkpt>
      <trkpt lat="46.76344" lon="6.20388">
        <ele>1047.49</ele>
        <time>2013-08-02T08:49:05Z</time>
      </trkpt>
      <trkpt lat="46.76343" lon="6.20392">
        <ele>1047.97</ele>
        <time>2013-08-02T08:49:14Z</time>
      </trkpt>
      <trkpt lat="46.76329" lon="6.2041">
        <ele>1050.38</ele>
        <time>2013-08-02T08:49:24Z</time>
      </trkpt>
      <trkpt lat="46.76328" lon="6.20416">
        <ele>1051.34</ele>
        <time>2013-08-02T08:49:30Z</time>
      </trkpt>
      <trkpt lat="46.76328" lon="6.20427">
        <ele>1052.78</ele>
        <time>2013-08-02T08:49:39Z</time>
      </trkpt>
      <trkpt lat="46.76329" lon="6.20433">
        <ele>1052.78</ele>
        <time>2013-08-02T08:49:46Z</time>
      </trkpt>
      <trkpt lat="46.76325" lon="6.20444">
        <ele>1054.7</ele>
        <time>2013-08-02T08:49:52Z</time>
      </trkpt>
      <trkpt lat="46.76316" lon="6.2046">
        <ele>1054.7</ele>
        <time>2013-08-02T08:50:04Z</time>
      </trkpt>
      <trkpt lat="46.76309" lon="6.20464">
        <ele>1054.7</ele>
        <time>2013-08-02T08:50:15Z</time>
      </trkpt>
      <trkpt lat="46.76305" lon="6.20464">
        <ele>1054.7</ele>
        <time>2013-08-02T08:50:24Z</time>
      </trkpt>
      <trkpt lat="46.76302" lon="6.20462">
        <ele>1054.22</ele>
        <time>2013-08-02T08:50:27Z</time>
      </trkpt>
      <trkpt lat="46.76289" lon="6.20468">
        <ele>1054.22</ele>
        <time>2013-08-02T08:50:37Z</time>
      </trkpt>
      <trkpt lat="46.76288" lon="6.20468">
        <ele>1054.22</ele>
        <time>2013-08-02T08:50:38Z</time>
      </trkpt>
      <trkpt lat="46.76283" lon="6.2046">
        <ele>1055.18</ele>
        <time>2013-08-02T08:50:51Z</time>
      </trkpt>
      <trkpt lat="46.76275" lon="6.20462">
        <ele>1055.18</ele>
        <time>2013-08-02T08:51:03Z</time>
      </trkpt>
      <trkpt lat="46.7627" lon="6.20462">
        <ele>1055.18</ele>
        <time>2013-08-02T08:51:13Z</time>
      </trkpt>
      <trkpt lat="46.76268" lon="6.20464">
        <ele>1055.18</ele>
        <time>2013-08-02T08:51:22Z</time>
      </trkpt>
      <trkpt lat="46.76256" lon="6.20474">
        <ele>1054.7</ele>
        <time>2013-08-02T08:51:34Z</time>
      </trkpt>
      <trkpt lat="46.76246" lon="6.20475">
        <ele>1055.18</ele>
        <time>2013-08-02T08:51:47Z</time>
      </trkpt>
      <trkpt lat="46.76246" lon="6.20475">
        <ele>1055.18</ele>
        <time>2013-08-02T08:51:58Z</time>
      </trkpt>
      <trkpt lat="46.76242" lon="6.20478">
        <ele>1054.7</ele>
        <time>2013-08-02T08:52:01Z</time>
      </trkpt>
      <trkpt lat="46.76226" lon="6.20489">
        <ele>1054.7</ele>
        <time>2013-08-02T08:52:10Z</time>
      </trkpt>
      <trkpt lat="46.76217" lon="6.205">
        <ele>1053.74</ele>
        <time>2013-08-02T08:52:15Z</time>
      </trkpt>
      <trkpt lat="46.76205" lon="6.20511">
        <ele>1054.22</ele>
        <time>2013-08-02T08:52:24Z</time>
      </trkpt>
      <trkpt lat="46.76196" lon="6.20514">
        <ele>1053.26</ele>
        <time>2013-08-02T08:52:32Z</time>
      </trkpt>
      <trkpt lat="46.76184" lon="6.20519">
        <ele>1053.74</ele>
        <time>2013-08-02T08:52:43Z</time>
      </trkpt>
      <trkpt lat="46.76176" lon="6.20523">
        <ele>1054.22</ele>
        <time>2013-08-02T08:52:53Z</time>
      </trkpt>
      <trkpt lat="46.7617" lon="6.20523">
        <ele>1053.74</ele>
        <time>2013-08-02T08:53:05Z</time>
      </trkpt>
      <trkpt lat="46.76167" lon="6.20523">
        <ele>1053.74</ele>
        <time>2013-08-02T08:53:15Z</time>
      </trkpt>
      <trkpt lat="46.76167" lon="6.20523">
        <ele>1053.74</ele>
        <time>2013-08-02T08:53:18Z</time>
      </trkpt>
      <trkpt lat="46.76163" lon="6.20527">
        <ele>1053.74</ele>
        <time>2013-08-02T08:53:21Z</time>
      </trkpt>
      <trkpt lat="46.76137" lon="6.20543">
        <ele>1052.78</ele>
        <time>2013-08-02T08:53:33Z</time>
      </trkpt>
      <trkpt lat="46.76133" lon="6.20543">
        <ele>1052.3</ele>
        <time>2013-08-02T08:53:35Z</time>
      </trkpt>
      <trkpt lat="46.76124" lon="6.20547">
        <ele>1051.82</ele>
        <time>2013-08-02T08:53:39Z</time>
      </trkpt>
      <trkpt lat="46.76118" lon="6.20545">
        <ele>1051.34</ele>
        <time>2013-08-02T08:53:43Z</time>
      </trkpt>
      <trkpt lat="46.76092" lon="6.20558">
        <ele>1050.38</ele>
        <time>2013-08-02T08:53:48Z</time>
      </trkpt>
      <trkpt lat="46.76063" lon="6.20571">
        <ele>1048.94</ele>
        <time>2013-08-02T08:53:58Z</time>
      </trkpt>
      <trkpt lat="46.76054" lon="6.20585">
        <ele>1048.45</ele>
        <time>2013-08-02T08:54:03Z</time>
      </trkpt>
      <trkpt lat="46.76042" lon="6.20598">
        <ele>1047.49</ele>
        <time>2013-08-02T08:54:08Z</time>
      </trkpt>
      <trkpt lat="46.76035" lon="6.20611">
        <ele>1046.05</ele>
        <time>2013-08-02T08:54:12Z</time>
      </trkpt>
      <trkpt lat="46.76031" lon="6.20624">
        <ele>1044.61</ele>
        <time>2013-08-02T08:54:15Z</time>
      </trkpt>
      <trkpt lat="46.76029" lon="6.20629">
        <ele>1044.13</ele>
        <time>2013-08-02T08:54:16Z</time>
      </trkpt>
      <trkpt lat="46.7601" lon="6.20652">
        <ele>1042.69</ele>
        <time>2013-08-02T08:54:22Z</time>
      </trkpt>
      <trkpt lat="46.76007" lon="6.20655">
        <ele>1043.65</ele>
        <time>2013-08-02T08:54:23Z</time>
      </trkpt>
      <trkpt lat="46.76013" lon="6.20677">
        <ele>1042.21</ele>
        <time>2013-08-02T08:54:34Z</time>
      </trkpt>
      <trkpt lat="46.76013" lon="6.2068">
        <ele>1042.21</ele>
        <time>2013-08-02T08:54:44Z</time>
      </trkpt>
      <trkpt lat="46.76026" lon="6.20712">
        <ele>1040.28</ele>
        <time>2013-08-02T08:54:51Z</time>
      </trkpt>
      <trkpt lat="46.76034" lon="6.20743">
        <ele>1037.88</ele>
        <time>2013-08-02T08:54:55Z</time>
      </trkpt>
      <trkpt lat="46.76038" lon="6.20792">
        <ele>1034.04</ele>
        <time>2013-08-02T08:55:00Z</time>
      </trkpt>
      <trkpt lat="46.7604" lon="6.2082">
        <ele>1031.63</ele>
        <time>2013-08-02T08:55:03Z</time>
      </trkpt>
      <trkpt lat="46.76043" lon="6.20846">
        <ele>1030.67</ele>
        <time>2013-08-02T08:55:07Z</time>
      </trkpt>
      <trkpt lat="46.76043" lon="6.20872">
        <ele>1030.19</ele>
        <time>2013-08-02T08:55:11Z</time>
      </trkpt>
      <trkpt lat="46.76047" lon="6.20891">
        <ele>1031.15</ele>
        <time>2013-08-02T08:55:15Z</time>
      </trkpt>
      <trkpt lat="46.76051" lon="6.20914">
        <ele>1033.55</ele>
        <time>2013-08-02T08:55:26Z</time>
      </trkpt>
      <trkpt lat="46.76051" lon="6.20916">
        <ele>1033.55</ele>
        <time>2013-08-02T08:55:28Z</time>
      </trkpt>
      <trkpt lat="46.7604" lon="6.20921">
        <ele>1033.07</ele>
        <time>2013-08-02T08:55:40Z</time>
      </trkpt>
      <trkpt lat="46.76039" lon="6.20923">
        <ele>1031.15</ele>
        <time>2013-08-02T08:55:42Z</time>
      </trkpt>
      <trkpt lat="46.76025" lon="6.20941">
        <ele>1028.27</ele>
        <time>2013-08-02T08:55:46Z</time>
      </trkpt>
      <trkpt lat="46.75998" lon="6.20991">
        <ele>1024.42</ele>
        <time>2013-08-02T08:55:54Z</time>
      </trkpt>
      <trkpt lat="46.75987" lon="6.21">
        <ele>1022.5</ele>
        <time>2013-08-02T08:55:57Z</time>
      </trkpt>
      <trkpt lat="46.75967" lon="6.21013">
        <ele>1019.13</ele>
        <time>2013-08-02T08:56:01Z</time>
      </trkpt>
      <trkpt lat="46.75949" lon="6.21036">
        <ele>1016.73</ele>
        <time>2013-08-02T08:56:04Z</time>
      </trkpt>
      <trkpt lat="46.75942" lon="6.21044">
        <ele>1016.25</ele>
        <time>2013-08-02T08:56:05Z</time>
      </trkpt>
      <trkpt lat="46.75929" lon="6.21056">
        <ele>1014.81</ele>
        <time>2013-08-02T08:56:07Z</time>
      </trkpt>
      <trkpt lat="46.75901" lon="6.21074">
        <ele>1014.33</ele>
        <time>2013-08-02T08:56:11Z</time>
      </trkpt>
      <trkpt lat="46.75866" lon="6.2108">
        <ele>1016.25</ele>
        <time>2013-08-02T08:56:19Z</time>
      </trkpt>
      <trkpt lat="46.75846" lon="6.21043">
        <ele>1015.29</ele>
        <time>2013-08-02T08:56:29Z</time>
      </trkpt>
      <trkpt lat="46.75839" lon="6.21042">
        <ele>1016.25</ele>
        <time>2013-08-02T08:56:33Z</time>
      </trkpt>
      <trkpt lat="46.75831" lon="6.21046">
        <ele>1014.81</ele>
        <time>2013-08-02T08:56:35Z</time>
      </trkpt>
      <trkpt lat="46.7582" lon="6.21048">
        <ele>1013.85</ele>
        <time>2013-08-02T08:56:37Z</time>
      </trkpt>
      <trkpt lat="46.7581" lon="6.21055">
        <ele>1012.41</ele>
        <time>2013-08-02T08:56:39Z</time>
      </trkpt>
      <trkpt lat="46.75801" lon="6.21069">
        <ele>1012.89</ele>
        <time>2013-08-02T08:56:42Z</time>
      </trkpt>
      <trkpt lat="46.75795" lon="6.21077">
        <ele>1013.37</ele>
        <time>2013-08-02T08:56:47Z</time>
      </trkpt>
      <trkpt lat="46.75782" lon="6.21093">
        <ele>1013.85</ele>
        <time>2013-08-02T08:56:55Z</time>
      </trkpt>
      <trkpt lat="46.75775" lon="6.21102">
        <ele>1013.85</ele>
        <time>2013-08-02T08:57:00Z</time>
      </trkpt>
      <trkpt lat="46.75763" lon="6.21119">
        <ele>1014.33</ele>
        <time>2013-08-02T08:57:11Z</time>
      </trkpt>
      <trkpt lat="46.75742" lon="6.21125">
        <ele>1010.96</ele>
        <time>2013-08-02T08:57:19Z</time>
      </trkpt>
      <trkpt lat="46.75732" lon="6.21132">
        <ele>1009.52</ele>
        <time>2013-08-02T08:57:21Z</time>
      </trkpt>
      <trkpt lat="46.75727" lon="6.21134">
        <ele>1009.52</ele>
        <time>2013-08-02T08:57:22Z</time>
      </trkpt>
      <trkpt lat="46.7571" lon="6.21142">
        <ele>1008.56</ele>
        <time>2013-08-02T08:57:26Z</time>
      </trkpt>
      <trkpt lat="46.75704" lon="6.21145">
        <ele>1009.04</ele>
        <time>2013-08-02T08:57:30Z</time>
      </trkpt>
      <trkpt lat="46.75697" lon="6.2115">
        <ele>1009.04</ele>
        <time>2013-08-02T08:57:36Z</time>
      </trkpt>
      <trkpt lat="46.75669" lon="6.2115">
        <ele>1006.16</ele>
        <time>2013-08-02T08:57:46Z</time>
      </trkpt>
      <trkpt lat="46.75661" lon="6.21138">
        <ele>1004.72</ele>
        <time>2013-08-02T08:57:49Z</time>
      </trkpt>
      <trkpt lat="46.75643" lon="6.21151">
        <ele>1002.31</ele>
        <time>2013-08-02T08:57:56Z</time>
      </trkpt>
      <trkpt lat="46.75625" lon="6.21159">
        <ele>1003.27</ele>
        <time>2013-08-02T08:58:05Z</time>
      </trkpt>
      <trkpt lat="46.75613" lon="6.21168">
        <ele>1003.27</ele>
        <time>2013-08-02T08:58:11Z</time>
      </trkpt>
      <trkpt lat="46.756" lon="6.21173">
        <ele>1003.27</ele>
        <time>2013-08-02T08:58:17Z</time>
      </trkpt>
      <trkpt lat="46.75595" lon="6.21168">
        <ele>1002.31</ele>
        <time>2013-08-02T08:58:20Z</time>
      </trkpt>
      <trkpt lat="46.75582" lon="6.21159">
        <ele>1001.83</ele>
        <time>2013-08-02T08:58:28Z</time>
      </trkpt>
      <trkpt lat="46.75582" lon="6.21159">
        <ele>1002.31</ele>
        <time>2013-08-02T08:58:36Z</time>
      </trkpt>
      <trkpt lat="46.75585" lon="6.21146">
        <ele>1001.83</ele>
        <time>2013-08-02T08:58:42Z</time>
      </trkpt>
      <trkpt lat="46.75592" lon="6.21142">
        <ele>1002.31</ele>
        <time>2013-08-02T08:58:45Z</time>
      </trkpt>
      <trkpt lat="46.75596" lon="6.21132">
        <ele>1002.31</ele>
        <time>2013-08-02T08:58:50Z</time>
      </trkpt>
      <trkpt lat="46.75586" lon="6.21129">
        <ele>1001.35</ele>
        <time>2013-08-02T08:58:56Z</time>
      </trkpt>
      <trkpt lat="46.75568" lon="6.21124">
        <ele>1000.39</ele>
        <time>2013-08-02T08:59:04Z</time>
      </trkpt>
      <trkpt lat="46.75561" lon="6.21126">
        <ele>1000.39</ele>
        <time>2013-08-02T08:59:08Z</time>
      </trkpt>
      <trkpt lat="46.7555" lon="6.21132">
        <ele>999.91</ele>
        <time>2013-08-02T08:59:14Z</time>
      </trkpt>
      <trkpt lat="46.75542" lon="6.21167">
        <ele>996.54</ele>
        <time>2013-08-02T08:59:22Z</time>
      </trkpt>
      <trkpt lat="46.75544" lon="6.21199">
        <ele>994.14</ele>
        <time>2013-08-02T08:59:27Z</time>
      </trkpt>
      <trkpt lat="46.75547" lon="6.21213">
        <ele>993.66</ele>
        <time>2013-08-02T08:59:31Z</time>
      </trkpt>
      <trkpt lat="46.75554" lon="6.21262">
        <ele>989.81</ele>
        <time>2013-08-02T08:59:41Z</time>
      </trkpt>
      <trkpt lat="46.75556" lon="6.21279">
        <ele>988.85</ele>
        <time>2013-08-02T08:59:43Z</time>
      </trkpt>
      <trkpt lat="46.7557" lon="6.21331">
        <ele>985.97</ele>
        <time>2013-08-02T08:59:51Z</time>
      </trkpt>
      <trkpt lat="46.75579" lon="6.21351">
        <ele>983.57</ele>
        <time>2013-08-02T08:59:57Z</time>
      </trkpt>
      <trkpt lat="46.75586" lon="6.21375">
        <ele>980.2</ele>
        <time>2013-08-02T09:00:04Z</time>
      </trkpt>
      <trkpt lat="46.75591" lon="6.21391">
        <ele>978.28</ele>
        <time>2013-08-02T09:00:08Z</time>
      </trkpt>
      <trkpt lat="46.75603" lon="6.21412">
        <ele>974.91</ele>
        <time>2013-08-02T09:00:14Z</time>
      </trkpt>
      <trkpt lat="46.75606" lon="6.21416">
        <ele>973.95</ele>
        <time>2013-08-02T09:00:16Z</time>
      </trkpt>
      <trkpt lat="46.75612" lon="6.21447">
        <ele>970.11</ele>
        <time>2013-08-02T09:00:22Z</time>
      </trkpt>
      <trkpt lat="46.75618" lon="6.21483">
        <ele>966.26</ele>
        <time>2013-08-02T09:00:28Z</time>
      </trkpt>
      <trkpt lat="46.75617" lon="6.21491">
        <ele>966.26</ele>
        <time>2013-08-02T09:00:31Z</time>
      </trkpt>
      <trkpt lat="46.75604" lon="6.215">
        <ele>965.3</ele>
        <time>2013-08-02T09:00:38Z</time>
      </trkpt>
      <trkpt lat="46.7559" lon="6.21502">
        <ele>964.82</ele>
        <time>2013-08-02T09:00:44Z</time>
      </trkpt>
      <trkpt lat="46.75584" lon="6.2151">
        <ele>965.78</ele>
        <time>2013-08-02T09:00:49Z</time>
      </trkpt>
      <trkpt lat="46.75583" lon="6.21518">
        <ele>965.78</ele>
        <time>2013-08-02T09:01:00Z</time>
      </trkpt>
      <trkpt lat="46.75583" lon="6.21518">
        <ele>965.3</ele>
        <time>2013-08-02T09:01:15Z</time>
      </trkpt>
      <trkpt lat="46.75577" lon="6.21536">
        <ele>961.46</ele>
        <time>2013-08-02T09:01:20Z</time>
      </trkpt>
      <trkpt lat="46.75558" lon="6.21551">
        <ele>956.17</ele>
        <time>2013-08-02T09:01:24Z</time>
      </trkpt>
      <trkpt lat="46.7555" lon="6.21559">
        <ele>953.77</ele>
        <time>2013-08-02T09:01:26Z</time>
      </trkpt>
      <trkpt lat="46.75532" lon="6.21578">
        <ele>948.48</ele>
        <time>2013-08-02T09:01:30Z</time>
      </trkpt>
      <trkpt lat="46.75528" lon="6.21583">
        <ele>947.04</ele>
        <time>2013-08-02T09:01:31Z</time>
      </trkpt>
      <trkpt lat="46.75515" lon="6.21599">
        <ele>944.15</ele>
        <time>2013-08-02T09:01:35Z</time>
      </trkpt>
      <trkpt lat="46.75503" lon="6.21615">
        <ele>939.83</ele>
        <time>2013-08-02T09:01:40Z</time>
      </trkpt>
      <trkpt lat="46.75503" lon="6.21618">
        <ele>939.83</ele>
        <time>2013-08-02T09:01:41Z</time>
      </trkpt>
      <trkpt lat="46.75493" lon="6.21635">
        <ele>937.42</ele>
        <time>2013-08-02T09:01:48Z</time>
      </trkpt>
      <trkpt lat="46.75481" lon="6.21643">
        <ele>935.5</ele>
        <time>2013-08-02T09:01:54Z</time>
      </trkpt>
      <trkpt lat="46.75478" lon="6.21644">
        <ele>935.02</ele>
        <time>2013-08-02T09:01:55Z</time>
      </trkpt>
      <trkpt lat="46.75482" lon="6.2166">
        <ele>933.58</ele>
        <time>2013-08-02T09:02:02Z</time>
      </trkpt>
      <trkpt lat="46.75484" lon="6.21659">
        <ele>933.58</ele>
        <time>2013-08-02T09:02:13Z</time>
      </trkpt>
      <trkpt lat="46.75484" lon="6.21659">
        <ele>933.58</ele>
        <time>2013-08-02T09:02:23Z</time>
      </trkpt>
      <trkpt lat="46.75492" lon="6.21678">
        <ele>935.02</ele>
        <time>2013-08-02T09:02:31Z</time>
      </trkpt>
      <trkpt lat="46.75497" lon="6.21686">
        <ele>933.58</ele>
        <time>2013-08-02T09:02:33Z</time>
      </trkpt>
      <trkpt lat="46.75534" lon="6.2177">
        <ele>930.69</ele>
        <time>2013-08-02T09:02:46Z</time>
      </trkpt>
      <trkpt lat="46.75542" lon="6.21793">
        <ele>930.69</ele>
        <time>2013-08-02T09:02:49Z</time>
      </trkpt>
      <trkpt lat="46.75552" lon="6.21818">
        <ele>930.69</ele>
        <time>2013-08-02T09:02:53Z</time>
      </trkpt>
      <trkpt lat="46.75582" lon="6.21892">
        <ele>930.21</ele>
        <time>2013-08-02T09:03:07Z</time>
      </trkpt>
      <trkpt lat="46.75597" lon="6.21916">
        <ele>929.73</ele>
        <time>2013-08-02T09:03:11Z</time>
      </trkpt>
      <trkpt lat="46.7559" lon="6.21939">
        <ele>927.81</ele>
        <time>2013-08-02T09:03:16Z</time>
      </trkpt>
      <trkpt lat="46.75584" lon="6.21944">
        <ele>926.85</ele>
        <time>2013-08-02T09:03:18Z</time>
      </trkpt>
      <trkpt lat="46.75579" lon="6.21948">
        <ele>927.33</ele>
        <time>2013-08-02T09:03:28Z</time>
      </trkpt>
      <trkpt lat="46.75579" lon="6.21948">
        <ele>927.33</ele>
        <time>2013-08-02T09:03:34Z</time>
      </trkpt>
      <trkpt lat="46.75574" lon="6.21937">
        <ele>926.85</ele>
        <time>2013-08-02T09:03:39Z</time>
      </trkpt>
      <trkpt lat="46.75568" lon="6.21924">
        <ele>926.85</ele>
        <time>2013-08-02T09:03:43Z</time>
      </trkpt>
      <trkpt lat="46.75555" lon="6.21913">
        <ele>925.41</ele>
        <time>2013-08-02T09:03:48Z</time>
      </trkpt>
      <trkpt lat="46.75544" lon="6.21911">
        <ele>923.96</ele>
        <time>2013-08-02T09:03:50Z</time>
      </trkpt>
      <trkpt lat="46.75494" lon="6.21918">
        <ele>923</ele>
        <time>2013-08-02T09:03:59Z</time>
      </trkpt>
      <trkpt lat="46.75477" lon="6.21923">
        <ele>923</ele>
        <time>2013-08-02T09:04:03Z</time>
      </trkpt>
      <trkpt lat="46.75465" lon="6.2194">
        <ele>923.48</ele>
        <time>2013-08-02T09:04:08Z</time>
      </trkpt>
      <trkpt lat="46.7547" lon="6.21968">
        <ele>923.48</ele>
        <time>2013-08-02T09:04:13Z</time>
      </trkpt>
      <trkpt lat="46.75475" lon="6.21984">
        <ele>923.48</ele>
        <time>2013-08-02T09:04:16Z</time>
      </trkpt>
      <trkpt lat="46.7548" lon="6.22009">
        <ele>923</ele>
        <time>2013-08-02T09:04:20Z</time>
      </trkpt>
      <trkpt lat="46.75496" lon="6.22091">
        <ele>924.93</ele>
        <time>2013-08-02T09:04:33Z</time>
      </trkpt>
      <trkpt lat="46.75497" lon="6.22095">
        <ele>925.41</ele>
        <time>2013-08-02T09:04:34Z</time>
      </trkpt>
      <trkpt lat="46.75502" lon="6.22114">
        <ele>926.37</ele>
        <time>2013-08-02T09:04:39Z</time>
      </trkpt>
      <trkpt lat="46.7551" lon="6.2215">
        <ele>928.29</ele>
        <time>2013-08-02T09:04:50Z</time>
      </trkpt>
      <trkpt lat="46.75516" lon="6.22183">
        <ele>931.17</ele>
        <time>2013-08-02T09:05:01Z</time>
      </trkpt>
      <trkpt lat="46.75523" lon="6.22223">
        <ele>933.58</ele>
        <time>2013-08-02T09:05:14Z</time>
      </trkpt>
      <trkpt lat="46.75531" lon="6.22257">
        <ele>936.46</ele>
        <time>2013-08-02T09:05:25Z</time>
      </trkpt>
      <trkpt lat="46.75536" lon="6.22302">
        <ele>937.9</ele>
        <time>2013-08-02T09:05:38Z</time>
      </trkpt>
      <trkpt lat="46.75535" lon="6.22353">
        <ele>939.83</ele>
        <time>2013-08-02T09:05:53Z</time>
      </trkpt>
      <trkpt lat="46.75526" lon="6.22384">
        <ele>941.75</ele>
        <time>2013-08-02T09:06:05Z</time>
      </trkpt>
      <trkpt lat="46.75498" lon="6.22393">
        <ele>943.67</ele>
        <time>2013-08-02T09:06:18Z</time>
      </trkpt>
      <trkpt lat="46.75478" lon="6.22345">
        <ele>943.19</ele>
        <time>2013-08-02T09:06:31Z</time>
      </trkpt>
      <trkpt lat="46.75474" lon="6.22334">
        <ele>943.67</ele>
        <time>2013-08-02T09:06:34Z</time>
      </trkpt>
      <trkpt lat="46.7547" lon="6.2232">
        <ele>944.15</ele>
        <time>2013-08-02T09:06:38Z</time>
      </trkpt>
      <trkpt lat="46.75451" lon="6.22278">
        <ele>947.04</ele>
        <time>2013-08-02T09:06:52Z</time>
      </trkpt>
      <trkpt lat="46.75436" lon="6.22232">
        <ele>948.48</ele>
        <time>2013-08-02T09:07:05Z</time>
      </trkpt>
      <trkpt lat="46.75419" lon="6.2218">
        <ele>948.96</ele>
        <time>2013-08-02T09:07:19Z</time>
      </trkpt>
      <trkpt lat="46.75404" lon="6.22121">
        <ele>948</ele>
        <time>2013-08-02T09:07:31Z</time>
      </trkpt>
      <trkpt lat="46.75389" lon="6.22061">
        <ele>949.92</ele>
        <time>2013-08-02T09:07:46Z</time>
      </trkpt>
      <trkpt lat="46.75372" lon="6.22008">
        <ele>952.32</ele>
        <time>2013-08-02T09:08:02Z</time>
      </trkpt>
      <trkpt lat="46.75356" lon="6.2198">
        <ele>954.25</ele>
        <time>2013-08-02T09:08:14Z</time>
      </trkpt>
      <trkpt lat="46.75341" lon="6.21959">
        <ele>957.61</ele>
        <time>2013-08-02T09:08:24Z</time>
      </trkpt>
      <trkpt lat="46.75321" lon="6.21938">
        <ele>959.53</ele>
        <time>2013-08-02T09:08:36Z</time>
      </trkpt>
      <trkpt lat="46.7532" lon="6.21936">
        <ele>959.53</ele>
        <time>2013-08-02T09:08:37Z</time>
      </trkpt>
      <trkpt lat="46.75317" lon="6.21939">
        <ele>960.01</ele>
        <time>2013-08-02T09:08:45Z</time>
      </trkpt>
      <trkpt lat="46.75317" lon="6.21938">
        <ele>960.01</ele>
        <time>2013-08-02T09:08:58Z</time>
      </trkpt>
      <trkpt lat="46.75317" lon="6.21938">
        <ele>960.01</ele>
        <time>2013-08-02T09:09:00Z</time>
      </trkpt>
      <trkpt lat="46.75314" lon="6.2193">
        <ele>959.53</ele>
        <time>2013-08-02T09:09:04Z</time>
      </trkpt>
      <trkpt lat="46.75285" lon="6.21934">
        <ele>960.01</ele>
        <time>2013-08-02T09:09:19Z</time>
      </trkpt>
      <trkpt lat="46.7526" lon="6.21936">
        <ele>960.98</ele>
        <time>2013-08-02T09:09:29Z</time>
      </trkpt>
      <trkpt lat="46.75237" lon="6.21926">
        <ele>958.09</ele>
        <time>2013-08-02T09:09:34Z</time>
      </trkpt>
      <trkpt lat="46.75232" lon="6.21927">
        <ele>958.09</ele>
        <time>2013-08-02T09:09:35Z</time>
      </trkpt>
      <trkpt lat="46.75207" lon="6.21942">
        <ele>961.46</ele>
        <time>2013-08-02T09:09:46Z</time>
      </trkpt>
      <trkpt lat="46.75189" lon="6.21966">
        <ele>963.86</ele>
        <time>2013-08-02T09:09:59Z</time>
      </trkpt>
      <trkpt lat="46.75175" lon="6.21988">
        <ele>966.26</ele>
        <time>2013-08-02T09:10:11Z</time>
      </trkpt>
      <trkpt lat="46.7517" lon="6.21999">
        <ele>967.7</ele>
        <time>2013-08-02T09:10:17Z</time>
      </trkpt>
      <trkpt lat="46.75156" lon="6.22017">
        <ele>971.07</ele>
        <time>2013-08-02T09:10:29Z</time>
      </trkpt>
      <trkpt lat="46.75145" lon="6.22031">
        <ele>974.43</ele>
        <time>2013-08-02T09:10:40Z</time>
      </trkpt>
      <trkpt lat="46.75144" lon="6.22032">
        <ele>974.43</ele>
        <time>2013-08-02T09:10:41Z</time>
      </trkpt>
      <trkpt lat="46.75137" lon="6.22048">
        <ele>976.84</ele>
        <time>2013-08-02T09:10:50Z</time>
      </trkpt>
      <trkpt lat="46.75128" lon="6.22067">
        <ele>977.8</ele>
        <time>2013-08-02T09:10:59Z</time>
      </trkpt>
      <trkpt lat="46.75125" lon="6.22078">
        <ele>977.8</ele>
        <time>2013-08-02T09:11:11Z</time>
      </trkpt>
      <trkpt lat="46.75124" lon="6.22083">
        <ele>977.8</ele>
        <time>2013-08-02T09:11:36Z</time>
      </trkpt>
      <trkpt lat="46.7512" lon="6.22103">
        <ele>974.91</ele>
        <time>2013-08-02T09:11:44Z</time>
      </trkpt>
      <trkpt lat="46.7512" lon="6.22108">
        <ele>973.47</ele>
        <time>2013-08-02T09:11:46Z</time>
      </trkpt>
      <trkpt lat="46.75116" lon="6.2213">
        <ele>972.99</ele>
        <time>2013-08-02T09:11:57Z</time>
      </trkpt>
      <trkpt lat="46.75114" lon="6.22166">
        <ele>972.99</ele>
        <time>2013-08-02T09:12:10Z</time>
      </trkpt>
      <trkpt lat="46.75107" lon="6.22201">
        <ele>975.39</ele>
        <time>2013-08-02T09:12:24Z</time>
      </trkpt>
      <trkpt lat="46.75105" lon="6.22204">
        <ele>975.39</ele>
        <time>2013-08-02T09:12:26Z</time>
      </trkpt>
      <trkpt lat="46.751" lon="6.22208">
        <ele>974.91</ele>
        <time>2013-08-02T09:12:30Z</time>
      </trkpt>
      <trkpt lat="46.75085" lon="6.22225">
        <ele>971.55</ele>
        <time>2013-08-02T09:12:35Z</time>
      </trkpt>
      <trkpt lat="46.75081" lon="6.2223">
        <ele>972.03</ele>
        <time>2013-08-02T09:12:36Z</time>
      </trkpt>
      <trkpt lat="46.75071" lon="6.22239">
        <ele>972.03</ele>
        <time>2013-08-02T09:12:39Z</time>
      </trkpt>
      <trkpt lat="46.75056" lon="6.22256">
        <ele>971.55</ele>
        <time>2013-08-02T09:12:43Z</time>
      </trkpt>
      <trkpt lat="46.75041" lon="6.22272">
        <ele>974.43</ele>
        <time>2013-08-02T09:12:53Z</time>
      </trkpt>
      <trkpt lat="46.75027" lon="6.2228">
        <ele>975.39</ele>
        <time>2013-08-02T09:13:04Z</time>
      </trkpt>
      <trkpt lat="46.75019" lon="6.2229">
        <ele>976.36</ele>
        <time>2013-08-02T09:13:17Z</time>
      </trkpt>
      <trkpt lat="46.75015" lon="6.22298">
        <ele>977.32</ele>
        <time>2013-08-02T09:13:28Z</time>
      </trkpt>
      <trkpt lat="46.75014" lon="6.22301">
        <ele>977.8</ele>
        <time>2013-08-02T09:13:31Z</time>
      </trkpt>
      <trkpt lat="46.75003" lon="6.22316">
        <ele>978.28</ele>
        <time>2013-08-02T09:13:39Z</time>
      </trkpt>
      <trkpt lat="46.74997" lon="6.22326">
        <ele>978.76</ele>
        <time>2013-08-02T09:13:43Z</time>
      </trkpt>
      <trkpt lat="46.74988" lon="6.22345">
        <ele>980.2</ele>
        <time>2013-08-02T09:13:54Z</time>
      </trkpt>
      <trkpt lat="46.74983" lon="6.22352">
        <ele>980.68</ele>
        <time>2013-08-02T09:14:04Z</time>
      </trkpt>
      <trkpt lat="46.74983" lon="6.22352">
        <ele>980.68</ele>
        <time>2013-08-02T09:14:13Z</time>
      </trkpt>
      <trkpt lat="46.74983" lon="6.22354">
        <ele>980.2</ele>
        <time>2013-08-02T09:14:15Z</time>
      </trkpt>
      <trkpt lat="46.74979" lon="6.22362">
        <ele>980.68</ele>
        <time>2013-08-02T09:14:19Z</time>
      </trkpt>
      <trkpt lat="46.74977" lon="6.22366">
        <ele>981.16</ele>
        <time>2013-08-02T09:14:21Z</time>
      </trkpt>
      <trkpt lat="46.74973" lon="6.2238">
        <ele>981.64</ele>
        <time>2013-08-02T09:14:27Z</time>
      </trkpt>
      <trkpt lat="46.74973" lon="6.22383">
        <ele>981.64</ele>
        <time>2013-08-02T09:14:40Z</time>
      </trkpt>
      <trkpt lat="46.74972" lon="6.22386">
        <ele>981.64</ele>
        <time>2013-08-02T09:14:44Z</time>
      </trkpt>
      <trkpt lat="46.74975" lon="6.22401">
        <ele>981.64</ele>
        <time>2013-08-02T09:14:57Z</time>
      </trkpt>
      <trkpt lat="46.74974" lon="6.22405">
        <ele>982.12</ele>
        <time>2013-08-02T09:15:04Z</time>
      </trkpt>
      <trkpt lat="46.74975" lon="6.22409">
        <ele>981.64</ele>
        <time>2013-08-02T09:15:08Z</time>
      </trkpt>
      <trkpt lat="46.74975" lon="6.22413">
        <ele>981.64</ele>
        <time>2013-08-02T09:15:16Z</time>
      </trkpt>
      <trkpt lat="46.74975" lon="6.22427">
        <ele>982.12</ele>
        <time>2013-08-02T09:15:22Z</time>
      </trkpt>
      <trkpt lat="46.74973" lon="6.22434">
        <ele>983.57</ele>
        <time>2013-08-02T09:15:27Z</time>
      </trkpt>
      <trkpt lat="46.74969" lon="6.22447">
        <ele>984.05</ele>
        <time>2013-08-02T09:15:32Z</time>
      </trkpt>
      <trkpt lat="46.74958" lon="6.22461">
        <ele>984.05</ele>
        <time>2013-08-02T09:15:43Z</time>
      </trkpt>
      <trkpt lat="46.74958" lon="6.22461">
        <ele>984.53</ele>
        <time>2013-08-02T09:16:08Z</time>
      </trkpt>
      <trkpt lat="46.74957" lon="6.22461">
        <ele>984.05</ele>
        <time>2013-08-02T09:16:16Z</time>
      </trkpt>
      <trkpt lat="46.7493" lon="6.22498">
        <ele>984.05</ele>
        <time>2013-08-02T09:16:30Z</time>
      </trkpt>
      <trkpt lat="46.74919" lon="6.22536">
        <ele>984.53</ele>
        <time>2013-08-02T09:16:42Z</time>
      </trkpt>
      <trkpt lat="46.74912" lon="6.22582">
        <ele>986.45</ele>
        <time>2013-08-02T09:16:56Z</time>
      </trkpt>
      <trkpt lat="46.74896" lon="6.22626">
        <ele>988.37</ele>
        <time>2013-08-02T09:17:11Z</time>
      </trkpt>
      <trkpt lat="46.7489" lon="6.22631">
        <ele>988.85</ele>
        <time>2013-08-02T09:17:14Z</time>
      </trkpt>
      <trkpt lat="46.74866" lon="6.22636">
        <ele>988.85</ele>
        <time>2013-08-02T09:17:27Z</time>
      </trkpt>
      <trkpt lat="46.74859" lon="6.22633">
        <ele>989.33</ele>
        <time>2013-08-02T09:17:31Z</time>
      </trkpt>
      <trkpt lat="46.74844" lon="6.22636">
        <ele>989.81</ele>
        <time>2013-08-02T09:17:39Z</time>
      </trkpt>
      <trkpt lat="46.74834" lon="6.2263">
        <ele>989.81</ele>
        <time>2013-08-02T09:17:45Z</time>
      </trkpt>
      <trkpt lat="46.74829" lon="6.22634">
        <ele>990.3</ele>
        <time>2013-08-02T09:17:49Z</time>
      </trkpt>
      <trkpt lat="46.7483" lon="6.22639">
        <ele>990.3</ele>
        <time>2013-08-02T09:17:51Z</time>
      </trkpt>
      <trkpt lat="46.74841" lon="6.22651">
        <ele>990.3</ele>
        <time>2013-08-02T09:18:01Z</time>
      </trkpt>
      <trkpt lat="46.74842" lon="6.22666">
        <ele>989.33</ele>
        <time>2013-08-02T09:18:07Z</time>
      </trkpt>
      <trkpt lat="46.74846" lon="6.22687">
        <ele>987.89</ele>
        <time>2013-08-02T09:18:13Z</time>
      </trkpt>
      <trkpt lat="46.7485" lon="6.22706">
        <ele>987.41</ele>
        <time>2013-08-02T09:18:19Z</time>
      </trkpt>
      <trkpt lat="46.74855" lon="6.22729">
        <ele>986.93</ele>
        <time>2013-08-02T09:18:28Z</time>
      </trkpt>
      <trkpt lat="46.74864" lon="6.22748">
        <ele>987.41</ele>
        <time>2013-08-02T09:18:36Z</time>
      </trkpt>
      <trkpt lat="46.74865" lon="6.22754">
        <ele>986.93</ele>
        <time>2013-08-02T09:18:38Z</time>
      </trkpt>
      <trkpt lat="46.74867" lon="6.22768">
        <ele>986.93</ele>
        <time>2013-08-02T09:18:42Z</time>
      </trkpt>
      <trkpt lat="46.74872" lon="6.22779">
        <ele>986.93</ele>
        <time>2013-08-02T09:18:46Z</time>
      </trkpt>
      <trkpt lat="46.74889" lon="6.22802">
        <ele>987.41</ele>
        <time>2013-08-02T09:18:59Z</time>
      </trkpt>
      <trkpt lat="46.74908" lon="6.22828">
        <ele>987.89</ele>
        <time>2013-08-02T09:19:13Z</time>
      </trkpt>
      <trkpt lat="46.74919" lon="6.22826">
        <ele>987.89</ele>
        <time>2013-08-02T09:19:18Z</time>
      </trkpt>
      <trkpt lat="46.74937" lon="6.22823">
        <ele>987.41</ele>
        <time>2013-08-02T09:19:26Z</time>
      </trkpt>
      <trkpt lat="46.74948" lon="6.22836">
        <ele>986.93</ele>
        <time>2013-08-02T09:19:32Z</time>
      </trkpt>
      <trkpt lat="46.74952" lon="6.22839">
        <ele>986.93</ele>
        <time>2013-08-02T09:19:34Z</time>
      </trkpt>
      <trkpt lat="46.74954" lon="6.22847">
        <ele>986.93</ele>
        <time>2013-08-02T09:19:39Z</time>
      </trkpt>
      <trkpt lat="46.74957" lon="6.22852">
        <ele>986.93</ele>
        <time>2013-08-02T09:19:50Z</time>
      </trkpt>
      <trkpt lat="46.74958" lon="6.22853">
        <ele>986.45</ele>
        <time>2013-08-02T09:19:54Z</time>
      </trkpt>
      <trkpt lat="46.7496" lon="6.22866">
        <ele>985.97</ele>
        <time>2013-08-02T09:19:58Z</time>
      </trkpt>
      <trkpt lat="46.74974" lon="6.22913">
        <ele>985.49</ele>
        <time>2013-08-02T09:20:09Z</time>
      </trkpt>
      <trkpt lat="46.74981" lon="6.22971">
        <ele>983.09</ele>
        <time>2013-08-02T09:20:20Z</time>
      </trkpt>
      <trkpt lat="46.7499" lon="6.23019">
        <ele>981.16</ele>
        <time>2013-08-02T09:20:28Z</time>
      </trkpt>
      <trkpt lat="46.74991" lon="6.23028">
        <ele>981.64</ele>
        <time>2013-08-02T09:20:38Z</time>
      </trkpt>
      <trkpt lat="46.74994" lon="6.2304">
        <ele>981.16</ele>
        <time>2013-08-02T09:20:48Z</time>
      </trkpt>
      <trkpt lat="46.74995" lon="6.23045">
        <ele>981.16</ele>
        <time>2013-08-02T09:20:50Z</time>
      </trkpt>
      <trkpt lat="46.7499" lon="6.23073">
        <ele>982.6</ele>
        <time>2013-08-02T09:21:00Z</time>
      </trkpt>
      <trkpt lat="46.7499" lon="6.23077">
        <ele>982.6</ele>
        <time>2013-08-02T09:21:01Z</time>
      </trkpt>
      <trkpt lat="46.74988" lon="6.23085">
        <ele>982.6</ele>
        <time>2013-08-02T09:21:04Z</time>
      </trkpt>
      <trkpt lat="46.74985" lon="6.23092">
        <ele>982.6</ele>
        <time>2013-08-02T09:21:07Z</time>
      </trkpt>
      <trkpt lat="46.74981" lon="6.231">
        <ele>983.57</ele>
        <time>2013-08-02T09:21:22Z</time>
      </trkpt>
      <trkpt lat="46.74982" lon="6.23104">
        <ele>983.57</ele>
        <time>2013-08-02T09:21:38Z</time>
      </trkpt>
      <trkpt lat="46.74981" lon="6.23114">
        <ele>983.57</ele>
        <time>2013-08-02T09:21:47Z</time>
      </trkpt>
      <trkpt lat="46.74978" lon="6.2311">
        <ele>983.09</ele>
        <time>2013-08-02T09:21:52Z</time>
      </trkpt>
      <trkpt lat="46.74976" lon="6.23103">
        <ele>983.09</ele>
        <time>2013-08-02T09:21:56Z</time>
      </trkpt>
      <trkpt lat="46.74975" lon="6.23107">
        <ele>983.57</ele>
        <time>2013-08-02T09:21:59Z</time>
      </trkpt>
      <trkpt lat="46.74974" lon="6.2313">
        <ele>983.09</ele>
        <time>2013-08-02T09:22:07Z</time>
      </trkpt>
      <trkpt lat="46.74967" lon="6.2315">
        <ele>986.45</ele>
        <time>2013-08-02T09:22:14Z</time>
      </trkpt>
      <trkpt lat="46.74966" lon="6.23153">
        <ele>987.41</ele>
        <time>2013-08-02T09:22:16Z</time>
      </trkpt>
      <trkpt lat="46.7496" lon="6.23157">
        <ele>989.33</ele>
        <time>2013-08-02T09:22:20Z</time>
      </trkpt>
      <trkpt lat="46.74951" lon="6.23173">
        <ele>990.78</ele>
        <time>2013-08-02T09:22:33Z</time>
      </trkpt>
      <trkpt lat="46.74951" lon="6.23173">
        <ele>991.26</ele>
        <time>2013-08-02T09:23:05Z</time>
      </trkpt>
      <trkpt lat="46.74951" lon="6.23173">
        <ele>991.26</ele>
        <time>2013-08-02T09:23:33Z</time>
      </trkpt>
      <trkpt lat="46.74951" lon="6.23173">
        <ele>991.26</ele>
        <time>2013-08-02T09:23:40Z</time>
      </trkpt>
      <trkpt lat="46.74944" lon="6.23196">
        <ele>992.22</ele>
        <time>2013-08-02T09:23:47Z</time>
      </trkpt>
      <trkpt lat="46.74935" lon="6.23221">
        <ele>994.14</ele>
        <time>2013-08-02T09:23:57Z</time>
      </trkpt>
      <trkpt lat="46.74925" lon="6.2323">
        <ele>994.14</ele>
        <time>2013-08-02T09:24:04Z</time>
      </trkpt>
      <trkpt lat="46.74906" lon="6.23247">
        <ele>995.58</ele>
        <time>2013-08-02T09:24:16Z</time>
      </trkpt>
      <trkpt lat="46.74899" lon="6.23273">
        <ele>996.06</ele>
        <time>2013-08-02T09:24:27Z</time>
      </trkpt>
      <trkpt lat="46.74901" lon="6.23302">
        <ele>993.66</ele>
        <time>2013-08-02T09:24:38Z</time>
      </trkpt>
      <trkpt lat="46.74901" lon="6.23308">
        <ele>993.18</ele>
        <time>2013-08-02T09:24:39Z</time>
      </trkpt>
      <trkpt lat="46.74902" lon="6.23326">
        <ele>994.14</ele>
        <time>2013-08-02T09:24:43Z</time>
      </trkpt>
      <trkpt lat="46.74903" lon="6.23339">
        <ele>994.14</ele>
        <time>2013-08-02T09:24:47Z</time>
      </trkpt>
      <trkpt lat="46.74898" lon="6.2337">
        <ele>994.14</ele>
        <time>2013-08-02T09:24:55Z</time>
      </trkpt>
      <trkpt lat="46.74896" lon="6.23372">
        <ele>994.62</ele>
        <time>2013-08-02T09:24:57Z</time>
      </trkpt>
      <trkpt lat="46.74884" lon="6.2341">
        <ele>995.1</ele>
        <time>2013-08-02T09:25:09Z</time>
      </trkpt>
      <trkpt lat="46.74882" lon="6.23443">
        <ele>994.14</ele>
        <time>2013-08-02T09:25:16Z</time>
      </trkpt>
      <trkpt lat="46.74882" lon="6.23463">
        <ele>994.62</ele>
        <time>2013-08-02T09:25:20Z</time>
      </trkpt>
      <trkpt lat="46.74885" lon="6.2349">
        <ele>994.14</ele>
        <time>2013-08-02T09:25:25Z</time>
      </trkpt>
      <trkpt lat="46.74887" lon="6.23542">
        <ele>994.14</ele>
        <time>2013-08-02T09:25:36Z</time>
      </trkpt>
      <trkpt lat="46.74888" lon="6.23555">
        <ele>993.66</ele>
        <time>2013-08-02T09:25:38Z</time>
      </trkpt>
      <trkpt lat="46.74884" lon="6.23584">
        <ele>991.74</ele>
        <time>2013-08-02T09:25:44Z</time>
      </trkpt>
      <trkpt lat="46.74885" lon="6.23595">
        <ele>990.78</ele>
        <time>2013-08-02T09:25:47Z</time>
      </trkpt>
      <trkpt lat="46.74886" lon="6.23615">
        <ele>990.78</ele>
        <time>2013-08-02T09:25:56Z</time>
      </trkpt>
      <trkpt lat="46.74885" lon="6.2364">
        <ele>990.78</ele>
        <time>2013-08-02T09:26:05Z</time>
      </trkpt>
      <trkpt lat="46.74865" lon="6.23672">
        <ele>986.93</ele>
        <time>2013-08-02T09:26:11Z</time>
      </trkpt>
      <trkpt lat="46.74857" lon="6.23679">
        <ele>986.45</ele>
        <time>2013-08-02T09:26:13Z</time>
      </trkpt>
      <trkpt lat="46.74853" lon="6.23681">
        <ele>986.45</ele>
        <time>2013-08-02T09:26:14Z</time>
      </trkpt>
      <trkpt lat="46.7484" lon="6.23685">
        <ele>986.93</ele>
        <time>2013-08-02T09:26:18Z</time>
      </trkpt>
      <trkpt lat="46.74828" lon="6.23697">
        <ele>986.45</ele>
        <time>2013-08-02T09:26:23Z</time>
      </trkpt>
      <trkpt lat="46.7481" lon="6.23715">
        <ele>985.97</ele>
        <time>2013-08-02T09:26:28Z</time>
      </trkpt>
      <trkpt lat="46.74782" lon="6.23778">
        <ele>985.01</ele>
        <time>2013-08-02T09:26:40Z</time>
      </trkpt>
      <trkpt lat="46.74748" lon="6.23833">
        <ele>986.45</ele>
        <time>2013-08-02T09:26:54Z</time>
      </trkpt>
      <trkpt lat="46.74746" lon="6.23836">
        <ele>986.45</ele>
        <time>2013-08-02T09:26:55Z</time>
      </trkpt>
      <trkpt lat="46.7474" lon="6.23848">
        <ele>986.45</ele>
        <time>2013-08-02T09:27:00Z</time>
      </trkpt>
      <trkpt lat="46.74726" lon="6.23886">
        <ele>986.45</ele>
        <time>2013-08-02T09:27:14Z</time>
      </trkpt>
      <trkpt lat="46.74716" lon="6.23925">
        <ele>985.49</ele>
        <time>2013-08-02T09:27:23Z</time>
      </trkpt>
      <trkpt lat="46.74711" lon="6.23957">
        <ele>983.09</ele>
        <time>2013-08-02T09:27:28Z</time>
      </trkpt>
      <trkpt lat="46.74705" lon="6.24018">
        <ele>983.57</ele>
        <time>2013-08-02T09:27:39Z</time>
      </trkpt>
      <trkpt lat="46.74704" lon="6.24038">
        <ele>982.6</ele>
        <time>2013-08-02T09:27:42Z</time>
      </trkpt>
      <trkpt lat="46.74704" lon="6.24058">
        <ele>982.12</ele>
        <time>2013-08-02T09:27:50Z</time>
      </trkpt>
      <trkpt lat="46.74704" lon="6.2406">
        <ele>982.6</ele>
        <time>2013-08-02T09:27:54Z</time>
      </trkpt>
      <trkpt lat="46.7471" lon="6.24091">
        <ele>981.64</ele>
        <time>2013-08-02T09:28:03Z</time>
      </trkpt>
      <trkpt lat="46.74715" lon="6.24148">
        <ele>979.72</ele>
        <time>2013-08-02T09:28:15Z</time>
      </trkpt>
      <trkpt lat="46.74725" lon="6.24209">
        <ele>977.32</ele>
        <time>2013-08-02T09:28:27Z</time>
      </trkpt>
      <trkpt lat="46.74728" lon="6.24218">
        <ele>976.84</ele>
        <time>2013-08-02T09:28:29Z</time>
      </trkpt>
      <trkpt lat="46.7473" lon="6.24237">
        <ele>976.84</ele>
        <time>2013-08-02T09:28:32Z</time>
      </trkpt>
      <trkpt lat="46.7473" lon="6.24256">
        <ele>976.84</ele>
        <time>2013-08-02T09:28:35Z</time>
      </trkpt>
      <trkpt lat="46.74732" lon="6.24298">
        <ele>975.88</ele>
        <time>2013-08-02T09:28:42Z</time>
      </trkpt>
      <trkpt lat="46.74734" lon="6.2433">
        <ele>973.95</ele>
        <time>2013-08-02T09:28:47Z</time>
      </trkpt>
      <trkpt lat="46.74733" lon="6.24359">
        <ele>972.51</ele>
        <time>2013-08-02T09:28:51Z</time>
      </trkpt>
      <trkpt lat="46.74732" lon="6.24371">
        <ele>971.55</ele>
        <time>2013-08-02T09:28:53Z</time>
      </trkpt>
      <trkpt lat="46.74726" lon="6.24393">
        <ele>971.07</ele>
        <time>2013-08-02T09:28:59Z</time>
      </trkpt>
      <trkpt lat="46.7472" lon="6.24411">
        <ele>969.63</ele>
        <time>2013-08-02T09:29:02Z</time>
      </trkpt>
      <trkpt lat="46.74711" lon="6.24445">
        <ele>967.22</ele>
        <time>2013-08-02T09:29:07Z</time>
      </trkpt>
      <trkpt lat="46.74706" lon="6.24465">
        <ele>966.74</ele>
        <time>2013-08-02T09:29:10Z</time>
      </trkpt>
      <trkpt lat="46.747" lon="6.24494">
        <ele>966.26</ele>
        <time>2013-08-02T09:29:16Z</time>
      </trkpt>
      <trkpt lat="46.74682" lon="6.24539">
        <ele>963.86</ele>
        <time>2013-08-02T09:29:24Z</time>
      </trkpt>
      <trkpt lat="46.74678" lon="6.24566">
        <ele>961.46</ele>
        <time>2013-08-02T09:29:29Z</time>
      </trkpt>
      <trkpt lat="46.74681" lon="6.24581">
        <ele>960.98</ele>
        <time>2013-08-02T09:29:33Z</time>
      </trkpt>
      <trkpt lat="46.74683" lon="6.24591">
        <ele>960.49</ele>
        <time>2013-08-02T09:29:35Z</time>
      </trkpt>
      <trkpt lat="46.74673" lon="6.24629">
        <ele>957.13</ele>
        <time>2013-08-02T09:29:41Z</time>
      </trkpt>
      <trkpt lat="46.7467" lon="6.24644">
        <ele>956.17</ele>
        <time>2013-08-02T09:29:43Z</time>
      </trkpt>
      <trkpt lat="46.74666" lon="6.24667">
        <ele>956.17</ele>
        <time>2013-08-02T09:29:46Z</time>
      </trkpt>
      <trkpt lat="46.74654" lon="6.24695">
        <ele>954.73</ele>
        <time>2013-08-02T09:29:50Z</time>
      </trkpt>
      <trkpt lat="46.74645" lon="6.24705">
        <ele>954.25</ele>
        <time>2013-08-02T09:29:52Z</time>
      </trkpt>
      <trkpt lat="46.7463" lon="6.24733">
        <ele>951.84</ele>
        <time>2013-08-02T09:29:56Z</time>
      </trkpt>
      <trkpt lat="46.7461" lon="6.24765">
        <ele>949.44</ele>
        <time>2013-08-02T09:30:00Z</time>
      </trkpt>
      <trkpt lat="46.7459" lon="6.24823">
        <ele>948.48</ele>
        <time>2013-08-02T09:30:08Z</time>
      </trkpt>
      <trkpt lat="46.74589" lon="6.24828">
        <ele>948.48</ele>
        <time>2013-08-02T09:30:09Z</time>
      </trkpt>
      <trkpt lat="46.74579" lon="6.24862">
        <ele>947.52</ele>
        <time>2013-08-02T09:30:20Z</time>
      </trkpt>
      <trkpt lat="46.74578" lon="6.24866">
        <ele>947.04</ele>
        <time>2013-08-02T09:30:21Z</time>
      </trkpt>
      <trkpt lat="46.74581" lon="6.24882">
        <ele>945.59</ele>
        <time>2013-08-02T09:30:25Z</time>
      </trkpt>
      <trkpt lat="46.74587" lon="6.24892">
        <ele>945.11</ele>
        <time>2013-08-02T09:30:29Z</time>
      </trkpt>
      <trkpt lat="46.74588" lon="6.24922">
        <ele>941.75</ele>
        <time>2013-08-02T09:30:38Z</time>
      </trkpt>
      <trkpt lat="46.74591" lon="6.24932">
        <ele>939.83</ele>
        <time>2013-08-02T09:30:47Z</time>
      </trkpt>
      <trkpt lat="46.74593" lon="6.24931">
        <ele>940.31</ele>
        <time>2013-08-02T09:31:01Z</time>
      </trkpt>
      <trkpt lat="46.74593" lon="6.24927">
        <ele>941.27</ele>
        <time>2013-08-02T09:31:08Z</time>
      </trkpt>
      <trkpt lat="46.74592" lon="6.24923">
        <ele>941.27</ele>
        <time>2013-08-02T09:31:11Z</time>
      </trkpt>
      <trkpt lat="46.74583" lon="6.24903">
        <ele>943.67</ele>
        <time>2013-08-02T09:31:27Z</time>
      </trkpt>
      <trkpt lat="46.74583" lon="6.24893">
        <ele>944.63</ele>
        <time>2013-08-02T09:31:33Z</time>
      </trkpt>
      <trkpt lat="46.74584" lon="6.24883">
        <ele>945.11</ele>
        <time>2013-08-02T09:31:48Z</time>
      </trkpt>
      <trkpt lat="46.74584" lon="6.24883">
        <ele>945.59</ele>
        <time>2013-08-02T09:32:13Z</time>
      </trkpt>
      <trkpt lat="46.74584" lon="6.24883">
        <ele>945.11</ele>
        <time>2013-08-02T09:32:43Z</time>
      </trkpt>
      <trkpt lat="46.74584" lon="6.24883">
        <ele>945.11</ele>
        <time>2013-08-02T09:33:10Z</time>
      </trkpt>
      <trkpt lat="46.74584" lon="6.24883">
        <ele>945.59</ele>
        <time>2013-08-02T09:33:36Z</time>
      </trkpt>
      <trkpt lat="46.74584" lon="6.24883">
        <ele>945.59</ele>
        <time>2013-08-02T09:34:13Z</time>
      </trkpt>
      <trkpt lat="46.74584" lon="6.24883">
        <ele>945.59</ele>
        <time>2013-08-02T09:34:41Z</time>
      </trkpt>
      <trkpt lat="46.74584" lon="6.24883">
        <ele>945.59</ele>
        <time>2013-08-02T09:35:18Z</time>
      </trkpt>
      <trkpt lat="46.74584" lon="6.24883">
        <ele>945.11</ele>
        <time>2013-08-02T09:35:55Z</time>
      </trkpt>
      <trkpt lat="46.74584" lon="6.24884">
        <ele>945.59</ele>
        <time>2013-08-02T09:36:29Z</time>
      </trkpt>
      <trkpt lat="46.74584" lon="6.24885">
        <ele>945.59</ele>
        <time>2013-08-02T09:37:00Z</time>
      </trkpt>
      <trkpt lat="46.74584" lon="6.24885">
        <ele>945.11</ele>
        <time>2013-08-02T09:37:33Z</time>
      </trkpt>
      <trkpt lat="46.74584" lon="6.24884">
        <ele>945.59</ele>
        <time>2013-08-02T09:38:05Z</time>
      </trkpt>
      <trkpt lat="46.74585" lon="6.24887">
        <ele>945.11</ele>
        <time>2013-08-02T09:38:27Z</time>
      </trkpt>
      <trkpt lat="46.74586" lon="6.24888">
        <ele>945.11</ele>
        <time>2013-08-02T09:38:45Z</time>
      </trkpt>
      <trkpt lat="46.74586" lon="6.24919">
        <ele>942.71</ele>
        <time>2013-08-02T09:38:55Z</time>
      </trkpt>
      <trkpt lat="46.74592" lon="6.2494">
        <ele>939.35</ele>
        <time>2013-08-02T09:39:01Z</time>
      </trkpt>
      <trkpt lat="46.74607" lon="6.24977">
        <ele>934.06</ele>
        <time>2013-08-02T09:39:10Z</time>
      </trkpt>
      <trkpt lat="46.74635" lon="6.2499">
        <ele>930.69</ele>
        <time>2013-08-02T09:39:16Z</time>
      </trkpt>
      <trkpt lat="46.74641" lon="6.25013">
        <ele>929.25</ele>
        <time>2013-08-02T09:39:19Z</time>
      </trkpt>
      <trkpt lat="46.74646" lon="6.25048">
        <ele>927.33</ele>
        <time>2013-08-02T09:39:23Z</time>
      </trkpt>
      <trkpt lat="46.74648" lon="6.2507">
        <ele>923.48</ele>
        <time>2013-08-02T09:39:26Z</time>
      </trkpt>
      <trkpt lat="46.74649" lon="6.25078">
        <ele>923.48</ele>
        <time>2013-08-02T09:39:32Z</time>
      </trkpt>
      <trkpt lat="46.74649" lon="6.25078">
        <ele>923</ele>
        <time>2013-08-02T09:39:50Z</time>
      </trkpt>
      <trkpt lat="46.74649" lon="6.2508">
        <ele>923</ele>
        <time>2013-08-02T09:39:55Z</time>
      </trkpt>
      <trkpt lat="46.74663" lon="6.25117">
        <ele>919.64</ele>
        <time>2013-08-02T09:40:05Z</time>
      </trkpt>
      <trkpt lat="46.74667" lon="6.25126">
        <ele>918.2</ele>
        <time>2013-08-02T09:40:07Z</time>
      </trkpt>
      <trkpt lat="46.74673" lon="6.25135">
        <ele>918.68</ele>
        <time>2013-08-02T09:40:09Z</time>
      </trkpt>
      <trkpt lat="46.74694" lon="6.25154">
        <ele>918.2</ele>
        <time>2013-08-02T09:40:15Z</time>
      </trkpt>
      <trkpt lat="46.74702" lon="6.25159">
        <ele>918.2</ele>
        <time>2013-08-02T09:40:17Z</time>
      </trkpt>
      <trkpt lat="46.7471" lon="6.25164">
        <ele>918.2</ele>
        <time>2013-08-02T09:40:19Z</time>
      </trkpt>
      <trkpt lat="46.74739" lon="6.25188">
        <ele>918.2</ele>
        <time>2013-08-02T09:40:26Z</time>
      </trkpt>
      <trkpt lat="46.74754" lon="6.25203">
        <ele>918.2</ele>
        <time>2013-08-02T09:40:30Z</time>
      </trkpt>
      <trkpt lat="46.74829" lon="6.25265">
        <ele>918.68</ele>
        <time>2013-08-02T09:40:47Z</time>
      </trkpt>
      <trkpt lat="46.74871" lon="6.25308">
        <ele>918.68</ele>
        <time>2013-08-02T09:40:56Z</time>
      </trkpt>
      <trkpt lat="46.74898" lon="6.25346">
        <ele>918.68</ele>
        <time>2013-08-02T09:41:03Z</time>
      </trkpt>
      <trkpt lat="46.74905" lon="6.25356">
        <ele>919.16</ele>
        <time>2013-08-02T09:41:05Z</time>
      </trkpt>
      <trkpt lat="46.74953" lon="6.25427">
        <ele>918.68</ele>
        <time>2013-08-02T09:41:17Z</time>
      </trkpt>
      <trkpt lat="46.74957" lon="6.25434">
        <ele>918.2</ele>
        <time>2013-08-02T09:41:18Z</time>
      </trkpt>
      <trkpt lat="46.74993" lon="6.25466">
        <ele>917.24</ele>
        <time>2013-08-02T09:41:24Z</time>
      </trkpt>
      <trkpt lat="46.75015" lon="6.25475">
        <ele>916.75</ele>
        <time>2013-08-02T09:41:27Z</time>
      </trkpt>
      <trkpt lat="46.75049" lon="6.25475">
        <ele>915.79</ele>
        <time>2013-08-02T09:41:31Z</time>
      </trkpt>
      <trkpt lat="46.75085" lon="6.2546">
        <ele>914.35</ele>
        <time>2013-08-02T09:41:35Z</time>
      </trkpt>
      <trkpt lat="46.75138" lon="6.25421">
        <ele>911.47</ele>
        <time>2013-08-02T09:41:41Z</time>
      </trkpt>
      <trkpt lat="46.75175" lon="6.25406">
        <ele>908.1</ele>
        <time>2013-08-02T09:41:45Z</time>
      </trkpt>
      <trkpt lat="46.75211" lon="6.25413">
        <ele>906.18</ele>
        <time>2013-08-02T09:41:49Z</time>
      </trkpt>
      <trkpt lat="46.75228" lon="6.25423">
        <ele>905.7</ele>
        <time>2013-08-02T09:41:51Z</time>
      </trkpt>
      <trkpt lat="46.7531" lon="6.25479">
        <ele>903.3</ele>
        <time>2013-08-02T09:42:02Z</time>
      </trkpt>
      <trkpt lat="46.75337" lon="6.25496">
        <ele>904.26</ele>
        <time>2013-08-02T09:42:10Z</time>
      </trkpt>
      <trkpt lat="46.75337" lon="6.25495">
        <ele>903.78</ele>
        <time>2013-08-02T09:42:29Z</time>
      </trkpt>
      <trkpt lat="46.75338" lon="6.25495">
        <ele>903.78</ele>
        <time>2013-08-02T09:42:57Z</time>
      </trkpt>
      <trkpt lat="46.75338" lon="6.25495">
        <ele>903.78</ele>
        <time>2013-08-02T09:43:20Z</time>
      </trkpt>
      <trkpt lat="46.75342" lon="6.25494">
        <ele>903.78</ele>
        <time>2013-08-02T09:43:23Z</time>
      </trkpt>
      <trkpt lat="46.7533" lon="6.2548">
        <ele>903.78</ele>
        <time>2013-08-02T09:43:31Z</time>
      </trkpt>
      <trkpt lat="46.75303" lon="6.25462">
        <ele>905.22</ele>
        <time>2013-08-02T09:43:43Z</time>
      </trkpt>
      <trkpt lat="46.75267" lon="6.2544">
        <ele>906.66</ele>
        <time>2013-08-02T09:43:56Z</time>
      </trkpt>
      <trkpt lat="46.75222" lon="6.25409">
        <ele>908.58</ele>
        <time>2013-08-02T09:44:10Z</time>
      </trkpt>
      <trkpt lat="46.75173" lon="6.25402">
        <ele>910.51</ele>
        <time>2013-08-02T09:44:24Z</time>
      </trkpt>
      <trkpt lat="46.75133" lon="6.25418">
        <ele>911.47</ele>
        <time>2013-08-02T09:44:35Z</time>
      </trkpt>
      <trkpt lat="46.75092" lon="6.25453">
        <ele>912.43</ele>
        <time>2013-08-02T09:44:49Z</time>
      </trkpt>
      <trkpt lat="46.75051" lon="6.25475">
        <ele>913.87</ele>
        <time>2013-08-02T09:45:03Z</time>
      </trkpt>
      <trkpt lat="46.75001" lon="6.25462">
        <ele>915.79</ele>
        <time>2013-08-02T09:45:18Z</time>
      </trkpt>
      <trkpt lat="46.74972" lon="6.25451">
        <ele>916.27</ele>
        <time>2013-08-02T09:45:29Z</time>
      </trkpt>
      <trkpt lat="46.74966" lon="6.25442">
        <ele>916.27</ele>
        <time>2013-08-02T09:45:32Z</time>
      </trkpt>
      <trkpt lat="46.74955" lon="6.25452">
        <ele>918.68</ele>
        <time>2013-08-02T09:45:38Z</time>
      </trkpt>
      <trkpt lat="46.74955" lon="6.25455">
        <ele>919.16</ele>
        <time>2013-08-02T09:45:39Z</time>
      </trkpt>
      <trkpt lat="46.74956" lon="6.25459">
        <ele>919.16</ele>
        <time>2013-08-02T09:45:42Z</time>
      </trkpt>
      <trkpt lat="46.74957" lon="6.25467">
        <ele>919.16</ele>
        <time>2013-08-02T09:45:51Z</time>
      </trkpt>
      <trkpt lat="46.74957" lon="6.25462">
        <ele>919.16</ele>
        <time>2013-08-02T09:45:53Z</time>
      </trkpt>
      <trkpt lat="46.74954" lon="6.25469">
        <ele>919.16</ele>
        <time>2013-08-02T09:45:58Z</time>
      </trkpt>
      <trkpt lat="46.74961" lon="6.25503">
        <ele>918.68</ele>
        <time>2013-08-02T09:46:06Z</time>
      </trkpt>
      <trkpt lat="46.74968" lon="6.2555">
        <ele>919.16</ele>
        <time>2013-08-02T09:46:15Z</time>
      </trkpt>
      <trkpt lat="46.7497" lon="6.25543">
        <ele>919.16</ele>
        <time>2013-08-02T09:46:20Z</time>
      </trkpt>
      <trkpt lat="46.74963" lon="6.2551">
        <ele>919.16</ele>
        <time>2013-08-02T09:46:28Z</time>
      </trkpt>
      <trkpt lat="46.74958" lon="6.25503">
        <ele>919.16</ele>
        <time>2013-08-02T09:46:37Z</time>
      </trkpt>
      <trkpt lat="46.7496" lon="6.25506">
        <ele>919.16</ele>
        <time>2013-08-02T09:46:57Z</time>
      </trkpt>
      <trkpt lat="46.74962" lon="6.25514">
        <ele>919.16</ele>
        <time>2013-08-02T09:47:01Z</time>
      </trkpt>
      <trkpt lat="46.74978" lon="6.25589">
        <ele>918.68</ele>
        <time>2013-08-02T09:47:14Z</time>
      </trkpt>
      <trkpt lat="46.74982" lon="6.25616">
        <ele>920.12</ele>
        <time>2013-08-02T09:47:18Z</time>
      </trkpt>
      <trkpt lat="46.74982" lon="6.25629">
        <ele>920.12</ele>
        <time>2013-08-02T09:47:20Z</time>
      </trkpt>
      <trkpt lat="46.74981" lon="6.2569">
        <ele>921.56</ele>
        <time>2013-08-02T09:47:32Z</time>
      </trkpt>
      <trkpt lat="46.74972" lon="6.25742">
        <ele>922.52</ele>
        <time>2013-08-02T09:47:42Z</time>
      </trkpt>
      <trkpt lat="46.7496" lon="6.25773">
        <ele>923.48</ele>
        <time>2013-08-02T09:47:49Z</time>
      </trkpt>
      <trkpt lat="46.7495" lon="6.25791">
        <ele>923.48</ele>
        <time>2013-08-02T09:47:58Z</time>
      </trkpt>
      <trkpt lat="46.7495" lon="6.25791">
        <ele>923</ele>
        <time>2013-08-02T09:47:59Z</time>
      </trkpt>
      <trkpt lat="46.74966" lon="6.2582">
        <ele>921.08</ele>
        <time>2013-08-02T09:48:08Z</time>
      </trkpt>
      <trkpt lat="46.74971" lon="6.25821">
        <ele>920.6</ele>
        <time>2013-08-02T09:48:09Z</time>
      </trkpt>
      <trkpt lat="46.74984" lon="6.2582">
        <ele>919.16</ele>
        <time>2013-08-02T09:48:11Z</time>
      </trkpt>
      <trkpt lat="46.75006" lon="6.25834">
        <ele>918.2</ele>
        <time>2013-08-02T09:48:15Z</time>
      </trkpt>
      <trkpt lat="46.75015" lon="6.25858">
        <ele>919.16</ele>
        <time>2013-08-02T09:48:23Z</time>
      </trkpt>
      <trkpt lat="46.75015" lon="6.25858">
        <ele>919.16</ele>
        <time>2013-08-02T09:48:25Z</time>
      </trkpt>
      <trkpt lat="46.75018" lon="6.25864">
        <ele>919.16</ele>
        <time>2013-08-02T09:48:29Z</time>
      </trkpt>
      <trkpt lat="46.75028" lon="6.25889">
        <ele>916.27</ele>
        <time>2013-08-02T09:48:34Z</time>
      </trkpt>
      <trkpt lat="46.75032" lon="6.25894">
        <ele>915.79</ele>
        <time>2013-08-02T09:48:35Z</time>
      </trkpt>
      <trkpt lat="46.7506" lon="6.25909">
        <ele>911.95</ele>
        <time>2013-08-02T09:48:41Z</time>
      </trkpt>
      <trkpt lat="46.75081" lon="6.25889">
        <ele>907.62</ele>
        <time>2013-08-02T09:48:46Z</time>
      </trkpt>
      <trkpt lat="46.75089" lon="6.25881">
        <ele>905.7</ele>
        <time>2013-08-02T09:48:48Z</time>
      </trkpt>
      <trkpt lat="46.75101" lon="6.25852">
        <ele>902.33</ele>
        <time>2013-08-02T09:48:53Z</time>
      </trkpt>
      <trkpt lat="46.75099" lon="6.25829">
        <ele>898.97</ele>
        <time>2013-08-02T09:48:56Z</time>
      </trkpt>
      <trkpt lat="46.75102" lon="6.25778">
        <ele>895.12</ele>
        <time>2013-08-02T09:49:00Z</time>
      </trkpt>
      <trkpt lat="46.75103" lon="6.25752">
        <ele>894.16</ele>
        <time>2013-08-02T09:49:03Z</time>
      </trkpt>
      <trkpt lat="46.75111" lon="6.25729">
        <ele>892.72</ele>
        <time>2013-08-02T09:49:10Z</time>
      </trkpt>
      <trkpt lat="46.75116" lon="6.25726">
        <ele>893.2</ele>
        <time>2013-08-02T09:49:20Z</time>
      </trkpt>
      <trkpt lat="46.75117" lon="6.25725">
        <ele>892.72</ele>
        <time>2013-08-02T09:49:35Z</time>
      </trkpt>
      <trkpt lat="46.75118" lon="6.25726">
        <ele>892.24</ele>
        <time>2013-08-02T09:49:47Z</time>
      </trkpt>
      <trkpt lat="46.75119" lon="6.25725">
        <ele>891.76</ele>
        <time>2013-08-02T09:50:07Z</time>
      </trkpt>
      <trkpt lat="46.75119" lon="6.25725">
        <ele>891.76</ele>
        <time>2013-08-02T09:50:38Z</time>
      </trkpt>
      <trkpt lat="46.75119" lon="6.25725">
        <ele>891.76</ele>
        <time>2013-08-02T09:51:10Z</time>
      </trkpt>
      <trkpt lat="46.7512" lon="6.25724">
        <ele>891.76</ele>
        <time>2013-08-02T09:51:43Z</time>
      </trkpt>
      <trkpt lat="46.7512" lon="6.25723">
        <ele>891.28</ele>
        <time>2013-08-02T09:52:14Z</time>
      </trkpt>
      <trkpt lat="46.7512" lon="6.25723">
        <ele>892.24</ele>
        <time>2013-08-02T09:52:37Z</time>
      </trkpt>
      <trkpt lat="46.7512" lon="6.25723">
        <ele>892.24</ele>
        <time>2013-08-02T09:52:38Z</time>
      </trkpt>
      <trkpt lat="46.75126" lon="6.25718">
        <ele>893.2</ele>
        <time>2013-08-02T09:52:43Z</time>
      </trkpt>
      <trkpt lat="46.75133" lon="6.25714">
        <ele>896.57</ele>
        <time>2013-08-02T09:52:56Z</time>
      </trkpt>
      <trkpt lat="46.75141" lon="6.2571">
        <ele>897.53</ele>
        <time>2013-08-02T09:53:00Z</time>
      </trkpt>
      <trkpt lat="46.75159" lon="6.25708">
        <ele>900.41</ele>
        <time>2013-08-02T09:53:14Z</time>
      </trkpt>
      <trkpt lat="46.7517" lon="6.25706">
        <ele>902.33</ele>
        <time>2013-08-02T09:53:21Z</time>
      </trkpt>
      <trkpt lat="46.7519" lon="6.25712">
        <ele>904.26</ele>
        <time>2013-08-02T09:53:35Z</time>
      </trkpt>
      <trkpt lat="46.75202" lon="6.25726">
        <ele>906.66</ele>
        <time>2013-08-02T09:53:51Z</time>
      </trkpt>
      <trkpt lat="46.75207" lon="6.25736">
        <ele>908.58</ele>
        <time>2013-08-02T09:53:57Z</time>
      </trkpt>
      <trkpt lat="46.7522" lon="6.25748">
        <ele>910.03</ele>
        <time>2013-08-02T09:54:12Z</time>
      </trkpt>
      <trkpt lat="46.7522" lon="6.25748">
        <ele>910.51</ele>
        <time>2013-08-02T09:54:36Z</time>
      </trkpt>
      <trkpt lat="46.75221" lon="6.25751">
        <ele>910.51</ele>
        <time>2013-08-02T09:54:55Z</time>
      </trkpt>
      <trkpt lat="46.75236" lon="6.25767">
        <ele>911.95</ele>
        <time>2013-08-02T09:55:06Z</time>
      </trkpt>
      <trkpt lat="46.75238" lon="6.25771">
        <ele>912.91</ele>
        <time>2013-08-02T09:55:11Z</time>
      </trkpt>
      <trkpt lat="46.75265" lon="6.25798">
        <ele>914.35</ele>
        <time>2013-08-02T09:55:21Z</time>
      </trkpt>
      <trkpt lat="46.7529" lon="6.25821">
        <ele>915.79</ele>
        <time>2013-08-02T09:55:31Z</time>
      </trkpt>
      <trkpt lat="46.75308" lon="6.25837">
        <ele>917.72</ele>
        <time>2013-08-02T09:55:42Z</time>
      </trkpt>
      <trkpt lat="46.75334" lon="6.25859">
        <ele>915.31</ele>
        <time>2013-08-02T09:55:52Z</time>
      </trkpt>
      <trkpt lat="46.75352" lon="6.25872">
        <ele>914.35</ele>
        <time>2013-08-02T09:56:01Z</time>
      </trkpt>
      <trkpt lat="46.75359" lon="6.25878">
        <ele>914.35</ele>
        <time>2013-08-02T09:56:11Z</time>
      </trkpt>
      <trkpt lat="46.75361" lon="6.25878">
        <ele>914.83</ele>
        <time>2013-08-02T09:56:15Z</time>
      </trkpt>
      <trkpt lat="46.75378" lon="6.25888">
        <ele>913.39</ele>
        <time>2013-08-02T09:56:21Z</time>
      </trkpt>
      <trkpt lat="46.75389" lon="6.25898">
        <ele>913.39</ele>
        <time>2013-08-02T09:56:24Z</time>
      </trkpt>
      <trkpt lat="46.75398" lon="6.25911">
        <ele>912.91</ele>
        <time>2013-08-02T09:56:27Z</time>
      </trkpt>
      <trkpt lat="46.7541" lon="6.25926">
        <ele>910.51</ele>
        <time>2013-08-02T09:56:31Z</time>
      </trkpt>
      <trkpt lat="46.75433" lon="6.25935">
        <ele>907.14</ele>
        <time>2013-08-02T09:56:36Z</time>
      </trkpt>
      <trkpt lat="46.75444" lon="6.25938">
        <ele>906.66</ele>
        <time>2013-08-02T09:56:38Z</time>
      </trkpt>
      <trkpt lat="46.75459" lon="6.25944">
        <ele>906.18</ele>
        <time>2013-08-02T09:56:41Z</time>
      </trkpt>
      <trkpt lat="46.75485" lon="6.2595">
        <ele>903.78</ele>
        <time>2013-08-02T09:56:46Z</time>
      </trkpt>
      <trkpt lat="46.75498" lon="6.25948">
        <ele>900.89</ele>
        <time>2013-08-02T09:56:52Z</time>
      </trkpt>
      <trkpt lat="46.75496" lon="6.25941">
        <ele>900.41</ele>
        <time>2013-08-02T09:56:55Z</time>
      </trkpt>
      <trkpt lat="46.75507" lon="6.25909">
        <ele>898.49</ele>
        <time>2013-08-02T09:57:04Z</time>
      </trkpt>
      <trkpt lat="46.75536" lon="6.25911">
        <ele>897.05</ele>
        <time>2013-08-02T09:57:12Z</time>
      </trkpt>
      <trkpt lat="46.75552" lon="6.25937">
        <ele>895.12</ele>
        <time>2013-08-02T09:57:18Z</time>
      </trkpt>
      <trkpt lat="46.75561" lon="6.25955">
        <ele>894.64</ele>
        <time>2013-08-02T09:57:21Z</time>
      </trkpt>
      <trkpt lat="46.75585" lon="6.26004">
        <ele>893.68</ele>
        <time>2013-08-02T09:57:28Z</time>
      </trkpt>
      <trkpt lat="46.75587" lon="6.26">
        <ele>893.2</ele>
        <time>2013-08-02T09:57:34Z</time>
      </trkpt>
      <trkpt lat="46.75586" lon="6.25995">
        <ele>894.16</ele>
        <time>2013-08-02T09:57:45Z</time>
      </trkpt>
      <trkpt lat="46.75595" lon="6.26025">
        <ele>893.2</ele>
        <time>2013-08-02T09:57:54Z</time>
      </trkpt>
      <trkpt lat="46.75598" lon="6.26037">
        <ele>892.72</ele>
        <time>2013-08-02T09:57:56Z</time>
      </trkpt>
      <trkpt lat="46.75601" lon="6.26057">
        <ele>892.24</ele>
        <time>2013-08-02T09:57:59Z</time>
      </trkpt>
      <trkpt lat="46.75623" lon="6.26139">
        <ele>888.88</ele>
        <time>2013-08-02T09:58:09Z</time>
      </trkpt>
      <trkpt lat="46.7563" lon="6.26154">
        <ele>887.91</ele>
        <time>2013-08-02T09:58:11Z</time>
      </trkpt>
      <trkpt lat="46.75643" lon="6.26173">
        <ele>886.95</ele>
        <time>2013-08-02T09:58:14Z</time>
      </trkpt>
      <trkpt lat="46.75663" lon="6.26214">
        <ele>885.03</ele>
        <time>2013-08-02T09:58:19Z</time>
      </trkpt>
      <trkpt lat="46.7567" lon="6.26234">
        <ele>884.55</ele>
        <time>2013-08-02T09:58:21Z</time>
      </trkpt>
      <trkpt lat="46.75678" lon="6.26253">
        <ele>884.07</ele>
        <time>2013-08-02T09:58:23Z</time>
      </trkpt>
      <trkpt lat="46.75706" lon="6.26287">
        <ele>882.63</ele>
        <time>2013-08-02T09:58:28Z</time>
      </trkpt>
      <trkpt lat="46.7576" lon="6.26303">
        <ele>879.74</ele>
        <time>2013-08-02T09:58:35Z</time>
      </trkpt>
      <trkpt lat="46.75785" lon="6.2631">
        <ele>878.78</ele>
        <time>2013-08-02T09:58:38Z</time>
      </trkpt>
      <trkpt lat="46.75825" lon="6.26313">
        <ele>878.3</ele>
        <time>2013-08-02T09:58:46Z</time>
      </trkpt>
      <trkpt lat="46.75826" lon="6.26314">
        <ele>878.3</ele>
        <time>2013-08-02T09:58:56Z</time>
      </trkpt>
      <trkpt lat="46.75839" lon="6.26335">
        <ele>877.82</ele>
        <time>2013-08-02T09:59:05Z</time>
      </trkpt>
      <trkpt lat="46.75861" lon="6.2637">
        <ele>877.34</ele>
        <time>2013-08-02T09:59:14Z</time>
      </trkpt>
      <trkpt lat="46.75925" lon="6.26449">
        <ele>877.82</ele>
        <time>2013-08-02T09:59:32Z</time>
      </trkpt>
      <trkpt lat="46.7595" lon="6.26479">
        <ele>878.78</ele>
        <time>2013-08-02T09:59:39Z</time>
      </trkpt>
      <trkpt lat="46.75967" lon="6.265">
        <ele>879.26</ele>
        <time>2013-08-02T09:59:44Z</time>
      </trkpt>
      <trkpt lat="46.7598" lon="6.26515">
        <ele>880.22</ele>
        <time>2013-08-02T09:59:48Z</time>
      </trkpt>
      <trkpt lat="46.75993" lon="6.26531">
        <ele>881.19</ele>
        <time>2013-08-02T09:59:56Z</time>
      </trkpt>
      <trkpt lat="46.75999" lon="6.26538">
        <ele>881.19</ele>
        <time>2013-08-02T10:00:00Z</time>
      </trkpt>
      <trkpt lat="46.76022" lon="6.26565">
        <ele>881.19</ele>
        <time>2013-08-02T10:00:09Z</time>
      </trkpt>
      <trkpt lat="46.76062" lon="6.26607">
        <ele>882.63</ele>
        <time>2013-08-02T10:00:21Z</time>
      </trkpt>
      <trkpt lat="46.76134" lon="6.26671">
        <ele>883.11</ele>
        <time>2013-08-02T10:00:40Z</time>
      </trkpt>
      <trkpt lat="46.76153" lon="6.26687">
        <ele>883.59</ele>
        <time>2013-08-02T10:00:45Z</time>
      </trkpt>
      <trkpt lat="46.7623" lon="6.26731">
        <ele>883.11</ele>
        <time>2013-08-02T10:01:02Z</time>
      </trkpt>
      <trkpt lat="46.76314" lon="6.26791">
        <ele>881.67</ele>
        <time>2013-08-02T10:01:17Z</time>
      </trkpt>
      <trkpt lat="46.76389" lon="6.26878">
        <ele>882.63</ele>
        <time>2013-08-02T10:01:34Z</time>
      </trkpt>
      <trkpt lat="46.76395" lon="6.26886">
        <ele>883.11</ele>
        <time>2013-08-02T10:01:36Z</time>
      </trkpt>
      <trkpt lat="46.76398" lon="6.26882">
        <ele>883.11</ele>
        <time>2013-08-02T10:01:41Z</time>
      </trkpt>
      <trkpt lat="46.76406" lon="6.26897">
        <ele>883.59</ele>
        <time>2013-08-02T10:01:47Z</time>
      </trkpt>
      <trkpt lat="46.76454" lon="6.26954">
        <ele>885.03</ele>
        <time>2013-08-02T10:02:05Z</time>
      </trkpt>
      <trkpt lat="46.76461" lon="6.26966">
        <ele>885.03</ele>
        <time>2013-08-02T10:02:08Z</time>
      </trkpt>
      <trkpt lat="46.76489" lon="6.27013">
        <ele>885.99</ele>
        <time>2013-08-02T10:02:18Z</time>
      </trkpt>
      <trkpt lat="46.76517" lon="6.27097">
        <ele>885.99</ele>
        <time>2013-08-02T10:02:31Z</time>
      </trkpt>
      <trkpt lat="46.76532" lon="6.27257">
        <ele>883.59</ele>
        <time>2013-08-02T10:02:49Z</time>
      </trkpt>
      <trkpt lat="46.76546" lon="6.27384">
        <ele>880.71</ele>
        <time>2013-08-02T10:03:01Z</time>
      </trkpt>
      <trkpt lat="46.76554" lon="6.27415">
        <ele>880.22</ele>
        <time>2013-08-02T10:03:04Z</time>
      </trkpt>
      <trkpt lat="46.76604" lon="6.2751">
        <ele>878.78</ele>
        <time>2013-08-02T10:03:15Z</time>
      </trkpt>
      <trkpt lat="46.76671" lon="6.27574">
        <ele>877.34</ele>
        <time>2013-08-02T10:03:27Z</time>
      </trkpt>
      <trkpt lat="46.76773" lon="6.27648">
        <ele>874.94</ele>
        <time>2013-08-02T10:03:44Z</time>
      </trkpt>
      <trkpt lat="46.7688" lon="6.27726">
        <ele>871.57</ele>
        <time>2013-08-02T10:04:02Z</time>
      </trkpt>
      <trkpt lat="46.76948" lon="6.27794">
        <ele>869.17</ele>
        <time>2013-08-02T10:04:14Z</time>
      </trkpt>
      <trkpt lat="46.76986" lon="6.27852">
        <ele>867.73</ele>
        <time>2013-08-02T10:04:22Z</time>
      </trkpt>
      <trkpt lat="46.77004" lon="6.27882">
        <ele>868.21</ele>
        <time>2013-08-02T10:04:26Z</time>
      </trkpt>
      <trkpt lat="46.77016" lon="6.27902">
        <ele>866.29</ele>
        <time>2013-08-02T10:04:29Z</time>
      </trkpt>
      <trkpt lat="46.7702" lon="6.27908">
        <ele>867.25</ele>
        <time>2013-08-02T10:04:30Z</time>
      </trkpt>
      <trkpt lat="46.7709" lon="6.27943">
        <ele>865.8</ele>
        <time>2013-08-02T10:04:42Z</time>
      </trkpt>
      <trkpt lat="46.77127" lon="6.27954">
        <ele>865.8</ele>
        <time>2013-08-02T10:04:49Z</time>
      </trkpt>
      <trkpt lat="46.77141" lon="6.27955">
        <ele>866.29</ele>
        <time>2013-08-02T10:04:52Z</time>
      </trkpt>
      <trkpt lat="46.77153" lon="6.27953">
        <ele>866.29</ele>
        <time>2013-08-02T10:04:55Z</time>
      </trkpt>
      <trkpt lat="46.7717" lon="6.27952">
        <ele>866.29</ele>
        <time>2013-08-02T10:04:59Z</time>
      </trkpt>
      <trkpt lat="46.77208" lon="6.2795">
        <ele>868.21</ele>
        <time>2013-08-02T10:05:07Z</time>
      </trkpt>
      <trkpt lat="46.77228" lon="6.27954">
        <ele>866.77</ele>
        <time>2013-08-02T10:05:11Z</time>
      </trkpt>
      <trkpt lat="46.77248" lon="6.27971">
        <ele>867.25</ele>
        <time>2013-08-02T10:05:16Z</time>
      </trkpt>
      <trkpt lat="46.77295" lon="6.28046">
        <ele>867.73</ele>
        <time>2013-08-02T10:05:32Z</time>
      </trkpt>
      <trkpt lat="46.77299" lon="6.2805">
        <ele>867.73</ele>
        <time>2013-08-02T10:05:33Z</time>
      </trkpt>
      <trkpt lat="46.77316" lon="6.28062">
        <ele>867.25</ele>
        <time>2013-08-02T10:05:37Z</time>
      </trkpt>
      <trkpt lat="46.77329" lon="6.28067">
        <ele>867.73</ele>
        <time>2013-08-02T10:05:40Z</time>
      </trkpt>
      <trkpt lat="46.77338" lon="6.28069">
        <ele>867.73</ele>
        <time>2013-08-02T10:05:42Z</time>
      </trkpt>
      <trkpt lat="46.7735" lon="6.28068">
        <ele>867.25</ele>
        <time>2013-08-02T10:05:45Z</time>
      </trkpt>
      <trkpt lat="46.774" lon="6.28052">
        <ele>867.73</ele>
        <time>2013-08-02T10:05:58Z</time>
      </trkpt>
      <trkpt lat="46.77406" lon="6.28049">
        <ele>868.21</ele>
        <time>2013-08-02T10:06:00Z</time>
      </trkpt>
      <trkpt lat="46.77402" lon="6.28049">
        <ele>868.21</ele>
        <time>2013-08-02T10:06:05Z</time>
      </trkpt>
      <trkpt lat="46.77405" lon="6.28045">
        <ele>868.69</ele>
        <time>2013-08-02T10:06:13Z</time>
      </trkpt>
      <trkpt lat="46.77408" lon="6.28044">
        <ele>868.69</ele>
        <time>2013-08-02T10:06:26Z</time>
      </trkpt>
      <trkpt lat="46.77408" lon="6.28044">
        <ele>868.69</ele>
        <time>2013-08-02T10:06:47Z</time>
      </trkpt>
      <trkpt lat="46.77408" lon="6.28044">
        <ele>868.69</ele>
        <time>2013-08-02T10:07:17Z</time>
      </trkpt>
      <trkpt lat="46.77408" lon="6.28044">
        <ele>868.69</ele>
        <time>2013-08-02T10:07:33Z</time>
      </trkpt>
      <trkpt lat="46.774" lon="6.28042">
        <ele>867.73</ele>
        <time>2013-08-02T10:07:39Z</time>
      </trkpt>
      <trkpt lat="46.77346" lon="6.2806">
        <ele>866.77</ele>
        <time>2013-08-02T10:07:54Z</time>
      </trkpt>
      <trkpt lat="46.77332" lon="6.28058">
        <ele>867.25</ele>
        <time>2013-08-02T10:07:58Z</time>
      </trkpt>
      <trkpt lat="46.77327" lon="6.28069">
        <ele>868.21</ele>
        <time>2013-08-02T10:08:02Z</time>
      </trkpt>
      <trkpt lat="46.77349" lon="6.28108">
        <ele>869.65</ele>
        <time>2013-08-02T10:08:17Z</time>
      </trkpt>
      <trkpt lat="46.77364" lon="6.28135">
        <ele>870.61</ele>
        <time>2013-08-02T10:08:28Z</time>
      </trkpt>
      <trkpt lat="46.77383" lon="6.2817">
        <ele>872.53</ele>
        <time>2013-08-02T10:08:40Z</time>
      </trkpt>
      <trkpt lat="46.77406" lon="6.28211">
        <ele>874.94</ele>
        <time>2013-08-02T10:08:54Z</time>
      </trkpt>
      <trkpt lat="46.77432" lon="6.28253">
        <ele>877.34</ele>
        <time>2013-08-02T10:09:09Z</time>
      </trkpt>
      <trkpt lat="46.77455" lon="6.28292">
        <ele>879.74</ele>
        <time>2013-08-02T10:09:21Z</time>
      </trkpt>
      <trkpt lat="46.77481" lon="6.28332">
        <ele>882.63</ele>
        <time>2013-08-02T10:09:34Z</time>
      </trkpt>
      <trkpt lat="46.77493" lon="6.28336">
        <ele>882.63</ele>
        <time>2013-08-02T10:09:41Z</time>
      </trkpt>
      <trkpt lat="46.77498" lon="6.28348">
        <ele>883.11</ele>
        <time>2013-08-02T10:09:45Z</time>
      </trkpt>
      <trkpt lat="46.77541" lon="6.28395">
        <ele>885.51</ele>
        <time>2013-08-02T10:10:04Z</time>
      </trkpt>
      <trkpt lat="46.77572" lon="6.28436">
        <ele>887.43</ele>
        <time>2013-08-02T10:10:17Z</time>
      </trkpt>
      <trkpt lat="46.77585" lon="6.28446">
        <ele>888.4</ele>
        <time>2013-08-02T10:10:22Z</time>
      </trkpt>
      <trkpt lat="46.77591" lon="6.28443">
        <ele>888.4</ele>
        <time>2013-08-02T10:10:34Z</time>
      </trkpt>
      <trkpt lat="46.77591" lon="6.28443">
        <ele>887.91</ele>
        <time>2013-08-02T10:10:49Z</time>
      </trkpt>
      <trkpt lat="46.77594" lon="6.28449">
        <ele>887.91</ele>
        <time>2013-08-02T10:11:00Z</time>
      </trkpt>
      <trkpt lat="46.77596" lon="6.28452">
        <ele>887.91</ele>
        <time>2013-08-02T10:11:04Z</time>
      </trkpt>
      <trkpt lat="46.77607" lon="6.28478">
        <ele>888.88</ele>
        <time>2013-08-02T10:11:12Z</time>
      </trkpt>
      <trkpt lat="46.77625" lon="6.28543">
        <ele>889.84</ele>
        <time>2013-08-02T10:11:27Z</time>
      </trkpt>
      <trkpt lat="46.77627" lon="6.28598">
        <ele>892.72</ele>
        <time>2013-08-02T10:11:40Z</time>
      </trkpt>
      <trkpt lat="46.77629" lon="6.28647">
        <ele>895.12</ele>
        <time>2013-08-02T10:11:52Z</time>
      </trkpt>
      <trkpt lat="46.77646" lon="6.28695">
        <ele>897.05</ele>
        <time>2013-08-02T10:12:05Z</time>
      </trkpt>
      <trkpt lat="46.77683" lon="6.2871">
        <ele>898.97</ele>
        <time>2013-08-02T10:12:19Z</time>
      </trkpt>
      <trkpt lat="46.77709" lon="6.28707">
        <ele>900.41</ele>
        <time>2013-08-02T10:12:31Z</time>
      </trkpt>
      <trkpt lat="46.77709" lon="6.28707">
        <ele>900.41</ele>
        <time>2013-08-02T10:12:45Z</time>
      </trkpt>
      <trkpt lat="46.77709" lon="6.28707">
        <ele>901.37</ele>
        <time>2013-08-02T10:13:12Z</time>
      </trkpt>
      <trkpt lat="46.77709" lon="6.28707">
        <ele>900.89</ele>
        <time>2013-08-02T10:13:40Z</time>
      </trkpt>
      <trkpt lat="46.77709" lon="6.28707">
        <ele>900.89</ele>
        <time>2013-08-02T10:13:51Z</time>
      </trkpt>
      <trkpt lat="46.77715" lon="6.28689">
        <ele>898.97</ele>
        <time>2013-08-02T10:13:57Z</time>
      </trkpt>
      <trkpt lat="46.77725" lon="6.28682">
        <ele>898.01</ele>
        <time>2013-08-02T10:13:59Z</time>
      </trkpt>
      <trkpt lat="46.77735" lon="6.28672">
        <ele>897.05</ele>
        <time>2013-08-02T10:14:01Z</time>
      </trkpt>
      <trkpt lat="46.7776" lon="6.28654">
        <ele>895.61</ele>
        <time>2013-08-02T10:14:05Z</time>
      </trkpt>
      <trkpt lat="46.77775" lon="6.28647">
        <ele>894.64</ele>
        <time>2013-08-02T10:14:07Z</time>
      </trkpt>
      <trkpt lat="46.77815" lon="6.2863">
        <ele>891.28</ele>
        <time>2013-08-02T10:14:12Z</time>
      </trkpt>
      <trkpt lat="46.77841" lon="6.28618">
        <ele>889.84</ele>
        <time>2013-08-02T10:14:15Z</time>
      </trkpt>
      <trkpt lat="46.77858" lon="6.28608">
        <ele>887.43</ele>
        <time>2013-08-02T10:14:17Z</time>
      </trkpt>
      <trkpt lat="46.77921" lon="6.2862">
        <ele>887.43</ele>
        <time>2013-08-02T10:14:25Z</time>
      </trkpt>
      <trkpt lat="46.77936" lon="6.28608">
        <ele>888.4</ele>
        <time>2013-08-02T10:14:29Z</time>
      </trkpt>
      <trkpt lat="46.7794" lon="6.28578">
        <ele>886.95</ele>
        <time>2013-08-02T10:14:33Z</time>
      </trkpt>
      <trkpt lat="46.77954" lon="6.28529">
        <ele>885.99</ele>
        <time>2013-08-02T10:14:39Z</time>
      </trkpt>
      <trkpt lat="46.77968" lon="6.28496">
        <ele>884.55</ele>
        <time>2013-08-02T10:14:43Z</time>
      </trkpt>
      <trkpt lat="46.78035" lon="6.28413">
        <ele>881.67</ele>
        <time>2013-08-02T10:14:55Z</time>
      </trkpt>
      <trkpt lat="46.78064" lon="6.28418">
        <ele>880.22</ele>
        <time>2013-08-02T10:14:59Z</time>
      </trkpt>
      <trkpt lat="46.7811" lon="6.2845">
        <ele>884.07</ele>
        <time>2013-08-02T10:15:09Z</time>
      </trkpt>
      <trkpt lat="46.78144" lon="6.28492">
        <ele>886.47</ele>
        <time>2013-08-02T10:15:24Z</time>
      </trkpt>
      <trkpt lat="46.7817" lon="6.28528">
        <ele>887.91</ele>
        <time>2013-08-02T10:15:36Z</time>
      </trkpt>
      <trkpt lat="46.78215" lon="6.28558">
        <ele>888.88</ele>
        <time>2013-08-02T10:15:49Z</time>
      </trkpt>
      <trkpt lat="46.78231" lon="6.28571">
        <ele>888.4</ele>
        <time>2013-08-02T10:15:53Z</time>
      </trkpt>
      <trkpt lat="46.78258" lon="6.28596">
        <ele>884.55</ele>
        <time>2013-08-02T10:15:58Z</time>
      </trkpt>
      <trkpt lat="46.7827" lon="6.28608">
        <ele>884.07</ele>
        <time>2013-08-02T10:16:00Z</time>
      </trkpt>
      <trkpt lat="46.783" lon="6.28635">
        <ele>884.55</ele>
        <time>2013-08-02T10:16:08Z</time>
      </trkpt>
      <trkpt lat="46.78303" lon="6.28637">
        <ele>884.55</ele>
        <time>2013-08-02T10:16:09Z</time>
      </trkpt>
      <trkpt lat="46.78307" lon="6.2864">
        <ele>884.55</ele>
        <time>2013-08-02T10:16:11Z</time>
      </trkpt>
      <trkpt lat="46.78307" lon="6.28638">
        <ele>884.07</ele>
        <time>2013-08-02T10:16:23Z</time>
      </trkpt>
      <trkpt lat="46.78281" lon="6.28616">
        <ele>883.59</ele>
        <time>2013-08-02T10:16:37Z</time>
      </trkpt>
      <trkpt lat="46.78251" lon="6.28587">
        <ele>885.03</ele>
        <time>2013-08-02T10:16:49Z</time>
      </trkpt>
      <trkpt lat="46.78219" lon="6.28561">
        <ele>887.43</ele>
        <time>2013-08-02T10:17:00Z</time>
      </trkpt>
      <trkpt lat="46.78169" lon="6.28527">
        <ele>886.47</ele>
        <time>2013-08-02T10:17:15Z</time>
      </trkpt>
      <trkpt lat="46.78144" lon="6.28489">
        <ele>885.03</ele>
        <time>2013-08-02T10:17:25Z</time>
      </trkpt>
      <trkpt lat="46.78141" lon="6.28484">
        <ele>885.03</ele>
        <time>2013-08-02T10:17:26Z</time>
      </trkpt>
      <trkpt lat="46.78122" lon="6.28459">
        <ele>883.59</ele>
        <time>2013-08-02T10:17:31Z</time>
      </trkpt>
      <trkpt lat="46.78099" lon="6.28443">
        <ele>881.67</ele>
        <time>2013-08-02T10:17:35Z</time>
      </trkpt>
      <trkpt lat="46.78088" lon="6.28438">
        <ele>880.22</ele>
        <time>2013-08-02T10:17:37Z</time>
      </trkpt>
      <trkpt lat="46.78083" lon="6.28436">
        <ele>880.22</ele>
        <time>2013-08-02T10:17:38Z</time>
      </trkpt>
      <trkpt lat="46.7806" lon="6.28423">
        <ele>879.26</ele>
        <time>2013-08-02T10:17:43Z</time>
      </trkpt>
      <trkpt lat="46.78056" lon="6.28415">
        <ele>880.71</ele>
        <time>2013-08-02T10:17:46Z</time>
      </trkpt>
      <trkpt lat="46.78065" lon="6.28415">
        <ele>880.22</ele>
        <time>2013-08-02T10:17:49Z</time>
      </trkpt>
      <trkpt lat="46.78097" lon="6.28422">
        <ele>881.19</ele>
        <time>2013-08-02T10:17:59Z</time>
      </trkpt>
      <trkpt lat="46.78144" lon="6.28427">
        <ele>880.22</ele>
        <time>2013-08-02T10:18:11Z</time>
      </trkpt>
      <trkpt lat="46.78157" lon="6.28429">
        <ele>879.74</ele>
        <time>2013-08-02T10:18:14Z</time>
      </trkpt>
      <trkpt lat="46.78227" lon="6.28476">
        <ele>878.3</ele>
        <time>2013-08-02T10:18:28Z</time>
      </trkpt>
      <trkpt lat="46.78262" lon="6.28507">
        <ele>877.82</ele>
        <time>2013-08-02T10:18:35Z</time>
      </trkpt>
      <trkpt lat="46.78338" lon="6.28572">
        <ele>875.42</ele>
        <time>2013-08-02T10:18:48Z</time>
      </trkpt>
      <trkpt lat="46.78404" lon="6.2864">
        <ele>873.98</ele>
        <time>2013-08-02T10:19:01Z</time>
      </trkpt>
      <trkpt lat="46.78413" lon="6.28654">
        <ele>872.53</ele>
        <time>2013-08-02T10:19:03Z</time>
      </trkpt>
      <trkpt lat="46.7844" lon="6.28679">
        <ele>869.65</ele>
        <time>2013-08-02T10:19:07Z</time>
      </trkpt>
      <trkpt lat="46.78463" lon="6.28696">
        <ele>871.09</ele>
        <time>2013-08-02T10:19:13Z</time>
      </trkpt>
      <trkpt lat="46.78455" lon="6.28691">
        <ele>871.09</ele>
        <time>2013-08-02T10:19:17Z</time>
      </trkpt>
      <trkpt lat="46.78451" lon="6.28694">
        <ele>871.09</ele>
        <time>2013-08-02T10:19:20Z</time>
      </trkpt>
      <trkpt lat="46.78455" lon="6.28718">
        <ele>872.53</ele>
        <time>2013-08-02T10:19:30Z</time>
      </trkpt>
      <trkpt lat="46.78461" lon="6.2875">
        <ele>874.46</ele>
        <time>2013-08-02T10:19:41Z</time>
      </trkpt>
      <trkpt lat="46.78465" lon="6.28776">
        <ele>876.86</ele>
        <time>2013-08-02T10:19:52Z</time>
      </trkpt>
      <trkpt lat="46.78471" lon="6.28795">
        <ele>878.3</ele>
        <time>2013-08-02T10:19:59Z</time>
      </trkpt>
      <trkpt lat="46.7848" lon="6.28819">
        <ele>881.19</ele>
        <time>2013-08-02T10:20:11Z</time>
      </trkpt>
      <trkpt lat="46.78492" lon="6.28831">
        <ele>883.11</ele>
        <time>2013-08-02T10:20:19Z</time>
      </trkpt>
      <trkpt lat="46.78516" lon="6.28849">
        <ele>886.95</ele>
        <time>2013-08-02T10:20:33Z</time>
      </trkpt>
      <trkpt lat="46.78517" lon="6.2885">
        <ele>887.43</ele>
        <time>2013-08-02T10:20:34Z</time>
      </trkpt>
      <trkpt lat="46.78526" lon="6.28864">
        <ele>888.88</ele>
        <time>2013-08-02T10:20:43Z</time>
      </trkpt>
      <trkpt lat="46.7854" lon="6.28894">
        <ele>891.76</ele>
        <time>2013-08-02T10:20:57Z</time>
      </trkpt>
      <trkpt lat="46.78546" lon="6.28908">
        <ele>893.68</ele>
        <time>2013-08-02T10:21:07Z</time>
      </trkpt>
      <trkpt lat="46.7855" lon="6.2892">
        <ele>894.16</ele>
        <time>2013-08-02T10:21:11Z</time>
      </trkpt>
      <trkpt lat="46.78545" lon="6.28949">
        <ele>895.12</ele>
        <time>2013-08-02T10:21:20Z</time>
      </trkpt>
      <trkpt lat="46.78541" lon="6.28959">
        <ele>896.09</ele>
        <time>2013-08-02T10:21:31Z</time>
      </trkpt>
      <trkpt lat="46.78541" lon="6.28959">
        <ele>895.61</ele>
        <time>2013-08-02T10:21:53Z</time>
      </trkpt>
      <trkpt lat="46.78541" lon="6.2896">
        <ele>895.61</ele>
        <time>2013-08-02T10:22:23Z</time>
      </trkpt>
      <trkpt lat="46.78541" lon="6.28959">
        <ele>896.09</ele>
        <time>2013-08-02T10:22:54Z</time>
      </trkpt>
      <trkpt lat="46.78541" lon="6.28959">
        <ele>895.61</ele>
        <time>2013-08-02T10:23:32Z</time>
      </trkpt>
      <trkpt lat="46.78541" lon="6.28959">
        <ele>895.61</ele>
        <time>2013-08-02T10:23:48Z</time>
      </trkpt>
      <trkpt lat="46.78524" lon="6.28982">
        <ele>895.61</ele>
        <time>2013-08-02T10:36:22Z</time>
      </trkpt>
      <trkpt lat="46.78525" lon="6.28977">
        <ele>895.61</ele>
        <time>2013-08-02T10:36:23Z</time>
      </trkpt>
      <trkpt lat="46.78534" lon="6.2897">
        <ele>897.53</ele>
        <time>2013-08-02T10:36:41Z</time>
      </trkpt>
      <trkpt lat="46.78531" lon="6.28967">
        <ele>897.53</ele>
        <time>2013-08-02T10:37:07Z</time>
      </trkpt>
      <trkpt lat="46.78529" lon="6.28968">
        <ele>897.53</ele>
        <time>2013-08-02T10:37:11Z</time>
      </trkpt>
      <trkpt lat="46.78529" lon="6.28976">
        <ele>897.53</ele>
        <time>2013-08-02T10:37:16Z</time>
      </trkpt>
      <trkpt lat="46.78532" lon="6.29">
        <ele>898.49</ele>
        <time>2013-08-02T10:37:31Z</time>
      </trkpt>
      <trkpt lat="46.78528" lon="6.29006">
        <ele>898.01</ele>
        <time>2013-08-02T10:38:00Z</time>
      </trkpt>
      <trkpt lat="46.78529" lon="6.29006">
        <ele>898.01</ele>
        <time>2013-08-02T10:38:35Z</time>
      </trkpt>
      <trkpt lat="46.78528" lon="6.29007">
        <ele>898.49</ele>
        <time>2013-08-02T10:39:06Z</time>
      </trkpt>
      <trkpt lat="46.78528" lon="6.29006">
        <ele>898.01</ele>
        <time>2013-08-02T10:39:36Z</time>
      </trkpt>
      <trkpt lat="46.78528" lon="6.29007">
        <ele>898.01</ele>
        <time>2013-08-02T10:40:07Z</time>
      </trkpt>
      <trkpt lat="46.78523" lon="6.29026">
        <ele>898.97</ele>
        <time>2013-08-02T10:40:15Z</time>
      </trkpt>
      <trkpt lat="46.78525" lon="6.29052">
        <ele>900.41</ele>
        <time>2013-08-02T10:40:24Z</time>
      </trkpt>
      <trkpt lat="46.78526" lon="6.29065">
        <ele>900.89</ele>
        <time>2013-08-02T10:40:28Z</time>
      </trkpt>
      <trkpt lat="46.78526" lon="6.29076">
        <ele>901.37</ele>
        <time>2013-08-02T10:40:32Z</time>
      </trkpt>
      <trkpt lat="46.78526" lon="6.29096">
        <ele>902.33</ele>
        <time>2013-08-02T10:40:39Z</time>
      </trkpt>
      <trkpt lat="46.78533" lon="6.29132">
        <ele>903.78</ele>
        <time>2013-08-02T10:40:51Z</time>
      </trkpt>
      <trkpt lat="46.78545" lon="6.29166">
        <ele>905.22</ele>
        <time>2013-08-02T10:41:03Z</time>
      </trkpt>
      <trkpt lat="46.78545" lon="6.2919">
        <ele>907.14</ele>
        <time>2013-08-02T10:41:13Z</time>
      </trkpt>
      <trkpt lat="46.78541" lon="6.2921">
        <ele>908.1</ele>
        <time>2013-08-02T10:41:19Z</time>
      </trkpt>
      <trkpt lat="46.7854" lon="6.29213">
        <ele>908.58</ele>
        <time>2013-08-02T10:41:20Z</time>
      </trkpt>
      <trkpt lat="46.78524" lon="6.29238">
        <ele>910.99</ele>
        <time>2013-08-02T10:41:33Z</time>
      </trkpt>
      <trkpt lat="46.78506" lon="6.29269">
        <ele>913.87</ele>
        <time>2013-08-02T10:41:48Z</time>
      </trkpt>
      <trkpt lat="46.78496" lon="6.29306">
        <ele>915.79</ele>
        <time>2013-08-02T10:42:03Z</time>
      </trkpt>
      <trkpt lat="46.78489" lon="6.2934">
        <ele>917.24</ele>
        <time>2013-08-02T10:42:17Z</time>
      </trkpt>
      <trkpt lat="46.78489" lon="6.29348">
        <ele>917.72</ele>
        <time>2013-08-02T10:42:20Z</time>
      </trkpt>
      <trkpt lat="46.7848" lon="6.29392">
        <ele>919.16</ele>
        <time>2013-08-02T10:42:37Z</time>
      </trkpt>
      <trkpt lat="46.78472" lon="6.29439">
        <ele>921.56</ele>
        <time>2013-08-02T10:42:54Z</time>
      </trkpt>
      <trkpt lat="46.78463" lon="6.29496">
        <ele>924.45</ele>
        <time>2013-08-02T10:43:13Z</time>
      </trkpt>
      <trkpt lat="46.78455" lon="6.29542">
        <ele>926.37</ele>
        <time>2013-08-02T10:43:29Z</time>
      </trkpt>
      <trkpt lat="46.78449" lon="6.29583">
        <ele>929.73</ele>
        <time>2013-08-02T10:43:44Z</time>
      </trkpt>
      <trkpt lat="46.78443" lon="6.29625">
        <ele>931.17</ele>
        <time>2013-08-02T10:43:59Z</time>
      </trkpt>
      <trkpt lat="46.7844" lon="6.29641">
        <ele>932.62</ele>
        <time>2013-08-02T10:44:05Z</time>
      </trkpt>
      <trkpt lat="46.78434" lon="6.29686">
        <ele>935.02</ele>
        <time>2013-08-02T10:44:22Z</time>
      </trkpt>
      <trkpt lat="46.78427" lon="6.29734">
        <ele>935.98</ele>
        <time>2013-08-02T10:44:38Z</time>
      </trkpt>
      <trkpt lat="46.7842" lon="6.29773">
        <ele>937.9</ele>
        <time>2013-08-02T10:44:52Z</time>
      </trkpt>
      <trkpt lat="46.78407" lon="6.29817">
        <ele>939.83</ele>
        <time>2013-08-02T10:45:07Z</time>
      </trkpt>
      <trkpt lat="46.78403" lon="6.29842">
        <ele>941.75</ele>
        <time>2013-08-02T10:45:16Z</time>
      </trkpt>
      <trkpt lat="46.78393" lon="6.29885">
        <ele>943.67</ele>
        <time>2013-08-02T10:45:31Z</time>
      </trkpt>
      <trkpt lat="46.78387" lon="6.29928">
        <ele>945.59</ele>
        <time>2013-08-02T10:45:47Z</time>
      </trkpt>
      <trkpt lat="46.78377" lon="6.29983">
        <ele>948.48</ele>
        <time>2013-08-02T10:46:06Z</time>
      </trkpt>
      <trkpt lat="46.78371" lon="6.30022">
        <ele>950.88</ele>
        <time>2013-08-02T10:46:20Z</time>
      </trkpt>
      <trkpt lat="46.78366" lon="6.30059">
        <ele>952.32</ele>
        <time>2013-08-02T10:46:34Z</time>
      </trkpt>
      <trkpt lat="46.7836" lon="6.30087">
        <ele>954.25</ele>
        <time>2013-08-02T10:46:45Z</time>
      </trkpt>
      <trkpt lat="46.78351" lon="6.30111">
        <ele>955.69</ele>
        <time>2013-08-02T10:46:54Z</time>
      </trkpt>
      <trkpt lat="46.78321" lon="6.30147">
        <ele>957.13</ele>
        <time>2013-08-02T10:47:11Z</time>
      </trkpt>
      <trkpt lat="46.7829" lon="6.30175">
        <ele>958.57</ele>
        <time>2013-08-02T10:47:26Z</time>
      </trkpt>
      <trkpt lat="46.78263" lon="6.30209">
        <ele>960.49</ele>
        <time>2013-08-02T10:47:41Z</time>
      </trkpt>
      <trkpt lat="46.78257" lon="6.30263">
        <ele>961.46</ele>
        <time>2013-08-02T10:47:58Z</time>
      </trkpt>
      <trkpt lat="46.78257" lon="6.30315">
        <ele>963.86</ele>
        <time>2013-08-02T10:48:14Z</time>
      </trkpt>
      <trkpt lat="46.78259" lon="6.3036">
        <ele>966.74</ele>
        <time>2013-08-02T10:48:29Z</time>
      </trkpt>
      <trkpt lat="46.78258" lon="6.30403">
        <ele>968.18</ele>
        <time>2013-08-02T10:48:43Z</time>
      </trkpt>
      <trkpt lat="46.78262" lon="6.30448">
        <ele>970.11</ele>
        <time>2013-08-02T10:48:58Z</time>
      </trkpt>
      <trkpt lat="46.78266" lon="6.30503">
        <ele>970.59</ele>
        <time>2013-08-02T10:49:14Z</time>
      </trkpt>
      <trkpt lat="46.78264" lon="6.30565">
        <ele>972.03</ele>
        <time>2013-08-02T10:49:32Z</time>
      </trkpt>
      <trkpt lat="46.78263" lon="6.30574">
        <ele>972.51</ele>
        <time>2013-08-02T10:49:35Z</time>
      </trkpt>
      <trkpt lat="46.7826" lon="6.3058">
        <ele>973.47</ele>
        <time>2013-08-02T10:49:46Z</time>
      </trkpt>
      <trkpt lat="46.7826" lon="6.3058">
        <ele>973.47</ele>
        <time>2013-08-02T10:50:13Z</time>
      </trkpt>
      <trkpt lat="46.7826" lon="6.3058">
        <ele>972.99</ele>
        <time>2013-08-02T10:50:43Z</time>
      </trkpt>
      <trkpt lat="46.7826" lon="6.3058">
        <ele>972.99</ele>
        <time>2013-08-02T10:51:15Z</time>
      </trkpt>
      <trkpt lat="46.7826" lon="6.3058">
        <ele>972.99</ele>
        <time>2013-08-02T10:51:21Z</time>
      </trkpt>
      <trkpt lat="46.78232" lon="6.30592">
        <ele>972.03</ele>
        <time>2013-08-02T10:51:32Z</time>
      </trkpt>
      <trkpt lat="46.78211" lon="6.30627">
        <ele>968.67</ele>
        <time>2013-08-02T10:51:37Z</time>
      </trkpt>
      <trkpt lat="46.78199" lon="6.3065">
        <ele>968.18</ele>
        <time>2013-08-02T10:51:40Z</time>
      </trkpt>
      <trkpt lat="46.78155" lon="6.30697">
        <ele>970.59</ele>
        <time>2013-08-02T10:51:51Z</time>
      </trkpt>
      <trkpt lat="46.78141" lon="6.30718">
        <ele>971.07</ele>
        <time>2013-08-02T10:51:56Z</time>
      </trkpt>
      <trkpt lat="46.78136" lon="6.30728">
        <ele>971.07</ele>
        <time>2013-08-02T10:51:58Z</time>
      </trkpt>
      <trkpt lat="46.78109" lon="6.30788">
        <ele>972.99</ele>
        <time>2013-08-02T10:52:12Z</time>
      </trkpt>
      <trkpt lat="46.78069" lon="6.30802">
        <ele>974.43</ele>
        <time>2013-08-02T10:52:25Z</time>
      </trkpt>
      <trkpt lat="46.78017" lon="6.30812">
        <ele>973.95</ele>
        <time>2013-08-02T10:52:39Z</time>
      </trkpt>
      <trkpt lat="46.77991" lon="6.30813">
        <ele>972.03</ele>
        <time>2013-08-02T10:52:45Z</time>
      </trkpt>
      <trkpt lat="46.77956" lon="6.30815">
        <ele>971.07</ele>
        <time>2013-08-02T10:52:52Z</time>
      </trkpt>
      <trkpt lat="46.7792" lon="6.30847">
        <ele>970.59</ele>
        <time>2013-08-02T10:53:00Z</time>
      </trkpt>
      <trkpt lat="46.77906" lon="6.30862">
        <ele>970.59</ele>
        <time>2013-08-02T10:53:04Z</time>
      </trkpt>
      <trkpt lat="46.77894" lon="6.30873">
        <ele>969.15</ele>
        <time>2013-08-02T10:53:07Z</time>
      </trkpt>
      <trkpt lat="46.77871" lon="6.30877">
        <ele>966.74</ele>
        <time>2013-08-02T10:53:11Z</time>
      </trkpt>
      <trkpt lat="46.77851" lon="6.30874">
        <ele>965.78</ele>
        <time>2013-08-02T10:53:14Z</time>
      </trkpt>
      <trkpt lat="46.77827" lon="6.30871">
        <ele>964.34</ele>
        <time>2013-08-02T10:53:18Z</time>
      </trkpt>
      <trkpt lat="46.77802" lon="6.30857">
        <ele>963.86</ele>
        <time>2013-08-02T10:53:25Z</time>
      </trkpt>
      <trkpt lat="46.77789" lon="6.30847">
        <ele>962.42</ele>
        <time>2013-08-02T10:53:29Z</time>
      </trkpt>
      <trkpt lat="46.77757" lon="6.30837">
        <ele>964.82</ele>
        <time>2013-08-02T10:53:40Z</time>
      </trkpt>
      <trkpt lat="46.77727" lon="6.30828">
        <ele>967.7</ele>
        <time>2013-08-02T10:53:53Z</time>
      </trkpt>
      <trkpt lat="46.777" lon="6.30838">
        <ele>970.59</ele>
        <time>2013-08-02T10:54:08Z</time>
      </trkpt>
      <trkpt lat="46.77675" lon="6.30874">
        <ele>972.51</ele>
        <time>2013-08-02T10:54:25Z</time>
      </trkpt>
      <trkpt lat="46.77655" lon="6.30887">
        <ele>974.43</ele>
        <time>2013-08-02T10:54:37Z</time>
      </trkpt>
      <trkpt lat="46.77643" lon="6.30887">
        <ele>975.39</ele>
        <time>2013-08-02T10:54:44Z</time>
      </trkpt>
      <trkpt lat="46.77628" lon="6.309">
        <ele>976.36</ele>
        <time>2013-08-02T10:54:56Z</time>
      </trkpt>
      <trkpt lat="46.77619" lon="6.30907">
        <ele>977.32</ele>
        <time>2013-08-02T10:55:05Z</time>
      </trkpt>
      <trkpt lat="46.77615" lon="6.30908">
        <ele>977.8</ele>
        <time>2013-08-02T10:55:18Z</time>
      </trkpt>
      <trkpt lat="46.77611" lon="6.30913">
        <ele>977.8</ele>
        <time>2013-08-02T10:55:30Z</time>
      </trkpt>
      <trkpt lat="46.77606" lon="6.30919">
        <ele>977.32</ele>
        <time>2013-08-02T10:55:38Z</time>
      </trkpt>
      <trkpt lat="46.77599" lon="6.30927">
        <ele>977.8</ele>
        <time>2013-08-02T10:55:51Z</time>
      </trkpt>
      <trkpt lat="46.77597" lon="6.30929">
        <ele>977.8</ele>
        <time>2013-08-02T10:55:57Z</time>
      </trkpt>
      <trkpt lat="46.77589" lon="6.30941">
        <ele>977.8</ele>
        <time>2013-08-02T10:56:01Z</time>
      </trkpt>
      <trkpt lat="46.77575" lon="6.30972">
        <ele>977.8</ele>
        <time>2013-08-02T10:56:14Z</time>
      </trkpt>
      <trkpt lat="46.77561" lon="6.30992">
        <ele>979.24</ele>
        <time>2013-08-02T10:56:25Z</time>
      </trkpt>
      <trkpt lat="46.77561" lon="6.30993">
        <ele>979.24</ele>
        <time>2013-08-02T10:56:43Z</time>
      </trkpt>
      <trkpt lat="46.77551" lon="6.31003">
        <ele>980.68</ele>
        <time>2013-08-02T10:56:53Z</time>
      </trkpt>
      <trkpt lat="46.77545" lon="6.31008">
        <ele>981.16</ele>
        <time>2013-08-02T10:56:59Z</time>
      </trkpt>
      <trkpt lat="46.7754" lon="6.31013">
        <ele>982.12</ele>
        <time>2013-08-02T10:57:03Z</time>
      </trkpt>
      <trkpt lat="46.77525" lon="6.31021">
        <ele>982.6</ele>
        <time>2013-08-02T10:57:14Z</time>
      </trkpt>
      <trkpt lat="46.77515" lon="6.31026">
        <ele>983.57</ele>
        <time>2013-08-02T10:57:26Z</time>
      </trkpt>
      <trkpt lat="46.77502" lon="6.31026">
        <ele>985.49</ele>
        <time>2013-08-02T10:57:38Z</time>
      </trkpt>
      <trkpt lat="46.77497" lon="6.31021">
        <ele>986.93</ele>
        <time>2013-08-02T10:57:50Z</time>
      </trkpt>
      <trkpt lat="46.77495" lon="6.31014">
        <ele>986.93</ele>
        <time>2013-08-02T10:58:03Z</time>
      </trkpt>
      <trkpt lat="46.77491" lon="6.31011">
        <ele>986.93</ele>
        <time>2013-08-02T10:58:15Z</time>
      </trkpt>
      <trkpt lat="46.77487" lon="6.31001">
        <ele>987.89</ele>
        <time>2013-08-02T10:58:28Z</time>
      </trkpt>
      <trkpt lat="46.77487" lon="6.31001">
        <ele>987.41</ele>
        <time>2013-08-02T10:58:30Z</time>
      </trkpt>
      <trkpt lat="46.7749" lon="6.3098">
        <ele>988.37</ele>
        <time>2013-08-02T10:58:40Z</time>
      </trkpt>
      <trkpt lat="46.7749" lon="6.30966">
        <ele>989.33</ele>
        <time>2013-08-02T10:58:49Z</time>
      </trkpt>
      <trkpt lat="46.77487" lon="6.30949">
        <ele>990.3</ele>
        <time>2013-08-02T10:58:55Z</time>
      </trkpt>
      <trkpt lat="46.77479" lon="6.30913">
        <ele>990.3</ele>
        <time>2013-08-02T10:59:04Z</time>
      </trkpt>
      <trkpt lat="46.77461" lon="6.30889">
        <ele>992.22</ele>
        <time>2013-08-02T10:59:17Z</time>
      </trkpt>
      <trkpt lat="46.77442" lon="6.30877">
        <ele>994.14</ele>
        <time>2013-08-02T10:59:29Z</time>
      </trkpt>
      <trkpt lat="46.77441" lon="6.30879">
        <ele>994.14</ele>
        <time>2013-08-02T10:59:31Z</time>
      </trkpt>
      <trkpt lat="46.77437" lon="6.30893">
        <ele>994.62</ele>
        <time>2013-08-02T10:59:40Z</time>
      </trkpt>
      <trkpt lat="46.77437" lon="6.30907">
        <ele>994.62</ele>
        <time>2013-08-02T10:59:46Z</time>
      </trkpt>
      <trkpt lat="46.7743" lon="6.30926">
        <ele>995.1</ele>
        <time>2013-08-02T10:59:58Z</time>
      </trkpt>
      <trkpt lat="46.77429" lon="6.30931">
        <ele>995.58</ele>
        <time>2013-08-02T11:00:11Z</time>
      </trkpt>
      <trkpt lat="46.77429" lon="6.30931">
        <ele>995.1</ele>
        <time>2013-08-02T11:00:16Z</time>
      </trkpt>
      <trkpt lat="46.77428" lon="6.30937">
        <ele>995.1</ele>
        <time>2013-08-02T11:00:18Z</time>
      </trkpt>
      <trkpt lat="46.77426" lon="6.30945">
        <ele>995.58</ele>
        <time>2013-08-02T11:00:21Z</time>
      </trkpt>
      <trkpt lat="46.77417" lon="6.30983">
        <ele>996.54</ele>
        <time>2013-08-02T11:00:32Z</time>
      </trkpt>
      <trkpt lat="46.77416" lon="6.30991">
        <ele>996.54</ele>
        <time>2013-08-02T11:00:34Z</time>
      </trkpt>
      <trkpt lat="46.77411" lon="6.31015">
        <ele>996.54</ele>
        <time>2013-08-02T11:00:41Z</time>
      </trkpt>
      <trkpt lat="46.77407" lon="6.31029">
        <ele>997.02</ele>
        <time>2013-08-02T11:00:45Z</time>
      </trkpt>
      <trkpt lat="46.77401" lon="6.31058">
        <ele>997.02</ele>
        <time>2013-08-02T11:00:52Z</time>
      </trkpt>
      <trkpt lat="46.77394" lon="6.31076">
        <ele>997.51</ele>
        <time>2013-08-02T11:00:57Z</time>
      </trkpt>
      <trkpt lat="46.77374" lon="6.31133">
        <ele>997.99</ele>
        <time>2013-08-02T11:01:10Z</time>
      </trkpt>
      <trkpt lat="46.77361" lon="6.31197">
        <ele>998.95</ele>
        <time>2013-08-02T11:01:21Z</time>
      </trkpt>
      <trkpt lat="46.77364" lon="6.31257">
        <ele>999.43</ele>
        <time>2013-08-02T11:01:33Z</time>
      </trkpt>
      <trkpt lat="46.77365" lon="6.31302">
        <ele>1000.39</ele>
        <time>2013-08-02T11:01:44Z</time>
      </trkpt>
      <trkpt lat="46.77368" lon="6.31344">
        <ele>1000.39</ele>
        <time>2013-08-02T11:01:54Z</time>
      </trkpt>
      <trkpt lat="46.77361" lon="6.31379">
        <ele>1000.39</ele>
        <time>2013-08-02T11:02:02Z</time>
      </trkpt>
      <trkpt lat="46.77357" lon="6.31435">
        <ele>999.91</ele>
        <time>2013-08-02T11:02:11Z</time>
      </trkpt>
      <trkpt lat="46.77364" lon="6.31494">
        <ele>999.43</ele>
        <time>2013-08-02T11:02:21Z</time>
      </trkpt>
      <trkpt lat="46.77375" lon="6.31554">
        <ele>999.43</ele>
        <time>2013-08-02T11:02:31Z</time>
      </trkpt>
      <trkpt lat="46.77378" lon="6.31598">
        <ele>999.43</ele>
        <time>2013-08-02T11:02:40Z</time>
      </trkpt>
      <trkpt lat="46.77375" lon="6.31616">
        <ele>999.43</ele>
        <time>2013-08-02T11:02:43Z</time>
      </trkpt>
      <trkpt lat="46.77361" lon="6.31668">
        <ele>999.43</ele>
        <time>2013-08-02T11:02:52Z</time>
      </trkpt>
      <trkpt lat="46.77357" lon="6.31706">
        <ele>999.43</ele>
        <time>2013-08-02T11:03:00Z</time>
      </trkpt>
      <trkpt lat="46.77357" lon="6.31709">
        <ele>999.43</ele>
        <time>2013-08-02T11:03:01Z</time>
      </trkpt>
      <trkpt lat="46.77356" lon="6.31724">
        <ele>999.43</ele>
        <time>2013-08-02T11:03:08Z</time>
      </trkpt>
      <trkpt lat="46.77351" lon="6.31756">
        <ele>999.91</ele>
        <time>2013-08-02T11:03:20Z</time>
      </trkpt>
      <trkpt lat="46.77345" lon="6.31791">
        <ele>999.43</ele>
        <time>2013-08-02T11:03:31Z</time>
      </trkpt>
      <trkpt lat="46.77344" lon="6.31794">
        <ele>999.43</ele>
        <time>2013-08-02T11:03:37Z</time>
      </trkpt>
      <trkpt lat="46.77341" lon="6.31804">
        <ele>999.43</ele>
        <time>2013-08-02T11:03:40Z</time>
      </trkpt>
      <trkpt lat="46.77329" lon="6.31814">
        <ele>1000.87</ele>
        <time>2013-08-02T11:03:45Z</time>
      </trkpt>
      <trkpt lat="46.77323" lon="6.31821">
        <ele>1001.35</ele>
        <time>2013-08-02T11:03:48Z</time>
      </trkpt>
      <trkpt lat="46.77313" lon="6.31837">
        <ele>1001.83</ele>
        <time>2013-08-02T11:03:58Z</time>
      </trkpt>
      <trkpt lat="46.7731" lon="6.31841">
        <ele>1001.83</ele>
        <time>2013-08-02T11:04:08Z</time>
      </trkpt>
      <trkpt lat="46.77305" lon="6.31843">
        <ele>1002.79</ele>
        <time>2013-08-02T11:04:22Z</time>
      </trkpt>
      <trkpt lat="46.773" lon="6.31845">
        <ele>1002.79</ele>
        <time>2013-08-02T11:04:28Z</time>
      </trkpt>
      <trkpt lat="46.77293" lon="6.3185">
        <ele>1002.79</ele>
        <time>2013-08-02T11:04:31Z</time>
      </trkpt>
      <trkpt lat="46.77289" lon="6.31852">
        <ele>1003.75</ele>
        <time>2013-08-02T11:04:33Z</time>
      </trkpt>
      <trkpt lat="46.77272" lon="6.31864">
        <ele>1006.64</ele>
        <time>2013-08-02T11:04:41Z</time>
      </trkpt>
      <trkpt lat="46.77269" lon="6.31868">
        <ele>1006.64</ele>
        <time>2013-08-02T11:04:43Z</time>
      </trkpt>
      <trkpt lat="46.77244" lon="6.31884">
        <ele>1009.04</ele>
        <time>2013-08-02T11:04:55Z</time>
      </trkpt>
      <trkpt lat="46.77234" lon="6.31889">
        <ele>1009.52</ele>
        <time>2013-08-02T11:05:01Z</time>
      </trkpt>
      <trkpt lat="46.77224" lon="6.3189">
        <ele>1010</ele>
        <time>2013-08-02T11:05:07Z</time>
      </trkpt>
      <trkpt lat="46.77206" lon="6.31888">
        <ele>1013.37</ele>
        <time>2013-08-02T11:05:18Z</time>
      </trkpt>
      <trkpt lat="46.77186" lon="6.31876">
        <ele>1015.77</ele>
        <time>2013-08-02T11:05:31Z</time>
      </trkpt>
      <trkpt lat="46.77159" lon="6.31874">
        <ele>1016.73</ele>
        <time>2013-08-02T11:05:45Z</time>
      </trkpt>
      <trkpt lat="46.77157" lon="6.31869">
        <ele>1017.21</ele>
        <time>2013-08-02T11:05:58Z</time>
      </trkpt>
      <trkpt lat="46.77155" lon="6.31867">
        <ele>1017.69</ele>
        <time>2013-08-02T11:06:03Z</time>
      </trkpt>
      <trkpt lat="46.77147" lon="6.31861">
        <ele>1018.17</ele>
        <time>2013-08-02T11:06:20Z</time>
      </trkpt>
      <trkpt lat="46.77144" lon="6.31859">
        <ele>1018.17</ele>
        <time>2013-08-02T11:06:26Z</time>
      </trkpt>
      <trkpt lat="46.77138" lon="6.31853">
        <ele>1018.17</ele>
        <time>2013-08-02T11:06:30Z</time>
      </trkpt>
      <trkpt lat="46.7713" lon="6.31845">
        <ele>1019.62</ele>
        <time>2013-08-02T11:06:37Z</time>
      </trkpt>
      <trkpt lat="46.77111" lon="6.31835">
        <ele>1020.58</ele>
        <time>2013-08-02T11:06:49Z</time>
      </trkpt>
      <trkpt lat="46.77097" lon="6.31829">
        <ele>1020.58</ele>
        <time>2013-08-02T11:06:55Z</time>
      </trkpt>
      <trkpt lat="46.77073" lon="6.31819">
        <ele>1017.21</ele>
        <time>2013-08-02T11:07:05Z</time>
      </trkpt>
      <trkpt lat="46.77064" lon="6.31811">
        <ele>1015.29</ele>
        <time>2013-08-02T11:07:07Z</time>
      </trkpt>
      <trkpt lat="46.77051" lon="6.31807">
        <ele>1012.41</ele>
        <time>2013-08-02T11:07:10Z</time>
      </trkpt>
      <trkpt lat="46.77033" lon="6.31805">
        <ele>1010</ele>
        <time>2013-08-02T11:07:13Z</time>
      </trkpt>
      <trkpt lat="46.7702" lon="6.31786">
        <ele>1005.68</ele>
        <time>2013-08-02T11:07:18Z</time>
      </trkpt>
      <trkpt lat="46.77005" lon="6.31774">
        <ele>1002.31</ele>
        <time>2013-08-02T11:07:21Z</time>
      </trkpt>
      <trkpt lat="46.77" lon="6.31769">
        <ele>1000.87</ele>
        <time>2013-08-02T11:07:22Z</time>
      </trkpt>
      <trkpt lat="46.76986" lon="6.31756">
        <ele>998.47</ele>
        <time>2013-08-02T11:07:25Z</time>
      </trkpt>
      <trkpt lat="46.76969" lon="6.31772">
        <ele>995.58</ele>
        <time>2013-08-02T11:07:30Z</time>
      </trkpt>
      <trkpt lat="46.76963" lon="6.31782">
        <ele>994.14</ele>
        <time>2013-08-02T11:07:32Z</time>
      </trkpt>
      <trkpt lat="46.76945" lon="6.31808">
        <ele>990.78</ele>
        <time>2013-08-02T11:07:36Z</time>
      </trkpt>
      <trkpt lat="46.76929" lon="6.31847">
        <ele>989.81</ele>
        <time>2013-08-02T11:07:44Z</time>
      </trkpt>
      <trkpt lat="46.76929" lon="6.31845">
        <ele>989.33</ele>
        <time>2013-08-02T11:07:55Z</time>
      </trkpt>
      <trkpt lat="46.7693" lon="6.31854">
        <ele>989.81</ele>
        <time>2013-08-02T11:08:00Z</time>
      </trkpt>
      <trkpt lat="46.76914" lon="6.31877">
        <ele>986.45</ele>
        <time>2013-08-02T11:08:09Z</time>
      </trkpt>
      <trkpt lat="46.76895" lon="6.31913">
        <ele>984.53</ele>
        <time>2013-08-02T11:08:19Z</time>
      </trkpt>
      <trkpt lat="46.76891" lon="6.31917">
        <ele>984.05</ele>
        <time>2013-08-02T11:08:27Z</time>
      </trkpt>
      <trkpt lat="46.7689" lon="6.31918">
        <ele>984.05</ele>
        <time>2013-08-02T11:08:29Z</time>
      </trkpt>
      <trkpt lat="46.76869" lon="6.31931">
        <ele>981.16</ele>
        <time>2013-08-02T11:08:35Z</time>
      </trkpt>
      <trkpt lat="46.76851" lon="6.31935">
        <ele>976.84</ele>
        <time>2013-08-02T11:08:38Z</time>
      </trkpt>
      <trkpt lat="46.76822" lon="6.31936">
        <ele>972.03</ele>
        <time>2013-08-02T11:08:42Z</time>
      </trkpt>
      <trkpt lat="46.76801" lon="6.3195">
        <ele>970.11</ele>
        <time>2013-08-02T11:08:45Z</time>
      </trkpt>
      <trkpt lat="46.76751" lon="6.31991">
        <ele>967.22</ele>
        <time>2013-08-02T11:08:54Z</time>
      </trkpt>
      <trkpt lat="46.76712" lon="6.32017">
        <ele>964.34</ele>
        <time>2013-08-02T11:09:01Z</time>
      </trkpt>
      <trkpt lat="46.76695" lon="6.3203">
        <ele>962.42</ele>
        <time>2013-08-02T11:09:04Z</time>
      </trkpt>
      <trkpt lat="46.76643" lon="6.32077">
        <ele>959.05</ele>
        <time>2013-08-02T11:09:14Z</time>
      </trkpt>
      <trkpt lat="46.76628" lon="6.32093">
        <ele>959.53</ele>
        <time>2013-08-02T11:09:18Z</time>
      </trkpt>
      <trkpt lat="46.76604" lon="6.32112">
        <ele>957.13</ele>
        <time>2013-08-02T11:09:28Z</time>
      </trkpt>
      <trkpt lat="46.76602" lon="6.32112">
        <ele>957.61</ele>
        <time>2013-08-02T11:09:41Z</time>
      </trkpt>
      <trkpt lat="46.76599" lon="6.32108">
        <ele>958.09</ele>
        <time>2013-08-02T11:09:54Z</time>
      </trkpt>
      <trkpt lat="46.76599" lon="6.32108">
        <ele>958.57</ele>
        <time>2013-08-02T11:10:20Z</time>
      </trkpt>
      <trkpt lat="46.76599" lon="6.32108">
        <ele>957.61</ele>
        <time>2013-08-02T11:10:49Z</time>
      </trkpt>
      <trkpt lat="46.76599" lon="6.32108">
        <ele>958.09</ele>
        <time>2013-08-02T11:11:15Z</time>
      </trkpt>
      <trkpt lat="46.76599" lon="6.32108">
        <ele>958.09</ele>
        <time>2013-08-02T11:11:45Z</time>
      </trkpt>
      <trkpt lat="46.76599" lon="6.32108">
        <ele>958.09</ele>
        <time>2013-08-02T11:11:51Z</time>
      </trkpt>
      <trkpt lat="46.76601" lon="6.32111">
        <ele>957.61</ele>
        <time>2013-08-02T11:12:04Z</time>
      </trkpt>
      <trkpt lat="46.76601" lon="6.32111">
        <ele>958.09</ele>
        <time>2013-08-02T11:12:18Z</time>
      </trkpt>
      <trkpt lat="46.76621" lon="6.321">
        <ele>959.53</ele>
        <time>2013-08-02T11:12:29Z</time>
      </trkpt>
      <trkpt lat="46.76623" lon="6.32099">
        <ele>959.53</ele>
        <time>2013-08-02T11:12:30Z</time>
      </trkpt>
      <trkpt lat="46.76656" lon="6.32067">
        <ele>960.49</ele>
        <time>2013-08-02T11:12:44Z</time>
      </trkpt>
      <trkpt lat="46.76688" lon="6.32038">
        <ele>961.94</ele>
        <time>2013-08-02T11:12:58Z</time>
      </trkpt>
      <trkpt lat="46.76716" lon="6.32019">
        <ele>964.82</ele>
        <time>2013-08-02T11:13:12Z</time>
      </trkpt>
      <trkpt lat="46.76746" lon="6.31996">
        <ele>968.18</ele>
        <time>2013-08-02T11:13:27Z</time>
      </trkpt>
      <trkpt lat="46.76776" lon="6.31974">
        <ele>970.59</ele>
        <time>2013-08-02T11:13:42Z</time>
      </trkpt>
      <trkpt lat="46.76806" lon="6.31945">
        <ele>972.03</ele>
        <time>2013-08-02T11:13:56Z</time>
      </trkpt>
      <trkpt lat="46.76842" lon="6.31899">
        <ele>972.03</ele>
        <time>2013-08-02T11:14:10Z</time>
      </trkpt>
      <trkpt lat="46.76863" lon="6.31866">
        <ele>972.03</ele>
        <time>2013-08-02T11:14:17Z</time>
      </trkpt>
      <trkpt lat="46.76873" lon="6.31842">
        <ele>972.03</ele>
        <time>2013-08-02T11:14:21Z</time>
      </trkpt>
      <trkpt lat="46.76882" lon="6.31818">
        <ele>972.51</ele>
        <time>2013-08-02T11:14:25Z</time>
      </trkpt>
      <trkpt lat="46.76898" lon="6.31776">
        <ele>973.47</ele>
        <time>2013-08-02T11:14:38Z</time>
      </trkpt>
      <trkpt lat="46.76898" lon="6.31776">
        <ele>973.95</ele>
        <time>2013-08-02T11:14:53Z</time>
      </trkpt>
      <trkpt lat="46.76898" lon="6.31777">
        <ele>972.99</ele>
        <time>2013-08-02T11:15:03Z</time>
      </trkpt>
      <trkpt lat="46.76897" lon="6.3178">
        <ele>973.47</ele>
        <time>2013-08-02T11:15:16Z</time>
      </trkpt>
      <trkpt lat="46.76897" lon="6.31779">
        <ele>973.47</ele>
        <time>2013-08-02T11:15:41Z</time>
      </trkpt>
      <trkpt lat="46.76898" lon="6.31775">
        <ele>973.47</ele>
        <time>2013-08-02T11:15:59Z</time>
      </trkpt>
      <trkpt lat="46.76899" lon="6.31774">
        <ele>973.47</ele>
        <time>2013-08-02T11:16:15Z</time>
      </trkpt>
      <trkpt lat="46.76899" lon="6.31772">
        <ele>973.47</ele>
        <time>2013-08-02T11:16:17Z</time>
      </trkpt>
      <trkpt lat="46.76909" lon="6.31721">
        <ele>973.47</ele>
        <time>2013-08-02T11:16:29Z</time>
      </trkpt>
      <trkpt lat="46.76919" lon="6.31665">
        <ele>974.43</ele>
        <time>2013-08-02T11:16:40Z</time>
      </trkpt>
      <trkpt lat="46.76923" lon="6.31617">
        <ele>975.39</ele>
        <time>2013-08-02T11:16:50Z</time>
      </trkpt>
      <trkpt lat="46.76921" lon="6.31569">
        <ele>975.88</ele>
        <time>2013-08-02T11:17:01Z</time>
      </trkpt>
      <trkpt lat="46.76918" lon="6.3156">
        <ele>975.39</ele>
        <time>2013-08-02T11:17:03Z</time>
      </trkpt>
      <trkpt lat="46.76916" lon="6.31544">
        <ele>974.91</ele>
        <time>2013-08-02T11:17:06Z</time>
      </trkpt>
      <trkpt lat="46.76909" lon="6.3152">
        <ele>974.43</ele>
        <time>2013-08-02T11:17:10Z</time>
      </trkpt>
      <trkpt lat="46.76903" lon="6.31467">
        <ele>971.55</ele>
        <time>2013-08-02T11:17:16Z</time>
      </trkpt>
      <trkpt lat="46.76902" lon="6.31437">
        <ele>970.11</ele>
        <time>2013-08-02T11:17:19Z</time>
      </trkpt>
      <trkpt lat="46.76902" lon="6.3141">
        <ele>970.11</ele>
        <time>2013-08-02T11:17:22Z</time>
      </trkpt>
      <trkpt lat="46.76895" lon="6.31359">
        <ele>968.67</ele>
        <time>2013-08-02T11:17:28Z</time>
      </trkpt>
      <trkpt lat="46.76855" lon="6.31233">
        <ele>964.82</ele>
        <time>2013-08-02T11:17:42Z</time>
      </trkpt>
      <trkpt lat="46.76853" lon="6.31223">
        <ele>964.82</ele>
        <time>2013-08-02T11:17:43Z</time>
      </trkpt>
      <trkpt lat="46.76844" lon="6.3118">
        <ele>965.78</ele>
        <time>2013-08-02T11:17:48Z</time>
      </trkpt>
      <trkpt lat="46.76842" lon="6.31165">
        <ele>965.78</ele>
        <time>2013-08-02T11:17:50Z</time>
      </trkpt>
      <trkpt lat="46.76835" lon="6.31136">
        <ele>966.26</ele>
        <time>2013-08-02T11:17:54Z</time>
      </trkpt>
      <trkpt lat="46.76821" lon="6.31095">
        <ele>966.74</ele>
        <time>2013-08-02T11:18:00Z</time>
      </trkpt>
      <trkpt lat="46.76798" lon="6.31037">
        <ele>967.7</ele>
        <time>2013-08-02T11:18:11Z</time>
      </trkpt>
      <trkpt lat="46.76769" lon="6.30996">
        <ele>969.15</ele>
        <time>2013-08-02T11:18:20Z</time>
      </trkpt>
      <trkpt lat="46.76705" lon="6.30924">
        <ele>965.78</ele>
        <time>2013-08-02T11:18:35Z</time>
      </trkpt>
      <trkpt lat="46.7668" lon="6.30886">
        <ele>962.42</ele>
        <time>2013-08-02T11:18:40Z</time>
      </trkpt>
      <trkpt lat="46.76646" lon="6.30832">
        <ele>959.05</ele>
        <time>2013-08-02T11:18:46Z</time>
      </trkpt>
      <trkpt lat="46.7664" lon="6.30823">
        <ele>958.09</ele>
        <time>2013-08-02T11:18:47Z</time>
      </trkpt>
      <trkpt lat="46.76611" lon="6.30761">
        <ele>955.69</ele>
        <time>2013-08-02T11:18:53Z</time>
      </trkpt>
      <trkpt lat="46.76604" lon="6.30735">
        <ele>954.25</ele>
        <time>2013-08-02T11:18:55Z</time>
      </trkpt>
      <trkpt lat="46.76578" lon="6.30613">
        <ele>952.8</ele>
        <time>2013-08-02T11:19:07Z</time>
      </trkpt>
      <trkpt lat="46.76574" lon="6.30551">
        <ele>951.84</ele>
        <time>2013-08-02T11:19:14Z</time>
      </trkpt>
      <trkpt lat="46.76555" lon="6.30503">
        <ele>952.32</ele>
        <time>2013-08-02T11:19:20Z</time>
      </trkpt>
      <trkpt lat="46.76511" lon="6.30407">
        <ele>949.44</ele>
        <time>2013-08-02T11:19:32Z</time>
      </trkpt>
      <trkpt lat="46.76505" lon="6.30356">
        <ele>945.59</ele>
        <time>2013-08-02T11:19:36Z</time>
      </trkpt>
      <trkpt lat="46.76499" lon="6.30314">
        <ele>944.15</ele>
        <time>2013-08-02T11:19:39Z</time>
      </trkpt>
      <trkpt lat="46.76498" lon="6.30302">
        <ele>944.15</ele>
        <time>2013-08-02T11:19:40Z</time>
      </trkpt>
      <trkpt lat="46.76493" lon="6.30291">
        <ele>944.63</ele>
        <time>2013-08-02T11:19:46Z</time>
      </trkpt>
      <trkpt lat="46.76494" lon="6.30292">
        <ele>944.63</ele>
        <time>2013-08-02T11:19:49Z</time>
      </trkpt>
      <trkpt lat="46.76496" lon="6.30301">
        <ele>944.63</ele>
        <time>2013-08-02T11:19:59Z</time>
      </trkpt>
      <trkpt lat="46.76496" lon="6.30304">
        <ele>944.63</ele>
        <time>2013-08-02T11:20:16Z</time>
      </trkpt>
      <trkpt lat="46.76504" lon="6.30304">
        <ele>945.11</ele>
        <time>2013-08-02T11:20:23Z</time>
      </trkpt>
      <trkpt lat="46.76514" lon="6.30293">
        <ele>947.52</ele>
        <time>2013-08-02T11:20:30Z</time>
      </trkpt>
      <trkpt lat="46.76516" lon="6.30287">
        <ele>948.96</ele>
        <time>2013-08-02T11:20:33Z</time>
      </trkpt>
      <trkpt lat="46.76524" lon="6.30264">
        <ele>951.36</ele>
        <time>2013-08-02T11:20:46Z</time>
      </trkpt>
      <trkpt lat="46.76529" lon="6.30252">
        <ele>952.32</ele>
        <time>2013-08-02T11:20:55Z</time>
      </trkpt>
      <trkpt lat="46.76531" lon="6.30236">
        <ele>954.73</ele>
        <time>2013-08-02T11:21:05Z</time>
      </trkpt>
      <trkpt lat="46.76539" lon="6.30223">
        <ele>956.65</ele>
        <time>2013-08-02T11:21:13Z</time>
      </trkpt>
      <trkpt lat="46.76547" lon="6.30204">
        <ele>958.57</ele>
        <time>2013-08-02T11:21:21Z</time>
      </trkpt>
      <trkpt lat="46.76553" lon="6.30183">
        <ele>960.49</ele>
        <time>2013-08-02T11:21:34Z</time>
      </trkpt>
      <trkpt lat="46.76554" lon="6.30177">
        <ele>960.49</ele>
        <time>2013-08-02T11:21:39Z</time>
      </trkpt>
      <trkpt lat="46.7656" lon="6.30158">
        <ele>961.94</ele>
        <time>2013-08-02T11:21:51Z</time>
      </trkpt>
      <trkpt lat="46.76569" lon="6.30145">
        <ele>963.38</ele>
        <time>2013-08-02T11:22:00Z</time>
      </trkpt>
      <trkpt lat="46.7657" lon="6.30144">
        <ele>963.38</ele>
        <time>2013-08-02T11:22:01Z</time>
      </trkpt>
      <trkpt lat="46.76585" lon="6.30132">
        <ele>965.3</ele>
        <time>2013-08-02T11:22:13Z</time>
      </trkpt>
      <trkpt lat="46.7659" lon="6.30129">
        <ele>965.78</ele>
        <time>2013-08-02T11:22:17Z</time>
      </trkpt>
      <trkpt lat="46.76602" lon="6.30111">
        <ele>967.22</ele>
        <time>2013-08-02T11:22:30Z</time>
      </trkpt>
      <trkpt lat="46.76609" lon="6.30094">
        <ele>968.18</ele>
        <time>2013-08-02T11:22:39Z</time>
      </trkpt>
      <trkpt lat="46.76622" lon="6.30082">
        <ele>969.63</ele>
        <time>2013-08-02T11:22:50Z</time>
      </trkpt>
      <trkpt lat="46.76625" lon="6.3008">
        <ele>969.63</ele>
        <time>2013-08-02T11:22:52Z</time>
      </trkpt>
      <trkpt lat="46.76643" lon="6.30058">
        <ele>970.11</ele>
        <time>2013-08-02T11:23:05Z</time>
      </trkpt>
      <trkpt lat="46.76657" lon="6.30033">
        <ele>969.15</ele>
        <time>2013-08-02T11:23:13Z</time>
      </trkpt>
      <trkpt lat="46.76676" lon="6.30005">
        <ele>969.15</ele>
        <time>2013-08-02T11:23:22Z</time>
      </trkpt>
      <trkpt lat="46.76684" lon="6.29994">
        <ele>969.63</ele>
        <time>2013-08-02T11:23:27Z</time>
      </trkpt>
      <trkpt lat="46.76694" lon="6.29975">
        <ele>969.63</ele>
        <time>2013-08-02T11:23:34Z</time>
      </trkpt>
      <trkpt lat="46.76711" lon="6.29947">
        <ele>970.11</ele>
        <time>2013-08-02T11:23:44Z</time>
      </trkpt>
      <trkpt lat="46.76721" lon="6.29916">
        <ele>970.59</ele>
        <time>2013-08-02T11:23:54Z</time>
      </trkpt>
      <trkpt lat="46.7672" lon="6.29905">
        <ele>969.63</ele>
        <time>2013-08-02T11:23:58Z</time>
      </trkpt>
      <trkpt lat="46.76721" lon="6.29884">
        <ele>969.15</ele>
        <time>2013-08-02T11:24:04Z</time>
      </trkpt>
      <trkpt lat="46.76726" lon="6.29831">
        <ele>967.22</ele>
        <time>2013-08-02T11:24:14Z</time>
      </trkpt>
      <trkpt lat="46.76723" lon="6.29777">
        <ele>964.34</ele>
        <time>2013-08-02T11:24:23Z</time>
      </trkpt>
      <trkpt lat="46.76725" lon="6.29761">
        <ele>963.86</ele>
        <time>2013-08-02T11:24:25Z</time>
      </trkpt>
      <trkpt lat="46.76724" lon="6.2974">
        <ele>962.9</ele>
        <time>2013-08-02T11:24:28Z</time>
      </trkpt>
      <trkpt lat="46.76725" lon="6.29722">
        <ele>961.94</ele>
        <time>2013-08-02T11:24:30Z</time>
      </trkpt>
      <trkpt lat="46.76727" lon="6.29676">
        <ele>960.01</ele>
        <time>2013-08-02T11:24:34Z</time>
      </trkpt>
      <trkpt lat="46.76729" lon="6.29639">
        <ele>959.53</ele>
        <time>2013-08-02T11:24:38Z</time>
      </trkpt>
      <trkpt lat="46.76727" lon="6.2962">
        <ele>959.05</ele>
        <time>2013-08-02T11:24:41Z</time>
      </trkpt>
      <trkpt lat="46.76737" lon="6.29597">
        <ele>957.13</ele>
        <time>2013-08-02T11:24:48Z</time>
      </trkpt>
      <trkpt lat="46.76751" lon="6.29573">
        <ele>955.21</ele>
        <time>2013-08-02T11:24:55Z</time>
      </trkpt>
      <trkpt lat="46.76765" lon="6.29551">
        <ele>951.84</ele>
        <time>2013-08-02T11:25:00Z</time>
      </trkpt>
      <trkpt lat="46.76779" lon="6.29536">
        <ele>950.88</ele>
        <time>2013-08-02T11:25:02Z</time>
      </trkpt>
      <trkpt lat="46.76797" lon="6.29529">
        <ele>949.92</ele>
        <time>2013-08-02T11:25:04Z</time>
      </trkpt>
      <trkpt lat="46.76854" lon="6.2949">
        <ele>946.56</ele>
        <time>2013-08-02T11:25:11Z</time>
      </trkpt>
      <trkpt lat="46.76899" lon="6.2946">
        <ele>945.11</ele>
        <time>2013-08-02T11:25:16Z</time>
      </trkpt>
      <trkpt lat="46.76921" lon="6.29445">
        <ele>945.11</ele>
        <time>2013-08-02T11:25:20Z</time>
      </trkpt>
      <trkpt lat="46.76931" lon="6.29441">
        <ele>945.11</ele>
        <time>2013-08-02T11:25:22Z</time>
      </trkpt>
      <trkpt lat="46.76947" lon="6.29435">
        <ele>944.63</ele>
        <time>2013-08-02T11:25:25Z</time>
      </trkpt>
      <trkpt lat="46.76981" lon="6.2942">
        <ele>942.23</ele>
        <time>2013-08-02T11:25:31Z</time>
      </trkpt>
      <trkpt lat="46.77027" lon="6.29371">
        <ele>940.79</ele>
        <time>2013-08-02T11:25:39Z</time>
      </trkpt>
      <trkpt lat="46.77055" lon="6.29322">
        <ele>944.15</ele>
        <time>2013-08-02T11:25:50Z</time>
      </trkpt>
      <trkpt lat="46.7706" lon="6.29314">
        <ele>945.11</ele>
        <time>2013-08-02T11:25:52Z</time>
      </trkpt>
      <trkpt lat="46.77096" lon="6.29263">
        <ele>948.48</ele>
        <time>2013-08-02T11:26:07Z</time>
      </trkpt>
      <trkpt lat="46.77123" lon="6.29226">
        <ele>950.88</ele>
        <time>2013-08-02T11:26:20Z</time>
      </trkpt>
      <trkpt lat="46.77151" lon="6.29188">
        <ele>953.28</ele>
        <time>2013-08-02T11:26:33Z</time>
      </trkpt>
      <trkpt lat="46.77173" lon="6.29158">
        <ele>955.21</ele>
        <time>2013-08-02T11:26:45Z</time>
      </trkpt>
      <trkpt lat="46.77188" lon="6.29132">
        <ele>958.09</ele>
        <time>2013-08-02T11:26:56Z</time>
      </trkpt>
      <trkpt lat="46.77192" lon="6.29125">
        <ele>959.53</ele>
        <time>2013-08-02T11:27:00Z</time>
      </trkpt>
      <trkpt lat="46.77196" lon="6.29119">
        <ele>960.49</ele>
        <time>2013-08-02T11:27:03Z</time>
      </trkpt>
      <trkpt lat="46.77191" lon="6.29104">
        <ele>960.98</ele>
        <time>2013-08-02T11:27:14Z</time>
      </trkpt>
      <trkpt lat="46.77187" lon="6.29101">
        <ele>961.46</ele>
        <time>2013-08-02T11:27:16Z</time>
      </trkpt>
      <trkpt lat="46.77165" lon="6.2907">
        <ele>962.9</ele>
        <time>2013-08-02T11:27:31Z</time>
      </trkpt>
      <trkpt lat="46.77136" lon="6.29033">
        <ele>964.82</ele>
        <time>2013-08-02T11:27:48Z</time>
      </trkpt>
      <trkpt lat="46.77119" lon="6.2901">
        <ele>962.9</ele>
        <time>2013-08-02T11:27:57Z</time>
      </trkpt>
      <trkpt lat="46.77083" lon="6.28963">
        <ele>964.34</ele>
        <time>2013-08-02T11:28:14Z</time>
      </trkpt>
      <trkpt lat="46.77061" lon="6.28934">
        <ele>965.3</ele>
        <time>2013-08-02T11:28:26Z</time>
      </trkpt>
      <trkpt lat="46.77039" lon="6.28907">
        <ele>964.82</ele>
        <time>2013-08-02T11:28:38Z</time>
      </trkpt>
      <trkpt lat="46.77032" lon="6.28897">
        <ele>963.86</ele>
        <time>2013-08-02T11:28:41Z</time>
      </trkpt>
      <trkpt lat="46.77007" lon="6.28861">
        <ele>960.49</ele>
        <time>2013-08-02T11:28:48Z</time>
      </trkpt>
      <trkpt lat="46.7696" lon="6.28799">
        <ele>957.61</ele>
        <time>2013-08-02T11:28:59Z</time>
      </trkpt>
      <trkpt lat="46.769" lon="6.28722">
        <ele>953.77</ele>
        <time>2013-08-02T11:29:13Z</time>
      </trkpt>
      <trkpt lat="46.76878" lon="6.28698">
        <ele>953.77</ele>
        <time>2013-08-02T11:29:18Z</time>
      </trkpt>
      <trkpt lat="46.76868" lon="6.28671">
        <ele>951.84</ele>
        <time>2013-08-02T11:29:26Z</time>
      </trkpt>
      <trkpt lat="46.76864" lon="6.28668">
        <ele>950.4</ele>
        <time>2013-08-02T11:29:28Z</time>
      </trkpt>
      <trkpt lat="46.76851" lon="6.28651">
        <ele>949.92</ele>
        <time>2013-08-02T11:29:34Z</time>
      </trkpt>
      <trkpt lat="46.76845" lon="6.28642">
        <ele>948.96</ele>
        <time>2013-08-02T11:29:36Z</time>
      </trkpt>
      <trkpt lat="46.76822" lon="6.28613">
        <ele>944.63</ele>
        <time>2013-08-02T11:29:41Z</time>
      </trkpt>
      <trkpt lat="46.768" lon="6.28584">
        <ele>940.79</ele>
        <time>2013-08-02T11:29:45Z</time>
      </trkpt>
      <trkpt lat="46.76788" lon="6.28569">
        <ele>939.83</ele>
        <time>2013-08-02T11:29:47Z</time>
      </trkpt>
      <trkpt lat="46.76758" lon="6.28531">
        <ele>936.46</ele>
        <time>2013-08-02T11:29:52Z</time>
      </trkpt>
      <trkpt lat="46.76734" lon="6.28501">
        <ele>933.1</ele>
        <time>2013-08-02T11:29:56Z</time>
      </trkpt>
      <trkpt lat="46.76702" lon="6.28461">
        <ele>931.17</ele>
        <time>2013-08-02T11:30:02Z</time>
      </trkpt>
      <trkpt lat="46.76695" lon="6.28449">
        <ele>930.21</ele>
        <time>2013-08-02T11:30:04Z</time>
      </trkpt>
      <trkpt lat="46.767" lon="6.28427">
        <ele>929.25</ele>
        <time>2013-08-02T11:30:08Z</time>
      </trkpt>
      <trkpt lat="46.76716" lon="6.28408">
        <ele>928.29</ele>
        <time>2013-08-02T11:30:13Z</time>
      </trkpt>
      <trkpt lat="46.76745" lon="6.28351">
        <ele>924.45</ele>
        <time>2013-08-02T11:30:21Z</time>
      </trkpt>
      <trkpt lat="46.7675" lon="6.28343">
        <ele>923.96</ele>
        <time>2013-08-02T11:30:22Z</time>
      </trkpt>
      <trkpt lat="46.76779" lon="6.2832">
        <ele>923.48</ele>
        <time>2013-08-02T11:30:27Z</time>
      </trkpt>
      <trkpt lat="46.76825" lon="6.28317">
        <ele>917.72</ele>
        <time>2013-08-02T11:30:32Z</time>
      </trkpt>
      <trkpt lat="46.76845" lon="6.28317">
        <ele>916.27</ele>
        <time>2013-08-02T11:30:34Z</time>
      </trkpt>
      <trkpt lat="46.76945" lon="6.28354">
        <ele>913.39</ele>
        <time>2013-08-02T11:30:45Z</time>
      </trkpt>
      <trkpt lat="46.76984" lon="6.28359">
        <ele>910.51</ele>
        <time>2013-08-02T11:30:49Z</time>
      </trkpt>
      <trkpt lat="46.77052" lon="6.28375">
        <ele>909.06</ele>
        <time>2013-08-02T11:30:56Z</time>
      </trkpt>
      <trkpt lat="46.77101" lon="6.2836">
        <ele>904.26</ele>
        <time>2013-08-02T11:31:01Z</time>
      </trkpt>
      <trkpt lat="46.7713" lon="6.2834">
        <ele>902.82</ele>
        <time>2013-08-02T11:31:04Z</time>
      </trkpt>
      <trkpt lat="46.77173" lon="6.28325">
        <ele>900.41</ele>
        <time>2013-08-02T11:31:09Z</time>
      </trkpt>
      <trkpt lat="46.77201" lon="6.2831">
        <ele>896.57</ele>
        <time>2013-08-02T11:31:14Z</time>
      </trkpt>
      <trkpt lat="46.77222" lon="6.28298">
        <ele>893.2</ele>
        <time>2013-08-02T11:31:17Z</time>
      </trkpt>
      <trkpt lat="46.77244" lon="6.28282">
        <ele>889.36</ele>
        <time>2013-08-02T11:31:20Z</time>
      </trkpt>
      <trkpt lat="46.77259" lon="6.28268">
        <ele>887.43</ele>
        <time>2013-08-02T11:31:22Z</time>
      </trkpt>
      <trkpt lat="46.77284" lon="6.28237">
        <ele>882.63</ele>
        <time>2013-08-02T11:31:26Z</time>
      </trkpt>
      <trkpt lat="46.77302" lon="6.28198">
        <ele>879.74</ele>
        <time>2013-08-02T11:31:30Z</time>
      </trkpt>
      <trkpt lat="46.77316" lon="6.28172">
        <ele>877.82</ele>
        <time>2013-08-02T11:31:33Z</time>
      </trkpt>
      <trkpt lat="46.77346" lon="6.28159">
        <ele>875.9</ele>
        <time>2013-08-02T11:31:37Z</time>
      </trkpt>
      <trkpt lat="46.77362" lon="6.28158">
        <ele>874.46</ele>
        <time>2013-08-02T11:31:39Z</time>
      </trkpt>
      <trkpt lat="46.77381" lon="6.28144">
        <ele>875.42</ele>
        <time>2013-08-02T11:31:46Z</time>
      </trkpt>
      <trkpt lat="46.7736" lon="6.28121">
        <ele>873.01</ele>
        <time>2013-08-02T11:31:55Z</time>
      </trkpt>
      <trkpt lat="46.77323" lon="6.28086">
        <ele>870.61</ele>
        <time>2013-08-02T11:32:04Z</time>
      </trkpt>
      <trkpt lat="46.77315" lon="6.28064">
        <ele>870.61</ele>
        <time>2013-08-02T11:32:08Z</time>
      </trkpt>
      <trkpt lat="46.77305" lon="6.28047">
        <ele>870.13</ele>
        <time>2013-08-02T11:32:11Z</time>
      </trkpt>
      <trkpt lat="46.77261" lon="6.2798">
        <ele>870.61</ele>
        <time>2013-08-02T11:32:26Z</time>
      </trkpt>
      <trkpt lat="46.77234" lon="6.2795">
        <ele>869.17</ele>
        <time>2013-08-02T11:32:35Z</time>
      </trkpt>
      <trkpt lat="46.77189" lon="6.27944">
        <ele>868.69</ele>
        <time>2013-08-02T11:32:45Z</time>
      </trkpt>
      <trkpt lat="46.77123" lon="6.27945">
        <ele>868.69</ele>
        <time>2013-08-02T11:32:59Z</time>
      </trkpt>
      <trkpt lat="46.77056" lon="6.27923">
        <ele>869.65</ele>
        <time>2013-08-02T11:33:14Z</time>
      </trkpt>
      <trkpt lat="46.77008" lon="6.27889">
        <ele>871.09</ele>
        <time>2013-08-02T11:33:28Z</time>
      </trkpt>
      <trkpt lat="46.76987" lon="6.27843">
        <ele>871.57</ele>
        <time>2013-08-02T11:33:39Z</time>
      </trkpt>
      <trkpt lat="46.7695" lon="6.27786">
        <ele>872.53</ele>
        <time>2013-08-02T11:33:54Z</time>
      </trkpt>
      <trkpt lat="46.76898" lon="6.27729">
        <ele>874.94</ele>
        <time>2013-08-02T11:34:12Z</time>
      </trkpt>
      <trkpt lat="46.76851" lon="6.27693">
        <ele>876.86</ele>
        <time>2013-08-02T11:34:27Z</time>
      </trkpt>
      <trkpt lat="46.76794" lon="6.27652">
        <ele>877.82</ele>
        <time>2013-08-02T11:34:45Z</time>
      </trkpt>
      <trkpt lat="46.76745" lon="6.27616">
        <ele>878.3</ele>
        <time>2013-08-02T11:35:00Z</time>
      </trkpt>
      <trkpt lat="46.76685" lon="6.27574">
        <ele>879.74</ele>
        <time>2013-08-02T11:35:18Z</time>
      </trkpt>
      <trkpt lat="46.76625" lon="6.27523">
        <ele>881.19</ele>
        <time>2013-08-02T11:35:36Z</time>
      </trkpt>
      <trkpt lat="46.76574" lon="6.27446">
        <ele>882.63</ele>
        <time>2013-08-02T11:35:54Z</time>
      </trkpt>
      <trkpt lat="46.76546" lon="6.27358">
        <ele>883.59</ele>
        <time>2013-08-02T11:36:10Z</time>
      </trkpt>
      <trkpt lat="46.76538" lon="6.27309">
        <ele>885.51</ele>
        <time>2013-08-02T11:36:18Z</time>
      </trkpt>
      <trkpt lat="46.76536" lon="6.27206">
        <ele>887.91</ele>
        <time>2013-08-02T11:36:36Z</time>
      </trkpt>
      <trkpt lat="46.76535" lon="6.27194">
        <ele>887.91</ele>
        <time>2013-08-02T11:36:38Z</time>
      </trkpt>
      <trkpt lat="46.76533" lon="6.27164">
        <ele>887.91</ele>
        <time>2013-08-02T11:36:43Z</time>
      </trkpt>
      <trkpt lat="46.76516" lon="6.27065">
        <ele>886.95</ele>
        <time>2013-08-02T11:37:01Z</time>
      </trkpt>
      <trkpt lat="46.76504" lon="6.27029">
        <ele>887.91</ele>
        <time>2013-08-02T11:37:08Z</time>
      </trkpt>
      <trkpt lat="46.76492" lon="6.27002">
        <ele>887.43</ele>
        <time>2013-08-02T11:37:13Z</time>
      </trkpt>
      <trkpt lat="46.76419" lon="6.26903">
        <ele>885.03</ele>
        <time>2013-08-02T11:37:33Z</time>
      </trkpt>
      <trkpt lat="46.7633" lon="6.26802">
        <ele>883.59</ele>
        <time>2013-08-02T11:37:53Z</time>
      </trkpt>
      <trkpt lat="46.76259" lon="6.26738">
        <ele>884.55</ele>
        <time>2013-08-02T11:38:09Z</time>
      </trkpt>
      <trkpt lat="46.76186" lon="6.267">
        <ele>884.55</ele>
        <time>2013-08-02T11:38:27Z</time>
      </trkpt>
      <trkpt lat="46.76113" lon="6.26642">
        <ele>883.59</ele>
        <time>2013-08-02T11:38:45Z</time>
      </trkpt>
      <trkpt lat="46.76035" lon="6.26571">
        <ele>882.63</ele>
        <time>2013-08-02T11:39:03Z</time>
      </trkpt>
      <trkpt lat="46.75971" lon="6.26496">
        <ele>879.74</ele>
        <time>2013-08-02T11:39:17Z</time>
      </trkpt>
      <trkpt lat="46.75948" lon="6.26466">
        <ele>878.78</ele>
        <time>2013-08-02T11:39:22Z</time>
      </trkpt>
      <trkpt lat="46.75862" lon="6.26361">
        <ele>877.34</ele>
        <time>2013-08-02T11:39:40Z</time>
      </trkpt>
      <trkpt lat="46.75819" lon="6.26281">
        <ele>878.3</ele>
        <time>2013-08-02T11:39:54Z</time>
      </trkpt>
      <trkpt lat="46.75805" lon="6.26243">
        <ele>879.74</ele>
        <time>2013-08-02T11:40:04Z</time>
      </trkpt>
      <trkpt lat="46.75803" lon="6.26239">
        <ele>879.74</ele>
        <time>2013-08-02T11:40:14Z</time>
      </trkpt>
      <trkpt lat="46.75802" lon="6.26238">
        <ele>880.22</ele>
        <time>2013-08-02T11:40:27Z</time>
      </trkpt>
      <trkpt lat="46.75802" lon="6.26238">
        <ele>880.22</ele>
        <time>2013-08-02T11:40:48Z</time>
      </trkpt>
      <trkpt lat="46.75802" lon="6.26238">
        <ele>879.74</ele>
        <time>2013-08-02T11:41:12Z</time>
      </trkpt>
      <trkpt lat="46.75802" lon="6.26238">
        <ele>879.74</ele>
        <time>2013-08-02T11:41:35Z</time>
      </trkpt>
      <trkpt lat="46.75802" lon="6.26238">
        <ele>879.26</ele>
        <time>2013-08-02T11:41:59Z</time>
      </trkpt>
      <trkpt lat="46.75802" lon="6.26238">
        <ele>879.74</ele>
        <time>2013-08-02T11:42:21Z</time>
      </trkpt>
      <trkpt lat="46.75802" lon="6.26236">
        <ele>879.26</ele>
        <time>2013-08-02T11:42:35Z</time>
      </trkpt>
      <trkpt lat="46.75806" lon="6.26239">
        <ele>879.26</ele>
        <time>2013-08-02T11:42:44Z</time>
      </trkpt>
      <trkpt lat="46.75803" lon="6.26213">
        <ele>880.71</ele>
        <time>2013-08-02T11:42:52Z</time>
      </trkpt>
      <trkpt lat="46.75801" lon="6.26201">
        <ele>882.63</ele>
        <time>2013-08-02T11:43:02Z</time>
      </trkpt>
      <trkpt lat="46.75801" lon="6.26185">
        <ele>883.59</ele>
        <time>2013-08-02T11:43:08Z</time>
      </trkpt>
      <trkpt lat="46.75799" lon="6.26182">
        <ele>884.07</ele>
        <time>2013-08-02T11:43:10Z</time>
      </trkpt>
      <trkpt lat="46.75796" lon="6.26171">
        <ele>884.55</ele>
        <time>2013-08-02T11:43:21Z</time>
      </trkpt>
      <trkpt lat="46.75794" lon="6.26157">
        <ele>885.03</ele>
        <time>2013-08-02T11:43:31Z</time>
      </trkpt>
      <trkpt lat="46.75791" lon="6.26147">
        <ele>885.99</ele>
        <time>2013-08-02T11:43:36Z</time>
      </trkpt>
      <trkpt lat="46.7579" lon="6.2613">
        <ele>886.47</ele>
        <time>2013-08-02T11:43:42Z</time>
      </trkpt>
      <trkpt lat="46.7579" lon="6.26123">
        <ele>886.95</ele>
        <time>2013-08-02T11:43:45Z</time>
      </trkpt>
      <trkpt lat="46.75789" lon="6.2611">
        <ele>887.43</ele>
        <time>2013-08-02T11:43:50Z</time>
      </trkpt>
      <trkpt lat="46.75787" lon="6.26101">
        <ele>888.88</ele>
        <time>2013-08-02T11:43:56Z</time>
      </trkpt>
      <trkpt lat="46.75785" lon="6.26094">
        <ele>890.32</ele>
        <time>2013-08-02T11:44:00Z</time>
      </trkpt>
      <trkpt lat="46.75783" lon="6.26065">
        <ele>892.72</ele>
        <time>2013-08-02T11:44:13Z</time>
      </trkpt>
      <trkpt lat="46.75782" lon="6.26058">
        <ele>892.72</ele>
        <time>2013-08-02T11:44:17Z</time>
      </trkpt>
      <trkpt lat="46.75781" lon="6.26039">
        <ele>894.16</ele>
        <time>2013-08-02T11:44:27Z</time>
      </trkpt>
      <trkpt lat="46.75777" lon="6.26009">
        <ele>896.09</ele>
        <time>2013-08-02T11:44:40Z</time>
      </trkpt>
      <trkpt lat="46.75776" lon="6.26001">
        <ele>896.09</ele>
        <time>2013-08-02T11:44:49Z</time>
      </trkpt>
      <trkpt lat="46.75773" lon="6.25994">
        <ele>896.57</ele>
        <time>2013-08-02T11:44:53Z</time>
      </trkpt>
      <trkpt lat="46.75765" lon="6.25983">
        <ele>897.53</ele>
        <time>2013-08-02T11:44:59Z</time>
      </trkpt>
      <trkpt lat="46.75763" lon="6.25962">
        <ele>899.93</ele>
        <time>2013-08-02T11:45:06Z</time>
      </trkpt>
      <trkpt lat="46.75759" lon="6.25954">
        <ele>900.41</ele>
        <time>2013-08-02T11:45:10Z</time>
      </trkpt>
      <trkpt lat="46.75748" lon="6.25914">
        <ele>899.93</ele>
        <time>2013-08-02T11:45:20Z</time>
      </trkpt>
      <trkpt lat="46.75739" lon="6.25872">
        <ele>899.45</ele>
        <time>2013-08-02T11:45:30Z</time>
      </trkpt>
      <trkpt lat="46.75734" lon="6.25829">
        <ele>901.37</ele>
        <time>2013-08-02T11:45:40Z</time>
      </trkpt>
      <trkpt lat="46.75733" lon="6.2582">
        <ele>902.33</ele>
        <time>2013-08-02T11:45:42Z</time>
      </trkpt>
      <trkpt lat="46.75729" lon="6.25778">
        <ele>902.82</ele>
        <time>2013-08-02T11:45:53Z</time>
      </trkpt>
      <trkpt lat="46.7572" lon="6.25747">
        <ele>901.37</ele>
        <time>2013-08-02T11:46:02Z</time>
      </trkpt>
      <trkpt lat="46.75714" lon="6.25735">
        <ele>898.49</ele>
        <time>2013-08-02T11:46:05Z</time>
      </trkpt>
      <trkpt lat="46.75706" lon="6.25705">
        <ele>892.72</ele>
        <time>2013-08-02T11:46:09Z</time>
      </trkpt>
      <trkpt lat="46.75693" lon="6.25678">
        <ele>890.32</ele>
        <time>2013-08-02T11:46:13Z</time>
      </trkpt>
      <trkpt lat="46.75675" lon="6.25651">
        <ele>890.32</ele>
        <time>2013-08-02T11:46:20Z</time>
      </trkpt>
      <trkpt lat="46.75693" lon="6.25619">
        <ele>889.36</ele>
        <time>2013-08-02T11:46:32Z</time>
      </trkpt>
      <trkpt lat="46.75711" lon="6.25581">
        <ele>888.4</ele>
        <time>2013-08-02T11:46:42Z</time>
      </trkpt>
      <trkpt lat="46.75718" lon="6.25543">
        <ele>888.4</ele>
        <time>2013-08-02T11:46:54Z</time>
      </trkpt>
      <trkpt lat="46.75721" lon="6.25519">
        <ele>889.36</ele>
        <time>2013-08-02T11:47:01Z</time>
      </trkpt>
      <trkpt lat="46.75735" lon="6.25474">
        <ele>890.8</ele>
        <time>2013-08-02T11:47:14Z</time>
      </trkpt>
      <trkpt lat="46.75742" lon="6.25454">
        <ele>891.28</ele>
        <time>2013-08-02T11:47:20Z</time>
      </trkpt>
      <trkpt lat="46.75746" lon="6.25441">
        <ele>891.28</ele>
        <time>2013-08-02T11:47:23Z</time>
      </trkpt>
      <trkpt lat="46.75753" lon="6.25413">
        <ele>890.32</ele>
        <time>2013-08-02T11:47:29Z</time>
      </trkpt>
      <trkpt lat="46.7576" lon="6.25382">
        <ele>891.76</ele>
        <time>2013-08-02T11:47:37Z</time>
      </trkpt>
      <trkpt lat="46.75763" lon="6.25363">
        <ele>891.28</ele>
        <time>2013-08-02T11:47:41Z</time>
      </trkpt>
      <trkpt lat="46.75764" lon="6.25346">
        <ele>889.84</ele>
        <time>2013-08-02T11:47:46Z</time>
      </trkpt>
      <trkpt lat="46.75765" lon="6.25315">
        <ele>887.43</ele>
        <time>2013-08-02T11:47:52Z</time>
      </trkpt>
      <trkpt lat="46.75765" lon="6.25297">
        <ele>886.47</ele>
        <time>2013-08-02T11:47:55Z</time>
      </trkpt>
      <trkpt lat="46.75766" lon="6.25281">
        <ele>885.99</ele>
        <time>2013-08-02T11:47:59Z</time>
      </trkpt>
      <trkpt lat="46.7577" lon="6.25252">
        <ele>885.99</ele>
        <time>2013-08-02T11:48:05Z</time>
      </trkpt>
      <trkpt lat="46.75777" lon="6.25212">
        <ele>885.03</ele>
        <time>2013-08-02T11:48:16Z</time>
      </trkpt>
      <trkpt lat="46.75792" lon="6.25172">
        <ele>884.55</ele>
        <time>2013-08-02T11:48:25Z</time>
      </trkpt>
      <trkpt lat="46.75801" lon="6.25142">
        <ele>884.55</ele>
        <time>2013-08-02T11:48:32Z</time>
      </trkpt>
      <trkpt lat="46.7582" lon="6.25089">
        <ele>882.63</ele>
        <time>2013-08-02T11:48:43Z</time>
      </trkpt>
      <trkpt lat="46.75833" lon="6.25058">
        <ele>883.11</ele>
        <time>2013-08-02T11:48:51Z</time>
      </trkpt>
      <trkpt lat="46.75837" lon="6.25036">
        <ele>881.67</ele>
        <time>2013-08-02T11:48:57Z</time>
      </trkpt>
      <trkpt lat="46.75838" lon="6.24982">
        <ele>877.82</ele>
        <time>2013-08-02T11:49:04Z</time>
      </trkpt>
      <trkpt lat="46.75846" lon="6.24937">
        <ele>877.82</ele>
        <time>2013-08-02T11:49:11Z</time>
      </trkpt>
      <trkpt lat="46.75845" lon="6.24915">
        <ele>876.86</ele>
        <time>2013-08-02T11:49:15Z</time>
      </trkpt>
      <trkpt lat="46.75842" lon="6.24896">
        <ele>875.9</ele>
        <time>2013-08-02T11:49:18Z</time>
      </trkpt>
      <trkpt lat="46.75835" lon="6.24828">
        <ele>872.05</ele>
        <time>2013-08-02T11:49:28Z</time>
      </trkpt>
      <trkpt lat="46.75833" lon="6.24785">
        <ele>871.09</ele>
        <time>2013-08-02T11:49:36Z</time>
      </trkpt>
      <trkpt lat="46.75855" lon="6.24724">
        <ele>870.13</ele>
        <time>2013-08-02T11:49:49Z</time>
      </trkpt>
      <trkpt lat="46.75916" lon="6.24677">
        <ele>870.61</ele>
        <time>2013-08-02T11:50:06Z</time>
      </trkpt>
      <trkpt lat="46.7594" lon="6.24657">
        <ele>871.09</ele>
        <time>2013-08-02T11:50:12Z</time>
      </trkpt>
      <trkpt lat="46.75968" lon="6.24638">
        <ele>871.09</ele>
        <time>2013-08-02T11:50:19Z</time>
      </trkpt>
      <trkpt lat="46.75978" lon="6.24628">
        <ele>870.61</ele>
        <time>2013-08-02T11:50:22Z</time>
      </trkpt>
      <trkpt lat="46.76046" lon="6.24579">
        <ele>870.13</ele>
        <time>2013-08-02T11:50:38Z</time>
      </trkpt>
      <trkpt lat="46.76128" lon="6.24514">
        <ele>871.09</ele>
        <time>2013-08-02T11:50:56Z</time>
      </trkpt>
      <trkpt lat="46.76132" lon="6.24511">
        <ele>871.09</ele>
        <time>2013-08-02T11:50:57Z</time>
      </trkpt>
      <trkpt lat="46.76173" lon="6.24479">
        <ele>873.5</ele>
        <time>2013-08-02T11:51:11Z</time>
      </trkpt>
      <trkpt lat="46.76213" lon="6.24457">
        <ele>875.42</ele>
        <time>2013-08-02T11:51:27Z</time>
      </trkpt>
      <trkpt lat="46.76257" lon="6.24435">
        <ele>877.34</ele>
        <time>2013-08-02T11:51:45Z</time>
      </trkpt>
      <trkpt lat="46.76302" lon="6.24425">
        <ele>880.71</ele>
        <time>2013-08-02T11:52:04Z</time>
      </trkpt>
      <trkpt lat="46.76334" lon="6.24425">
        <ele>882.63</ele>
        <time>2013-08-02T11:52:18Z</time>
      </trkpt>
      <trkpt lat="46.76376" lon="6.24431">
        <ele>885.03</ele>
        <time>2013-08-02T11:52:37Z</time>
      </trkpt>
      <trkpt lat="46.76406" lon="6.24411">
        <ele>888.4</ele>
        <time>2013-08-02T11:52:54Z</time>
      </trkpt>
      <trkpt lat="46.76426" lon="6.24393">
        <ele>891.28</ele>
        <time>2013-08-02T11:53:06Z</time>
      </trkpt>
      <trkpt lat="46.76453" lon="6.2438">
        <ele>893.68</ele>
        <time>2013-08-02T11:53:22Z</time>
      </trkpt>
      <trkpt lat="46.76478" lon="6.24401">
        <ele>896.57</ele>
        <time>2013-08-02T11:53:37Z</time>
      </trkpt>
      <trkpt lat="46.76508" lon="6.24429">
        <ele>899.45</ele>
        <time>2013-08-02T11:53:55Z</time>
      </trkpt>
      <trkpt lat="46.76535" lon="6.24448">
        <ele>902.33</ele>
        <time>2013-08-02T11:54:10Z</time>
      </trkpt>
      <trkpt lat="46.76557" lon="6.24463">
        <ele>905.22</ele>
        <time>2013-08-02T11:54:22Z</time>
      </trkpt>
      <trkpt lat="46.76588" lon="6.24474">
        <ele>908.58</ele>
        <time>2013-08-02T11:54:37Z</time>
      </trkpt>
      <trkpt lat="46.76617" lon="6.24474">
        <ele>911.47</ele>
        <time>2013-08-02T11:54:51Z</time>
      </trkpt>
      <trkpt lat="46.7665" lon="6.24456">
        <ele>913.87</ele>
        <time>2013-08-02T11:55:07Z</time>
      </trkpt>
      <trkpt lat="46.76681" lon="6.24402">
        <ele>912.91</ele>
        <time>2013-08-02T11:55:22Z</time>
      </trkpt>
      <trkpt lat="46.767" lon="6.24361">
        <ele>910.03</ele>
        <time>2013-08-02T11:55:27Z</time>
      </trkpt>
      <trkpt lat="46.76753" lon="6.24298">
        <ele>911.47</ele>
        <time>2013-08-02T11:55:37Z</time>
      </trkpt>
      <trkpt lat="46.7677" lon="6.2427">
        <ele>912.91</ele>
        <time>2013-08-02T11:55:42Z</time>
      </trkpt>
      <trkpt lat="46.76776" lon="6.2425">
        <ele>912.91</ele>
        <time>2013-08-02T11:55:45Z</time>
      </trkpt>
      <trkpt lat="46.76787" lon="6.24226">
        <ele>912.91</ele>
        <time>2013-08-02T11:55:49Z</time>
      </trkpt>
      <trkpt lat="46.76798" lon="6.24189">
        <ele>912.43</ele>
        <time>2013-08-02T11:55:54Z</time>
      </trkpt>
      <trkpt lat="46.768" lon="6.24166">
        <ele>912.43</ele>
        <time>2013-08-02T11:55:57Z</time>
      </trkpt>
      <trkpt lat="46.76808" lon="6.24128">
        <ele>912.43</ele>
        <time>2013-08-02T11:56:02Z</time>
      </trkpt>
      <trkpt lat="46.76826" lon="6.24107">
        <ele>913.87</ele>
        <time>2013-08-02T11:56:07Z</time>
      </trkpt>
      <trkpt lat="46.76837" lon="6.24103">
        <ele>913.39</ele>
        <time>2013-08-02T11:56:09Z</time>
      </trkpt>
      <trkpt lat="46.76857" lon="6.24065">
        <ele>911.95</ele>
        <time>2013-08-02T11:56:15Z</time>
      </trkpt>
      <trkpt lat="46.76861" lon="6.24033">
        <ele>913.39</ele>
        <time>2013-08-02T11:56:19Z</time>
      </trkpt>
      <trkpt lat="46.76871" lon="6.24007">
        <ele>913.39</ele>
        <time>2013-08-02T11:56:23Z</time>
      </trkpt>
      <trkpt lat="46.76881" lon="6.23979">
        <ele>913.87</ele>
        <time>2013-08-02T11:56:28Z</time>
      </trkpt>
      <trkpt lat="46.76893" lon="6.23956">
        <ele>914.83</ele>
        <time>2013-08-02T11:56:33Z</time>
      </trkpt>
      <trkpt lat="46.76894" lon="6.23946">
        <ele>915.31</ele>
        <time>2013-08-02T11:56:43Z</time>
      </trkpt>
    </trkseg>
  </trk>
</gpx>